<?xml version="1.0" encoding="UTF-8" standalone="no" ?>
<gpx xmlns="http://www.topografix.com/GPX/1/1" xmlns:xsi="http://www.w3.org/2001/XMLSchema-instance" xsi:schemaLocation="http://www.topografix.com/GPX/1/1 http://www.topografix.com/GPX/1/1/gpx.xsd" version="1.1" creator="VisuGPX - https://www.visugpx.com">
  <metadata>
    <name>Dornas - Grand virage de Sardige - Dornas</name>
    <desc><![CDATA[Circuit au départ de Dornas en direction du "grand virage de Sardige". Retour au plus court par Chambonnet, Noirol, "La Gardiole".]]></desc>
  </metadata>
  <trk>
    <name><![CDATA[Grand Dornas]]></name>
    <trkseg>
      <trkpt lat="44.84932" lon="4.35321">
        <ele>619.97</ele>
        <time>2018-07-23T12:38:56Z</time>
      </trkpt>
      <trkpt lat="44.8493" lon="4.35304">
        <ele>620.203</ele>
        <time>2018-07-23T12:39:02Z</time>
      </trkpt>
      <trkpt lat="44.84919" lon="4.35318">
        <ele>620.438</ele>
        <time>2018-07-23T12:39:08Z</time>
      </trkpt>
      <trkpt lat="44.84917" lon="4.35322">
        <ele>620.438</ele>
        <time>2018-07-23T12:39:09Z</time>
      </trkpt>
      <trkpt lat="44.84908" lon="4.35331">
        <ele>621.558</ele>
        <time>2018-07-23T12:39:16Z</time>
      </trkpt>
      <trkpt lat="44.84901" lon="4.35334">
        <ele>621.204</ele>
        <time>2018-07-23T12:39:22Z</time>
      </trkpt>
      <trkpt lat="44.84897" lon="4.35335">
        <ele>621.37</ele>
        <time>2018-07-23T12:39:25Z</time>
      </trkpt>
      <trkpt lat="44.84888" lon="4.35335">
        <ele>621.851</ele>
        <time>2018-07-23T12:39:32Z</time>
      </trkpt>
      <trkpt lat="44.84881" lon="4.35337">
        <ele>622.491</ele>
        <time>2018-07-23T12:39:39Z</time>
      </trkpt>
      <trkpt lat="44.84876" lon="4.35342">
        <ele>622.483</ele>
        <time>2018-07-23T12:39:43Z</time>
      </trkpt>
      <trkpt lat="44.84873" lon="4.35343">
        <ele>622.684</ele>
        <time>2018-07-23T12:39:46Z</time>
      </trkpt>
      <trkpt lat="44.84869" lon="4.35345">
        <ele>622.98</ele>
        <time>2018-07-23T12:39:49Z</time>
      </trkpt>
      <trkpt lat="44.84865" lon="4.35345">
        <ele>623.109</ele>
        <time>2018-07-23T12:39:53Z</time>
      </trkpt>
      <trkpt lat="44.84859" lon="4.35349">
        <ele>623.844</ele>
        <time>2018-07-23T12:39:58Z</time>
      </trkpt>
      <trkpt lat="44.84851" lon="4.35345">
        <ele>624.185</ele>
        <time>2018-07-23T12:40:06Z</time>
      </trkpt>
      <trkpt lat="44.84844" lon="4.35346">
        <ele>624.222</ele>
        <time>2018-07-23T12:40:13Z</time>
      </trkpt>
      <trkpt lat="44.84839" lon="4.35345">
        <ele>624.584</ele>
        <time>2018-07-23T12:40:17Z</time>
      </trkpt>
      <trkpt lat="44.84834" lon="4.35346">
        <ele>624.887</ele>
        <time>2018-07-23T12:40:29Z</time>
      </trkpt>
      <trkpt lat="44.84828" lon="4.35349">
        <ele>625.519</ele>
        <time>2018-07-23T12:40:33Z</time>
      </trkpt>
      <trkpt lat="44.84822" lon="4.35344">
        <ele>626.098</ele>
        <time>2018-07-23T12:40:40Z</time>
      </trkpt>
      <trkpt lat="44.8482" lon="4.35343">
        <ele>626.568</ele>
        <time>2018-07-23T12:40:42Z</time>
      </trkpt>
      <trkpt lat="44.84815" lon="4.35338">
        <ele>626.983</ele>
        <time>2018-07-23T12:40:49Z</time>
      </trkpt>
      <trkpt lat="44.84807" lon="4.35337">
        <ele>626.983</ele>
        <time>2018-07-23T12:40:57Z</time>
      </trkpt>
      <trkpt lat="44.84804" lon="4.35339">
        <ele>627.49</ele>
        <time>2018-07-23T12:41:04Z</time>
      </trkpt>
      <trkpt lat="44.84802" lon="4.35342">
        <ele>627.316</ele>
        <time>2018-07-23T12:41:10Z</time>
      </trkpt>
      <trkpt lat="44.84799" lon="4.35339">
        <ele>627.472</ele>
        <time>2018-07-23T12:41:13Z</time>
      </trkpt>
      <trkpt lat="44.84796" lon="4.3533">
        <ele>627.662</ele>
        <time>2018-07-23T12:41:19Z</time>
      </trkpt>
      <trkpt lat="44.84793" lon="4.35327">
        <ele>628.145</ele>
        <time>2018-07-23T12:41:23Z</time>
      </trkpt>
      <trkpt lat="44.84791" lon="4.35327">
        <ele>627.749</ele>
        <time>2018-07-23T12:41:25Z</time>
      </trkpt>
      <trkpt lat="44.84786" lon="4.35326">
        <ele>628.735</ele>
        <time>2018-07-23T12:41:30Z</time>
      </trkpt>
      <trkpt lat="44.84781" lon="4.35324">
        <ele>629.039</ele>
        <time>2018-07-23T12:41:36Z</time>
      </trkpt>
      <trkpt lat="44.84777" lon="4.35321">
        <ele>629.387</ele>
        <time>2018-07-23T12:41:40Z</time>
      </trkpt>
      <trkpt lat="44.8477" lon="4.35319">
        <ele>629.641</ele>
        <time>2018-07-23T12:41:48Z</time>
      </trkpt>
      <trkpt lat="44.84759" lon="4.35318">
        <ele>630.674</ele>
        <time>2018-07-23T12:42:01Z</time>
      </trkpt>
      <trkpt lat="44.84751" lon="4.35324">
        <ele>630.867</ele>
        <time>2018-07-23T12:42:10Z</time>
      </trkpt>
      <trkpt lat="44.84746" lon="4.3533">
        <ele>631.67</ele>
        <time>2018-07-23T12:42:14Z</time>
      </trkpt>
      <trkpt lat="44.84735" lon="4.35332">
        <ele>632.08</ele>
        <time>2018-07-23T12:42:25Z</time>
      </trkpt>
      <trkpt lat="44.84731" lon="4.35332">
        <ele>632.201</ele>
        <time>2018-07-23T12:42:30Z</time>
      </trkpt>
      <trkpt lat="44.84722" lon="4.35334">
        <ele>632.653</ele>
        <time>2018-07-23T12:42:37Z</time>
      </trkpt>
      <trkpt lat="44.84716" lon="4.35341">
        <ele>632.637</ele>
        <time>2018-07-23T12:42:44Z</time>
      </trkpt>
      <trkpt lat="44.8471" lon="4.35343">
        <ele>633.073</ele>
        <time>2018-07-23T12:42:53Z</time>
      </trkpt>
      <trkpt lat="44.84708" lon="4.35345">
        <ele>633.385</ele>
        <time>2018-07-23T12:42:58Z</time>
      </trkpt>
      <trkpt lat="44.84706" lon="4.35336">
        <ele>633.311</ele>
        <time>2018-07-23T12:43:03Z</time>
      </trkpt>
      <trkpt lat="44.84704" lon="4.35327">
        <ele>634.675</ele>
        <time>2018-07-23T12:43:11Z</time>
      </trkpt>
      <trkpt lat="44.84705" lon="4.35322">
        <ele>635.602</ele>
        <time>2018-07-23T12:43:23Z</time>
      </trkpt>
      <trkpt lat="44.84716" lon="4.35319">
        <ele>637.536</ele>
        <time>2018-07-23T12:43:36Z</time>
      </trkpt>
      <trkpt lat="44.84718" lon="4.35317">
        <ele>637.777</ele>
        <time>2018-07-23T12:43:38Z</time>
      </trkpt>
      <trkpt lat="44.8472" lon="4.35314">
        <ele>639.37</ele>
        <time>2018-07-23T12:43:47Z</time>
      </trkpt>
      <trkpt lat="44.84723" lon="4.3529">
        <ele>639.666</ele>
        <time>2018-07-23T12:43:53Z</time>
      </trkpt>
      <trkpt lat="44.84721" lon="4.3528">
        <ele>640.289</ele>
        <time>2018-07-23T12:44:00Z</time>
      </trkpt>
      <trkpt lat="44.84717" lon="4.35277">
        <ele>641.597</ele>
        <time>2018-07-23T12:44:06Z</time>
      </trkpt>
      <trkpt lat="44.84711" lon="4.35272">
        <ele>642.863</ele>
        <time>2018-07-23T12:44:14Z</time>
      </trkpt>
      <trkpt lat="44.84707" lon="4.35268">
        <ele>644.015</ele>
        <time>2018-07-23T12:44:20Z</time>
      </trkpt>
      <trkpt lat="44.84702" lon="4.35267">
        <ele>644.414</ele>
        <time>2018-07-23T12:44:28Z</time>
      </trkpt>
      <trkpt lat="44.84695" lon="4.35273">
        <ele>645.955</ele>
        <time>2018-07-23T12:44:35Z</time>
      </trkpt>
      <trkpt lat="44.84693" lon="4.35277">
        <ele>646.782</ele>
        <time>2018-07-23T12:44:42Z</time>
      </trkpt>
      <trkpt lat="44.84693" lon="4.35281">
        <ele>647.144</ele>
        <time>2018-07-23T12:44:48Z</time>
      </trkpt>
      <trkpt lat="44.84692" lon="4.35285">
        <ele>651.552</ele>
        <time>2018-07-23T12:44:51Z</time>
      </trkpt>
      <trkpt lat="44.84687" lon="4.35289">
        <ele>662.999</ele>
        <time>2018-07-23T12:45:02Z</time>
      </trkpt>
      <trkpt lat="44.84683" lon="4.35292">
        <ele>667.078</ele>
        <time>2018-07-23T12:45:07Z</time>
      </trkpt>
      <trkpt lat="44.84681" lon="4.35293">
        <ele>669.141</ele>
        <time>2018-07-23T12:45:10Z</time>
      </trkpt>
      <trkpt lat="44.84675" lon="4.35292">
        <ele>673.329</ele>
        <time>2018-07-23T12:45:16Z</time>
      </trkpt>
      <trkpt lat="44.8467" lon="4.35293">
        <ele>676.28</ele>
        <time>2018-07-23T12:45:21Z</time>
      </trkpt>
      <trkpt lat="44.84666" lon="4.35293">
        <ele>678.024</ele>
        <time>2018-07-23T12:45:26Z</time>
      </trkpt>
      <trkpt lat="44.84661" lon="4.35294">
        <ele>679.68</ele>
        <time>2018-07-23T12:45:33Z</time>
      </trkpt>
      <trkpt lat="44.84656" lon="4.35295">
        <ele>681.224</ele>
        <time>2018-07-23T12:45:38Z</time>
      </trkpt>
      <trkpt lat="44.84646" lon="4.35294">
        <ele>682.944</ele>
        <time>2018-07-23T12:45:48Z</time>
      </trkpt>
      <trkpt lat="44.84643" lon="4.35295">
        <ele>682.944</ele>
        <time>2018-07-23T12:45:49Z</time>
      </trkpt>
      <trkpt lat="44.84635" lon="4.35294">
        <ele>684.76</ele>
        <time>2018-07-23T12:45:59Z</time>
      </trkpt>
      <trkpt lat="44.84632" lon="4.3529">
        <ele>685.245</ele>
        <time>2018-07-23T12:46:08Z</time>
      </trkpt>
      <trkpt lat="44.84629" lon="4.35289">
        <ele>686.232</ele>
        <time>2018-07-23T12:46:14Z</time>
      </trkpt>
      <trkpt lat="44.84624" lon="4.35292">
        <ele>687.201</ele>
        <time>2018-07-23T12:46:23Z</time>
      </trkpt>
      <trkpt lat="44.84619" lon="4.35296">
        <ele>687.877</ele>
        <time>2018-07-23T12:46:30Z</time>
      </trkpt>
      <trkpt lat="44.84612" lon="4.35305">
        <ele>689.028</ele>
        <time>2018-07-23T12:46:39Z</time>
      </trkpt>
      <trkpt lat="44.84605" lon="4.35323">
        <ele>689.839</ele>
        <time>2018-07-23T12:46:46Z</time>
      </trkpt>
      <trkpt lat="44.84601" lon="4.35325">
        <ele>690.716</ele>
        <time>2018-07-23T12:46:52Z</time>
      </trkpt>
      <trkpt lat="44.84592" lon="4.35329">
        <ele>691.662</ele>
        <time>2018-07-23T12:47:03Z</time>
      </trkpt>
      <trkpt lat="44.84588" lon="4.35329">
        <ele>692.751</ele>
        <time>2018-07-23T12:47:11Z</time>
      </trkpt>
      <trkpt lat="44.84583" lon="4.35331">
        <ele>693.398</ele>
        <time>2018-07-23T12:47:18Z</time>
      </trkpt>
      <trkpt lat="44.84579" lon="4.35333">
        <ele>694.077</ele>
        <time>2018-07-23T12:47:25Z</time>
      </trkpt>
      <trkpt lat="44.84576" lon="4.35334">
        <ele>694.765</ele>
        <time>2018-07-23T12:47:47Z</time>
      </trkpt>
      <trkpt lat="44.84569" lon="4.35335">
        <ele>695.112</ele>
        <time>2018-07-23T12:47:57Z</time>
      </trkpt>
      <trkpt lat="44.84563" lon="4.35341">
        <ele>696.311</ele>
        <time>2018-07-23T12:48:03Z</time>
      </trkpt>
      <trkpt lat="44.84555" lon="4.35348">
        <ele>697.46</ele>
        <time>2018-07-23T12:48:10Z</time>
      </trkpt>
      <trkpt lat="44.84546" lon="4.3535">
        <ele>699.413</ele>
        <time>2018-07-23T12:48:20Z</time>
      </trkpt>
      <trkpt lat="44.84542" lon="4.35351">
        <ele>699.687</ele>
        <time>2018-07-23T12:48:24Z</time>
      </trkpt>
      <trkpt lat="44.84541" lon="4.35345">
        <ele>700.962</ele>
        <time>2018-07-23T12:48:27Z</time>
      </trkpt>
      <trkpt lat="44.84536" lon="4.35347">
        <ele>701.423</ele>
        <time>2018-07-23T12:48:32Z</time>
      </trkpt>
      <trkpt lat="44.84531" lon="4.35348">
        <ele>703.356</ele>
        <time>2018-07-23T12:48:39Z</time>
      </trkpt>
      <trkpt lat="44.84522" lon="4.35347">
        <ele>704.142</ele>
        <time>2018-07-23T12:48:48Z</time>
      </trkpt>
      <trkpt lat="44.84517" lon="4.35346">
        <ele>705.098</ele>
        <time>2018-07-23T12:48:55Z</time>
      </trkpt>
      <trkpt lat="44.8451" lon="4.35348">
        <ele>706.453</ele>
        <time>2018-07-23T12:49:05Z</time>
      </trkpt>
      <trkpt lat="44.84508" lon="4.35348">
        <ele>706.643</ele>
        <time>2018-07-23T12:49:08Z</time>
      </trkpt>
      <trkpt lat="44.84503" lon="4.35341">
        <ele>707.363</ele>
        <time>2018-07-23T12:49:14Z</time>
      </trkpt>
      <trkpt lat="44.845" lon="4.35342">
        <ele>707.627</ele>
        <time>2018-07-23T12:49:16Z</time>
      </trkpt>
      <trkpt lat="44.84498" lon="4.35342">
        <ele>708.324</ele>
        <time>2018-07-23T12:49:19Z</time>
      </trkpt>
      <trkpt lat="44.84495" lon="4.35339">
        <ele>709.097</ele>
        <time>2018-07-23T12:49:24Z</time>
      </trkpt>
      <trkpt lat="44.84488" lon="4.35341">
        <ele>710.024</ele>
        <time>2018-07-23T12:49:32Z</time>
      </trkpt>
      <trkpt lat="44.84486" lon="4.35343">
        <ele>710.609</ele>
        <time>2018-07-23T12:49:39Z</time>
      </trkpt>
      <trkpt lat="44.84481" lon="4.35342">
        <ele>711.451</ele>
        <time>2018-07-23T12:49:56Z</time>
      </trkpt>
      <trkpt lat="44.84476" lon="4.35342">
        <ele>712.043</ele>
        <time>2018-07-23T12:50:05Z</time>
      </trkpt>
      <trkpt lat="44.84472" lon="4.35336">
        <ele>712.499</ele>
        <time>2018-07-23T12:50:18Z</time>
      </trkpt>
      <trkpt lat="44.84467" lon="4.35328">
        <ele>713.767</ele>
        <time>2018-07-23T12:50:26Z</time>
      </trkpt>
      <trkpt lat="44.84464" lon="4.3532">
        <ele>714.807</ele>
        <time>2018-07-23T12:50:56Z</time>
      </trkpt>
      <trkpt lat="44.84463" lon="4.35315">
        <ele>715.278</ele>
        <time>2018-07-23T12:51:12Z</time>
      </trkpt>
      <trkpt lat="44.84459" lon="4.35303">
        <ele>716.712</ele>
        <time>2018-07-23T12:51:23Z</time>
      </trkpt>
      <trkpt lat="44.84458" lon="4.35299">
        <ele>718.177</ele>
        <time>2018-07-23T12:52:03Z</time>
      </trkpt>
      <trkpt lat="44.84456" lon="4.3529">
        <ele>718.404</ele>
        <time>2018-07-23T12:52:10Z</time>
      </trkpt>
      <trkpt lat="44.84453" lon="4.35279">
        <ele>719.275</ele>
        <time>2018-07-23T12:52:20Z</time>
      </trkpt>
      <trkpt lat="44.8445" lon="4.35273">
        <ele>720.053</ele>
        <time>2018-07-23T12:52:27Z</time>
      </trkpt>
      <trkpt lat="44.84446" lon="4.35263">
        <ele>720.576</ele>
        <time>2018-07-23T12:52:35Z</time>
      </trkpt>
      <trkpt lat="44.84443" lon="4.35251">
        <ele>721.982</ele>
        <time>2018-07-23T12:52:43Z</time>
      </trkpt>
      <trkpt lat="44.84436" lon="4.35236">
        <ele>722.603</ele>
        <time>2018-07-23T12:52:54Z</time>
      </trkpt>
      <trkpt lat="44.84432" lon="4.35227">
        <ele>723.406</ele>
        <time>2018-07-23T12:53:02Z</time>
      </trkpt>
      <trkpt lat="44.84429" lon="4.3522">
        <ele>724.057</ele>
        <time>2018-07-23T12:53:11Z</time>
      </trkpt>
      <trkpt lat="44.84427" lon="4.35217">
        <ele>725.479</ele>
        <time>2018-07-23T12:53:14Z</time>
      </trkpt>
      <trkpt lat="44.84422" lon="4.35209">
        <ele>725.877</ele>
        <time>2018-07-23T12:53:23Z</time>
      </trkpt>
      <trkpt lat="44.84418" lon="4.35196">
        <ele>727.316</ele>
        <time>2018-07-23T12:53:33Z</time>
      </trkpt>
      <trkpt lat="44.84415" lon="4.35186">
        <ele>729.01</ele>
        <time>2018-07-23T12:53:43Z</time>
      </trkpt>
      <trkpt lat="44.84414" lon="4.35176">
        <ele>729.98</ele>
        <time>2018-07-23T12:53:51Z</time>
      </trkpt>
      <trkpt lat="44.84418" lon="4.35162">
        <ele>731.506</ele>
        <time>2018-07-23T12:53:59Z</time>
      </trkpt>
      <trkpt lat="44.84419" lon="4.35159">
        <ele>732.027</ele>
        <time>2018-07-23T12:54:07Z</time>
      </trkpt>
      <trkpt lat="44.84425" lon="4.35156">
        <ele>732.633</ele>
        <time>2018-07-23T12:54:17Z</time>
      </trkpt>
      <trkpt lat="44.84431" lon="4.35168">
        <ele>733.778</ele>
        <time>2018-07-23T12:54:24Z</time>
      </trkpt>
      <trkpt lat="44.84431" lon="4.35171">
        <ele>733.967</ele>
        <time>2018-07-23T12:54:26Z</time>
      </trkpt>
      <trkpt lat="44.84433" lon="4.35179">
        <ele>734.948</ele>
        <time>2018-07-23T12:54:36Z</time>
      </trkpt>
      <trkpt lat="44.84433" lon="4.35185">
        <ele>735.223</ele>
        <time>2018-07-23T12:54:45Z</time>
      </trkpt>
      <trkpt lat="44.84435" lon="4.3519">
        <ele>735.831</ele>
        <time>2018-07-23T12:54:52Z</time>
      </trkpt>
      <trkpt lat="44.84437" lon="4.35204">
        <ele>736.393</ele>
        <time>2018-07-23T12:55:00Z</time>
      </trkpt>
      <trkpt lat="44.84439" lon="4.35207">
        <ele>737.131</ele>
        <time>2018-07-23T12:55:08Z</time>
      </trkpt>
      <trkpt lat="44.84441" lon="4.35211">
        <ele>737.302</ele>
        <time>2018-07-23T12:55:14Z</time>
      </trkpt>
      <trkpt lat="44.84443" lon="4.35218">
        <ele>738.329</ele>
        <time>2018-07-23T12:55:19Z</time>
      </trkpt>
      <trkpt lat="44.84445" lon="4.35219">
        <ele>738.202</ele>
        <time>2018-07-23T12:55:21Z</time>
      </trkpt>
      <trkpt lat="44.84449" lon="4.35223">
        <ele>738.942</ele>
        <time>2018-07-23T12:55:28Z</time>
      </trkpt>
      <trkpt lat="44.84453" lon="4.35231">
        <ele>740.129</ele>
        <time>2018-07-23T12:55:41Z</time>
      </trkpt>
      <trkpt lat="44.84459" lon="4.35237">
        <ele>740.28</ele>
        <time>2018-07-23T12:55:49Z</time>
      </trkpt>
      <trkpt lat="44.84464" lon="4.35246">
        <ele>741.645</ele>
        <time>2018-07-23T12:55:57Z</time>
      </trkpt>
      <trkpt lat="44.84472" lon="4.35257">
        <ele>742.759</ele>
        <time>2018-07-23T12:56:08Z</time>
      </trkpt>
      <trkpt lat="44.84473" lon="4.35261">
        <ele>743.51</ele>
        <time>2018-07-23T12:56:11Z</time>
      </trkpt>
      <trkpt lat="44.84479" lon="4.3527">
        <ele>744.092</ele>
        <time>2018-07-23T12:56:20Z</time>
      </trkpt>
      <trkpt lat="44.84479" lon="4.35273">
        <ele>744.285</ele>
        <time>2018-07-23T12:56:23Z</time>
      </trkpt>
      <trkpt lat="44.84484" lon="4.3528">
        <ele>744.989</ele>
        <time>2018-07-23T12:57:13Z</time>
      </trkpt>
      <trkpt lat="44.84486" lon="4.3528">
        <ele>745.062</ele>
        <time>2018-07-23T12:57:20Z</time>
      </trkpt>
      <trkpt lat="44.8449" lon="4.35285">
        <ele>746.574</ele>
        <time>2018-07-23T12:57:32Z</time>
      </trkpt>
      <trkpt lat="44.84497" lon="4.35288">
        <ele>746.344</ele>
        <time>2018-07-23T12:57:41Z</time>
      </trkpt>
      <trkpt lat="44.84504" lon="4.35282">
        <ele>747.065</ele>
        <time>2018-07-23T12:57:49Z</time>
      </trkpt>
      <trkpt lat="44.84508" lon="4.35278">
        <ele>747.083</ele>
        <time>2018-07-23T12:57:54Z</time>
      </trkpt>
      <trkpt lat="44.84512" lon="4.35271">
        <ele>747.886</ele>
        <time>2018-07-23T12:58:00Z</time>
      </trkpt>
      <trkpt lat="44.84512" lon="4.35266">
        <ele>747.927</ele>
        <time>2018-07-23T12:58:03Z</time>
      </trkpt>
      <trkpt lat="44.84516" lon="4.35264">
        <ele>749.113</ele>
        <time>2018-07-23T12:58:10Z</time>
      </trkpt>
      <trkpt lat="44.84515" lon="4.35256">
        <ele>749.124</ele>
        <time>2018-07-23T12:58:15Z</time>
      </trkpt>
      <trkpt lat="44.8451" lon="4.35253">
        <ele>749.434</ele>
        <time>2018-07-23T12:58:18Z</time>
      </trkpt>
      <trkpt lat="44.84507" lon="4.35254">
        <ele>750.15</ele>
        <time>2018-07-23T12:58:21Z</time>
      </trkpt>
      <trkpt lat="44.84501" lon="4.3526">
        <ele>751.425</ele>
        <time>2018-07-23T12:58:28Z</time>
      </trkpt>
      <trkpt lat="44.84494" lon="4.35259">
        <ele>751.995</ele>
        <time>2018-07-23T12:58:36Z</time>
      </trkpt>
      <trkpt lat="44.8449" lon="4.35258">
        <ele>752.131</ele>
        <time>2018-07-23T12:58:43Z</time>
      </trkpt>
      <trkpt lat="44.84487" lon="4.35257">
        <ele>752.373</ele>
        <time>2018-07-23T12:58:54Z</time>
      </trkpt>
      <trkpt lat="44.84482" lon="4.35243">
        <ele>753.479</ele>
        <time>2018-07-23T12:59:03Z</time>
      </trkpt>
      <trkpt lat="44.84476" lon="4.35229">
        <ele>753.866</ele>
        <time>2018-07-23T12:59:13Z</time>
      </trkpt>
      <trkpt lat="44.84472" lon="4.35215">
        <ele>754.535</ele>
        <time>2018-07-23T12:59:22Z</time>
      </trkpt>
      <trkpt lat="44.84468" lon="4.35206">
        <ele>754.672</ele>
        <time>2018-07-23T12:59:29Z</time>
      </trkpt>
      <trkpt lat="44.84466" lon="4.35202">
        <ele>754.78</ele>
        <time>2018-07-23T12:59:35Z</time>
      </trkpt>
      <trkpt lat="44.84467" lon="4.35195">
        <ele>755.017</ele>
        <time>2018-07-23T12:59:39Z</time>
      </trkpt>
      <trkpt lat="44.84463" lon="4.35183">
        <ele>754.865</ele>
        <time>2018-07-23T12:59:48Z</time>
      </trkpt>
      <trkpt lat="44.84462" lon="4.35177">
        <ele>755.454</ele>
        <time>2018-07-23T12:59:55Z</time>
      </trkpt>
      <trkpt lat="44.84461" lon="4.35163">
        <ele>756.131</ele>
        <time>2018-07-23T13:00:05Z</time>
      </trkpt>
      <trkpt lat="44.84461" lon="4.3515">
        <ele>756.426</ele>
        <time>2018-07-23T13:00:17Z</time>
      </trkpt>
      <trkpt lat="44.8446" lon="4.35135">
        <ele>756.732</ele>
        <time>2018-07-23T13:00:26Z</time>
      </trkpt>
      <trkpt lat="44.84456" lon="4.35116">
        <ele>757.473</ele>
        <time>2018-07-23T13:00:35Z</time>
      </trkpt>
      <trkpt lat="44.84456" lon="4.35107">
        <ele>758.27</ele>
        <time>2018-07-23T13:00:42Z</time>
      </trkpt>
      <trkpt lat="44.84459" lon="4.35095">
        <ele>759.167</ele>
        <time>2018-07-23T13:00:52Z</time>
      </trkpt>
      <trkpt lat="44.84463" lon="4.35082">
        <ele>760.367</ele>
        <time>2018-07-23T13:01:04Z</time>
      </trkpt>
      <trkpt lat="44.84458" lon="4.3506">
        <ele>762.1</ele>
        <time>2018-07-23T13:01:17Z</time>
      </trkpt>
      <trkpt lat="44.84457" lon="4.35052">
        <ele>762.781</ele>
        <time>2018-07-23T13:01:23Z</time>
      </trkpt>
      <trkpt lat="44.84452" lon="4.35043">
        <ele>763.868</ele>
        <time>2018-07-23T13:01:32Z</time>
      </trkpt>
      <trkpt lat="44.84444" lon="4.35042">
        <ele>764.688</ele>
        <time>2018-07-23T13:01:42Z</time>
      </trkpt>
      <trkpt lat="44.8444" lon="4.3504">
        <ele>765.517</ele>
        <time>2018-07-23T13:01:47Z</time>
      </trkpt>
      <trkpt lat="44.84434" lon="4.35045">
        <ele>765.476</ele>
        <time>2018-07-23T13:01:52Z</time>
      </trkpt>
      <trkpt lat="44.84428" lon="4.35043">
        <ele>766.661</ele>
        <time>2018-07-23T13:01:59Z</time>
      </trkpt>
      <trkpt lat="44.84424" lon="4.35049">
        <ele>767.573</ele>
        <time>2018-07-23T13:02:05Z</time>
      </trkpt>
      <trkpt lat="44.84418" lon="4.35049">
        <ele>768.426</ele>
        <time>2018-07-23T13:02:18Z</time>
      </trkpt>
      <trkpt lat="44.84404" lon="4.35041">
        <ele>769.526</ele>
        <time>2018-07-23T13:02:32Z</time>
      </trkpt>
      <trkpt lat="44.84396" lon="4.35034">
        <ele>770.661</ele>
        <time>2018-07-23T13:02:43Z</time>
      </trkpt>
      <trkpt lat="44.8439" lon="4.35034">
        <ele>771.445</ele>
        <time>2018-07-23T13:02:47Z</time>
      </trkpt>
      <trkpt lat="44.84385" lon="4.35029">
        <ele>771.202</ele>
        <time>2018-07-23T13:02:53Z</time>
      </trkpt>
      <trkpt lat="44.84378" lon="4.35026">
        <ele>772.456</ele>
        <time>2018-07-23T13:03:01Z</time>
      </trkpt>
      <trkpt lat="44.84372" lon="4.35024">
        <ele>772.994</ele>
        <time>2018-07-23T13:03:08Z</time>
      </trkpt>
      <trkpt lat="44.84368" lon="4.35015">
        <ele>774.006</ele>
        <time>2018-07-23T13:03:16Z</time>
      </trkpt>
      <trkpt lat="44.84356" lon="4.35014">
        <ele>774.848</ele>
        <time>2018-07-23T13:03:26Z</time>
      </trkpt>
      <trkpt lat="44.84346" lon="4.35011">
        <ele>776.173</ele>
        <time>2018-07-23T13:03:35Z</time>
      </trkpt>
      <trkpt lat="44.84339" lon="4.35002">
        <ele>776.63</ele>
        <time>2018-07-23T13:03:43Z</time>
      </trkpt>
      <trkpt lat="44.84331" lon="4.34994">
        <ele>777.72</ele>
        <time>2018-07-23T13:03:54Z</time>
      </trkpt>
      <trkpt lat="44.84326" lon="4.34986">
        <ele>778.867</ele>
        <time>2018-07-23T13:04:03Z</time>
      </trkpt>
      <trkpt lat="44.84325" lon="4.3498">
        <ele>779.666</ele>
        <time>2018-07-23T13:04:10Z</time>
      </trkpt>
      <trkpt lat="44.84322" lon="4.34971">
        <ele>780.486</ele>
        <time>2018-07-23T13:04:18Z</time>
      </trkpt>
      <trkpt lat="44.84317" lon="4.34958">
        <ele>781.828</ele>
        <time>2018-07-23T13:04:27Z</time>
      </trkpt>
      <trkpt lat="44.84315" lon="4.34949">
        <ele>782.686</ele>
        <time>2018-07-23T13:04:36Z</time>
      </trkpt>
      <trkpt lat="44.84314" lon="4.34946">
        <ele>782.849</ele>
        <time>2018-07-23T13:04:42Z</time>
      </trkpt>
      <trkpt lat="44.84312" lon="4.34941">
        <ele>783.733</ele>
        <time>2018-07-23T13:04:54Z</time>
      </trkpt>
      <trkpt lat="44.84305" lon="4.34934">
        <ele>784.459</ele>
        <time>2018-07-23T13:05:03Z</time>
      </trkpt>
      <trkpt lat="44.84302" lon="4.34931">
        <ele>785.143</ele>
        <time>2018-07-23T13:05:15Z</time>
      </trkpt>
      <trkpt lat="44.84297" lon="4.34923">
        <ele>785.864</ele>
        <time>2018-07-23T13:05:22Z</time>
      </trkpt>
      <trkpt lat="44.84294" lon="4.34919">
        <ele>786.41</ele>
        <time>2018-07-23T13:05:26Z</time>
      </trkpt>
      <trkpt lat="44.84288" lon="4.34911">
        <ele>788.056</ele>
        <time>2018-07-23T13:05:36Z</time>
      </trkpt>
      <trkpt lat="44.84283" lon="4.34903">
        <ele>789.433</ele>
        <time>2018-07-23T13:05:43Z</time>
      </trkpt>
      <trkpt lat="44.84278" lon="4.34896">
        <ele>791.22</ele>
        <time>2018-07-23T13:05:52Z</time>
      </trkpt>
      <trkpt lat="44.84273" lon="4.3489">
        <ele>791.969</ele>
        <time>2018-07-23T13:05:59Z</time>
      </trkpt>
      <trkpt lat="44.84269" lon="4.34888">
        <ele>793.296</ele>
        <time>2018-07-23T13:06:07Z</time>
      </trkpt>
      <trkpt lat="44.84265" lon="4.34885">
        <ele>794.191</ele>
        <time>2018-07-23T13:07:12Z</time>
      </trkpt>
      <trkpt lat="44.84259" lon="4.34868">
        <ele>795.299</ele>
        <time>2018-07-23T13:07:22Z</time>
      </trkpt>
      <trkpt lat="44.84251" lon="4.34854">
        <ele>796.187</ele>
        <time>2018-07-23T13:07:34Z</time>
      </trkpt>
      <trkpt lat="44.8425" lon="4.34852">
        <ele>796.334</ele>
        <time>2018-07-23T13:08:00Z</time>
      </trkpt>
      <trkpt lat="44.84247" lon="4.34851">
        <ele>796.629</ele>
        <time>2018-07-23T13:08:06Z</time>
      </trkpt>
      <trkpt lat="44.8424" lon="4.34849">
        <ele>796.944</ele>
        <time>2018-07-23T13:08:13Z</time>
      </trkpt>
      <trkpt lat="44.84234" lon="4.34849">
        <ele>797.17</ele>
        <time>2018-07-23T13:08:18Z</time>
      </trkpt>
      <trkpt lat="44.8423" lon="4.34848">
        <ele>797.072</ele>
        <time>2018-07-23T13:08:22Z</time>
      </trkpt>
      <trkpt lat="44.84222" lon="4.34843">
        <ele>798.505</ele>
        <time>2018-07-23T13:08:30Z</time>
      </trkpt>
      <trkpt lat="44.84211" lon="4.34837">
        <ele>798.462</ele>
        <time>2018-07-23T13:08:40Z</time>
      </trkpt>
      <trkpt lat="44.84199" lon="4.34834">
        <ele>798.802</ele>
        <time>2018-07-23T13:08:51Z</time>
      </trkpt>
      <trkpt lat="44.8419" lon="4.34831">
        <ele>797.854</ele>
        <time>2018-07-23T13:08:59Z</time>
      </trkpt>
      <trkpt lat="44.8418" lon="4.34818">
        <ele>797.698</ele>
        <time>2018-07-23T13:09:08Z</time>
      </trkpt>
      <trkpt lat="44.84179" lon="4.34805">
        <ele>797.668</ele>
        <time>2018-07-23T13:09:17Z</time>
      </trkpt>
      <trkpt lat="44.84179" lon="4.34799">
        <ele>798.484</ele>
        <time>2018-07-23T13:09:23Z</time>
      </trkpt>
      <trkpt lat="44.84178" lon="4.34792">
        <ele>799.04</ele>
        <time>2018-07-23T13:09:32Z</time>
      </trkpt>
      <trkpt lat="44.84178" lon="4.34783">
        <ele>799.57</ele>
        <time>2018-07-23T13:09:39Z</time>
      </trkpt>
      <trkpt lat="44.84179" lon="4.34776">
        <ele>800.311</ele>
        <time>2018-07-23T13:09:46Z</time>
      </trkpt>
      <trkpt lat="44.84179" lon="4.34771">
        <ele>801.172</ele>
        <time>2018-07-23T13:09:54Z</time>
      </trkpt>
      <trkpt lat="44.84178" lon="4.34761">
        <ele>801.637</ele>
        <time>2018-07-23T13:10:02Z</time>
      </trkpt>
      <trkpt lat="44.84173" lon="4.34748">
        <ele>801.762</ele>
        <time>2018-07-23T13:10:10Z</time>
      </trkpt>
      <trkpt lat="44.84167" lon="4.34743">
        <ele>801.674</ele>
        <time>2018-07-23T13:10:16Z</time>
      </trkpt>
      <trkpt lat="44.8416" lon="4.34738">
        <ele>801.752</ele>
        <time>2018-07-23T13:10:23Z</time>
      </trkpt>
      <trkpt lat="44.84154" lon="4.34726">
        <ele>801.858</ele>
        <time>2018-07-23T13:10:32Z</time>
      </trkpt>
      <trkpt lat="44.84156" lon="4.34715">
        <ele>801.621</ele>
        <time>2018-07-23T13:10:38Z</time>
      </trkpt>
      <trkpt lat="44.84164" lon="4.34703">
        <ele>802.181</ele>
        <time>2018-07-23T13:10:50Z</time>
      </trkpt>
      <trkpt lat="44.84171" lon="4.34696">
        <ele>802.171</ele>
        <time>2018-07-23T13:10:58Z</time>
      </trkpt>
      <trkpt lat="44.84175" lon="4.3469">
        <ele>802.566</ele>
        <time>2018-07-23T13:11:05Z</time>
      </trkpt>
      <trkpt lat="44.84175" lon="4.34678">
        <ele>803.165</ele>
        <time>2018-07-23T13:11:16Z</time>
      </trkpt>
      <trkpt lat="44.84171" lon="4.34668">
        <ele>803.458</ele>
        <time>2018-07-23T13:11:25Z</time>
      </trkpt>
      <trkpt lat="44.84168" lon="4.34655">
        <ele>804.256</ele>
        <time>2018-07-23T13:11:35Z</time>
      </trkpt>
      <trkpt lat="44.84166" lon="4.34644">
        <ele>804.714</ele>
        <time>2018-07-23T13:11:44Z</time>
      </trkpt>
      <trkpt lat="44.84166" lon="4.34626">
        <ele>805.552</ele>
        <time>2018-07-23T13:11:57Z</time>
      </trkpt>
      <trkpt lat="44.84166" lon="4.3461">
        <ele>806.148</ele>
        <time>2018-07-23T13:12:08Z</time>
      </trkpt>
      <trkpt lat="44.84171" lon="4.346">
        <ele>807.025</ele>
        <time>2018-07-23T13:12:17Z</time>
      </trkpt>
      <trkpt lat="44.84174" lon="4.34585">
        <ele>808.141</ele>
        <time>2018-07-23T13:12:29Z</time>
      </trkpt>
      <trkpt lat="44.84174" lon="4.34568">
        <ele>808.061</ele>
        <time>2018-07-23T13:12:41Z</time>
      </trkpt>
      <trkpt lat="44.84175" lon="4.34563">
        <ele>808.53</ele>
        <time>2018-07-23T13:12:49Z</time>
      </trkpt>
      <trkpt lat="44.84181" lon="4.34561">
        <ele>809.021</ele>
        <time>2018-07-23T13:12:54Z</time>
      </trkpt>
      <trkpt lat="44.84194" lon="4.3456">
        <ele>809.065</ele>
        <time>2018-07-23T13:13:03Z</time>
      </trkpt>
      <trkpt lat="44.84204" lon="4.34562">
        <ele>809.551</ele>
        <time>2018-07-23T13:13:11Z</time>
      </trkpt>
      <trkpt lat="44.84209" lon="4.34559">
        <ele>809.278</ele>
        <time>2018-07-23T13:13:45Z</time>
      </trkpt>
      <trkpt lat="44.84215" lon="4.34552">
        <ele>809.564</ele>
        <time>2018-07-23T13:13:52Z</time>
      </trkpt>
      <trkpt lat="44.84217" lon="4.34536">
        <ele>810.328</ele>
        <time>2018-07-23T13:14:04Z</time>
      </trkpt>
      <trkpt lat="44.84221" lon="4.34531">
        <ele>810.444</ele>
        <time>2018-07-23T13:14:14Z</time>
      </trkpt>
      <trkpt lat="44.84225" lon="4.34524">
        <ele>810.712</ele>
        <time>2018-07-23T13:14:20Z</time>
      </trkpt>
      <trkpt lat="44.84227" lon="4.34514">
        <ele>810.99</ele>
        <time>2018-07-23T13:14:28Z</time>
      </trkpt>
      <trkpt lat="44.84231" lon="4.34505">
        <ele>811.426</ele>
        <time>2018-07-23T13:14:34Z</time>
      </trkpt>
      <trkpt lat="44.84233" lon="4.34499">
        <ele>811.215</ele>
        <time>2018-07-23T13:14:38Z</time>
      </trkpt>
      <trkpt lat="44.84238" lon="4.34493">
        <ele>812.126</ele>
        <time>2018-07-23T13:14:45Z</time>
      </trkpt>
      <trkpt lat="44.84241" lon="4.34477">
        <ele>812.156</ele>
        <time>2018-07-23T13:14:56Z</time>
      </trkpt>
      <trkpt lat="44.84239" lon="4.34459">
        <ele>812.593</ele>
        <time>2018-07-23T13:15:07Z</time>
      </trkpt>
      <trkpt lat="44.84239" lon="4.3445">
        <ele>812.663</ele>
        <time>2018-07-23T13:15:14Z</time>
      </trkpt>
      <trkpt lat="44.84238" lon="4.34442">
        <ele>812.595</ele>
        <time>2018-07-23T13:15:18Z</time>
      </trkpt>
      <trkpt lat="44.84238" lon="4.34437">
        <ele>813.517</ele>
        <time>2018-07-23T13:15:20Z</time>
      </trkpt>
      <trkpt lat="44.84235" lon="4.34428">
        <ele>813.029</ele>
        <time>2018-07-23T13:15:28Z</time>
      </trkpt>
      <trkpt lat="44.84229" lon="4.34423">
        <ele>813.523</ele>
        <time>2018-07-23T13:15:35Z</time>
      </trkpt>
      <trkpt lat="44.84221" lon="4.34415">
        <ele>814.066</ele>
        <time>2018-07-23T13:15:45Z</time>
      </trkpt>
      <trkpt lat="44.84217" lon="4.34417">
        <ele>814.122</ele>
        <time>2018-07-23T13:15:49Z</time>
      </trkpt>
      <trkpt lat="44.84213" lon="4.34416">
        <ele>814.601</ele>
        <time>2018-07-23T13:15:56Z</time>
      </trkpt>
      <trkpt lat="44.8421" lon="4.34415">
        <ele>813.982</ele>
        <time>2018-07-23T13:15:58Z</time>
      </trkpt>
      <trkpt lat="44.842" lon="4.3441">
        <ele>814.471</ele>
        <time>2018-07-23T13:16:07Z</time>
      </trkpt>
      <trkpt lat="44.84187" lon="4.34413">
        <ele>814.475</ele>
        <time>2018-07-23T13:16:20Z</time>
      </trkpt>
      <trkpt lat="44.84181" lon="4.34415">
        <ele>814.776</ele>
        <time>2018-07-23T13:16:26Z</time>
      </trkpt>
      <trkpt lat="44.84174" lon="4.34417">
        <ele>814.954</ele>
        <time>2018-07-23T13:16:31Z</time>
      </trkpt>
      <trkpt lat="44.84164" lon="4.34417">
        <ele>814.763</ele>
        <time>2018-07-23T13:16:38Z</time>
      </trkpt>
      <trkpt lat="44.8416" lon="4.34415">
        <ele>815.199</ele>
        <time>2018-07-23T13:16:45Z</time>
      </trkpt>
      <trkpt lat="44.84152" lon="4.34415">
        <ele>815.258</ele>
        <time>2018-07-23T13:16:55Z</time>
      </trkpt>
      <trkpt lat="44.84143" lon="4.34414">
        <ele>815.354</ele>
        <time>2018-07-23T13:17:03Z</time>
      </trkpt>
      <trkpt lat="44.84142" lon="4.34414">
        <ele>815.686</ele>
        <time>2018-07-23T13:17:05Z</time>
      </trkpt>
      <trkpt lat="44.84132" lon="4.34411">
        <ele>815.903</ele>
        <time>2018-07-23T13:17:16Z</time>
      </trkpt>
      <trkpt lat="44.84119" lon="4.3441">
        <ele>816.251</ele>
        <time>2018-07-23T13:17:27Z</time>
      </trkpt>
      <trkpt lat="44.84109" lon="4.34407">
        <ele>816.563</ele>
        <time>2018-07-23T13:17:36Z</time>
      </trkpt>
      <trkpt lat="44.84113" lon="4.344">
        <ele>817.131</ele>
        <time>2018-07-23T13:17:43Z</time>
      </trkpt>
      <trkpt lat="44.84107" lon="4.34395">
        <ele>818.048</ele>
        <time>2018-07-23T13:17:55Z</time>
      </trkpt>
      <trkpt lat="44.84097" lon="4.34385">
        <ele>817.813</ele>
        <time>2018-07-23T13:18:05Z</time>
      </trkpt>
      <trkpt lat="44.84092" lon="4.34373">
        <ele>818.186</ele>
        <time>2018-07-23T13:18:12Z</time>
      </trkpt>
      <trkpt lat="44.84078" lon="4.34359">
        <ele>818.792</ele>
        <time>2018-07-23T13:18:22Z</time>
      </trkpt>
      <trkpt lat="44.84072" lon="4.34356">
        <ele>818.919</ele>
        <time>2018-07-23T13:18:33Z</time>
      </trkpt>
      <trkpt lat="44.84068" lon="4.34351">
        <ele>819.217</ele>
        <time>2018-07-23T13:18:42Z</time>
      </trkpt>
      <trkpt lat="44.8406" lon="4.34344">
        <ele>819.543</ele>
        <time>2018-07-23T13:18:50Z</time>
      </trkpt>
      <trkpt lat="44.84054" lon="4.34341">
        <ele>819.403</ele>
        <time>2018-07-23T13:18:55Z</time>
      </trkpt>
      <trkpt lat="44.84043" lon="4.34332">
        <ele>819.482</ele>
        <time>2018-07-23T13:19:05Z</time>
      </trkpt>
      <trkpt lat="44.84037" lon="4.34317">
        <ele>819.664</ele>
        <time>2018-07-23T13:19:14Z</time>
      </trkpt>
      <trkpt lat="44.84037" lon="4.34312">
        <ele>819.854</ele>
        <time>2018-07-23T13:19:16Z</time>
      </trkpt>
      <trkpt lat="44.84038" lon="4.34309">
        <ele>820.285</ele>
        <time>2018-07-23T13:19:18Z</time>
      </trkpt>
      <trkpt lat="44.84028" lon="4.34304">
        <ele>820.486</ele>
        <time>2018-07-23T13:19:25Z</time>
      </trkpt>
      <trkpt lat="44.8402" lon="4.34294">
        <ele>820.559</ele>
        <time>2018-07-23T13:19:33Z</time>
      </trkpt>
      <trkpt lat="44.84016" lon="4.34277">
        <ele>821.302</ele>
        <time>2018-07-23T13:19:45Z</time>
      </trkpt>
      <trkpt lat="44.84017" lon="4.34268">
        <ele>821.615</ele>
        <time>2018-07-23T13:19:56Z</time>
      </trkpt>
      <trkpt lat="44.84017" lon="4.34263">
        <ele>821.407</ele>
        <time>2018-07-23T13:19:58Z</time>
      </trkpt>
      <trkpt lat="44.84027" lon="4.34269">
        <ele>822.226</ele>
        <time>2018-07-23T13:21:52Z</time>
      </trkpt>
      <trkpt lat="44.84025" lon="4.34253">
        <ele>822.962</ele>
        <time>2018-07-23T13:22:02Z</time>
      </trkpt>
      <trkpt lat="44.8402" lon="4.34246">
        <ele>823.221</ele>
        <time>2018-07-23T13:22:12Z</time>
      </trkpt>
      <trkpt lat="44.84014" lon="4.34249">
        <ele>823.15</ele>
        <time>2018-07-23T13:22:25Z</time>
      </trkpt>
      <trkpt lat="44.84012" lon="4.34248">
        <ele>823.383</ele>
        <time>2018-07-23T13:22:39Z</time>
      </trkpt>
      <trkpt lat="44.84009" lon="4.34243">
        <ele>824.18</ele>
        <time>2018-07-23T13:22:45Z</time>
      </trkpt>
      <trkpt lat="44.84006" lon="4.34236">
        <ele>824.056</ele>
        <time>2018-07-23T13:22:48Z</time>
      </trkpt>
      <trkpt lat="44.84006" lon="4.34228">
        <ele>823.845</ele>
        <time>2018-07-23T13:22:50Z</time>
      </trkpt>
      <trkpt lat="44.83997" lon="4.3422">
        <ele>824.5</ele>
        <time>2018-07-23T13:22:58Z</time>
      </trkpt>
      <trkpt lat="44.83996" lon="4.34204">
        <ele>824.513</ele>
        <time>2018-07-23T13:23:07Z</time>
      </trkpt>
      <trkpt lat="44.83994" lon="4.34201">
        <ele>824.777</ele>
        <time>2018-07-23T13:23:11Z</time>
      </trkpt>
      <trkpt lat="44.83987" lon="4.34198">
        <ele>824.584</ele>
        <time>2018-07-23T13:23:18Z</time>
      </trkpt>
      <trkpt lat="44.83981" lon="4.34175">
        <ele>825.023</ele>
        <time>2018-07-23T13:23:32Z</time>
      </trkpt>
      <trkpt lat="44.83987" lon="4.34164">
        <ele>826.168</ele>
        <time>2018-07-23T13:23:41Z</time>
      </trkpt>
      <trkpt lat="44.83996" lon="4.34157">
        <ele>826.674</ele>
        <time>2018-07-23T13:23:48Z</time>
      </trkpt>
      <trkpt lat="44.84004" lon="4.34157">
        <ele>826.485</ele>
        <time>2018-07-23T13:23:56Z</time>
      </trkpt>
      <trkpt lat="44.84009" lon="4.34155">
        <ele>827.426</ele>
        <time>2018-07-23T13:24:13Z</time>
      </trkpt>
      <trkpt lat="44.84012" lon="4.34154">
        <ele>827.416</ele>
        <time>2018-07-23T13:24:26Z</time>
      </trkpt>
      <trkpt lat="44.8402" lon="4.34151">
        <ele>827.748</ele>
        <time>2018-07-23T13:24:44Z</time>
      </trkpt>
      <trkpt lat="44.84024" lon="4.34149">
        <ele>827.689</ele>
        <time>2018-07-23T13:24:47Z</time>
      </trkpt>
      <trkpt lat="44.8404" lon="4.34149">
        <ele>827.563</ele>
        <time>2018-07-23T13:24:59Z</time>
      </trkpt>
      <trkpt lat="44.84052" lon="4.34147">
        <ele>827.844</ele>
        <time>2018-07-23T13:25:08Z</time>
      </trkpt>
      <trkpt lat="44.84058" lon="4.34145">
        <ele>828.182</ele>
        <time>2018-07-23T13:25:16Z</time>
      </trkpt>
      <trkpt lat="44.84062" lon="4.34146">
        <ele>828.897</ele>
        <time>2018-07-23T13:26:06Z</time>
      </trkpt>
      <trkpt lat="44.84066" lon="4.34139">
        <ele>828.617</ele>
        <time>2018-07-23T13:26:36Z</time>
      </trkpt>
      <trkpt lat="44.84071" lon="4.34126">
        <ele>829.326</ele>
        <time>2018-07-23T13:26:48Z</time>
      </trkpt>
      <trkpt lat="44.84075" lon="4.34111">
        <ele>829.115</ele>
        <time>2018-07-23T13:26:58Z</time>
      </trkpt>
      <trkpt lat="44.84081" lon="4.34108">
        <ele>829.699</ele>
        <time>2018-07-23T13:27:43Z</time>
      </trkpt>
      <trkpt lat="44.84088" lon="4.34108">
        <ele>829.254</ele>
        <time>2018-07-23T13:27:49Z</time>
      </trkpt>
      <trkpt lat="44.84096" lon="4.34111">
        <ele>829.344</ele>
        <time>2018-07-23T13:27:55Z</time>
      </trkpt>
      <trkpt lat="44.84101" lon="4.34114">
        <ele>829.1</ele>
        <time>2018-07-23T13:28:03Z</time>
      </trkpt>
      <trkpt lat="44.84105" lon="4.34113">
        <ele>829.195</ele>
        <time>2018-07-23T13:28:07Z</time>
      </trkpt>
      <trkpt lat="44.84117" lon="4.34115">
        <ele>828.45</ele>
        <time>2018-07-23T13:28:15Z</time>
      </trkpt>
      <trkpt lat="44.84128" lon="4.34119">
        <ele>827.977</ele>
        <time>2018-07-23T13:28:27Z</time>
      </trkpt>
      <trkpt lat="44.84132" lon="4.3412">
        <ele>827.987</ele>
        <time>2018-07-23T13:28:30Z</time>
      </trkpt>
      <trkpt lat="44.8414" lon="4.34118">
        <ele>827.424</ele>
        <time>2018-07-23T13:28:37Z</time>
      </trkpt>
      <trkpt lat="44.84148" lon="4.34118">
        <ele>826.341</ele>
        <time>2018-07-23T13:28:45Z</time>
      </trkpt>
      <trkpt lat="44.8416" lon="4.34119">
        <ele>826.106</ele>
        <time>2018-07-23T13:28:55Z</time>
      </trkpt>
      <trkpt lat="44.84167" lon="4.34122">
        <ele>825.354</ele>
        <time>2018-07-23T13:29:03Z</time>
      </trkpt>
      <trkpt lat="44.84172" lon="4.34129">
        <ele>825.198</ele>
        <time>2018-07-23T13:29:12Z</time>
      </trkpt>
      <trkpt lat="44.84181" lon="4.34132">
        <ele>824.495</ele>
        <time>2018-07-23T13:29:21Z</time>
      </trkpt>
      <trkpt lat="44.84187" lon="4.34137">
        <ele>824.424</ele>
        <time>2018-07-23T13:29:26Z</time>
      </trkpt>
      <trkpt lat="44.84197" lon="4.34136">
        <ele>823.986</ele>
        <time>2018-07-23T13:29:33Z</time>
      </trkpt>
      <trkpt lat="44.84201" lon="4.34133">
        <ele>823.196</ele>
        <time>2018-07-23T13:29:37Z</time>
      </trkpt>
      <trkpt lat="44.84203" lon="4.34133">
        <ele>823.23</ele>
        <time>2018-07-23T13:29:39Z</time>
      </trkpt>
      <trkpt lat="44.8421" lon="4.3413">
        <ele>822.417</ele>
        <time>2018-07-23T13:29:46Z</time>
      </trkpt>
      <trkpt lat="44.84219" lon="4.34128">
        <ele>821.781</ele>
        <time>2018-07-23T13:29:54Z</time>
      </trkpt>
      <trkpt lat="44.84228" lon="4.34124">
        <ele>821.116</ele>
        <time>2018-07-23T13:30:03Z</time>
      </trkpt>
      <trkpt lat="44.84231" lon="4.34123">
        <ele>820.408</ele>
        <time>2018-07-23T13:30:10Z</time>
      </trkpt>
      <trkpt lat="44.84235" lon="4.34119">
        <ele>819.629</ele>
        <time>2018-07-23T13:30:18Z</time>
      </trkpt>
      <trkpt lat="44.84241" lon="4.34115">
        <ele>819.713</ele>
        <time>2018-07-23T13:30:26Z</time>
      </trkpt>
      <trkpt lat="44.84247" lon="4.34106">
        <ele>818.851</ele>
        <time>2018-07-23T13:30:35Z</time>
      </trkpt>
      <trkpt lat="44.84251" lon="4.34106">
        <ele>817.388</ele>
        <time>2018-07-23T13:31:48Z</time>
      </trkpt>
      <trkpt lat="44.84255" lon="4.34097">
        <ele>816.676</ele>
        <time>2018-07-23T13:31:56Z</time>
      </trkpt>
      <trkpt lat="44.84272" lon="4.34087">
        <ele>815.824</ele>
        <time>2018-07-23T13:32:06Z</time>
      </trkpt>
      <trkpt lat="44.84283" lon="4.34076">
        <ele>815.275</ele>
        <time>2018-07-23T13:32:16Z</time>
      </trkpt>
      <trkpt lat="44.84291" lon="4.34068">
        <ele>815.463</ele>
        <time>2018-07-23T13:32:24Z</time>
      </trkpt>
      <trkpt lat="44.84298" lon="4.34064">
        <ele>814.617</ele>
        <time>2018-07-23T13:32:30Z</time>
      </trkpt>
      <trkpt lat="44.84303" lon="4.34061">
        <ele>814.116</ele>
        <time>2018-07-23T13:32:36Z</time>
      </trkpt>
      <trkpt lat="44.8431" lon="4.34052">
        <ele>813.59</ele>
        <time>2018-07-23T13:32:44Z</time>
      </trkpt>
      <trkpt lat="44.84311" lon="4.34049">
        <ele>813.493</ele>
        <time>2018-07-23T13:32:47Z</time>
      </trkpt>
      <trkpt lat="44.84306" lon="4.3404">
        <ele>812.679</ele>
        <time>2018-07-23T13:32:57Z</time>
      </trkpt>
      <trkpt lat="44.843" lon="4.34038">
        <ele>812.528</ele>
        <time>2018-07-23T13:33:04Z</time>
      </trkpt>
      <trkpt lat="44.84294" lon="4.34034">
        <ele>811.702</ele>
        <time>2018-07-23T13:33:12Z</time>
      </trkpt>
      <trkpt lat="44.84289" lon="4.34029">
        <ele>810.659</ele>
        <time>2018-07-23T13:33:19Z</time>
      </trkpt>
      <trkpt lat="44.84283" lon="4.34023">
        <ele>810.794</ele>
        <time>2018-07-23T13:33:28Z</time>
      </trkpt>
      <trkpt lat="44.84274" lon="4.34017">
        <ele>809.879</ele>
        <time>2018-07-23T13:33:38Z</time>
      </trkpt>
      <trkpt lat="44.84267" lon="4.34008">
        <ele>809.222</ele>
        <time>2018-07-23T13:33:48Z</time>
      </trkpt>
      <trkpt lat="44.84264" lon="4.34003">
        <ele>809.42</ele>
        <time>2018-07-23T13:33:53Z</time>
      </trkpt>
      <trkpt lat="44.84252" lon="4.33986">
        <ele>808.845</ele>
        <time>2018-07-23T13:34:04Z</time>
      </trkpt>
      <trkpt lat="44.84246" lon="4.33972">
        <ele>808.927</ele>
        <time>2018-07-23T13:34:13Z</time>
      </trkpt>
      <trkpt lat="44.84242" lon="4.33963">
        <ele>808.765</ele>
        <time>2018-07-23T13:34:19Z</time>
      </trkpt>
      <trkpt lat="44.84242" lon="4.3396">
        <ele>808.204</ele>
        <time>2018-07-23T13:34:21Z</time>
      </trkpt>
      <trkpt lat="44.84242" lon="4.33956">
        <ele>808.378</ele>
        <time>2018-07-23T13:34:23Z</time>
      </trkpt>
      <trkpt lat="44.84243" lon="4.33949">
        <ele>807.688</ele>
        <time>2018-07-23T13:34:27Z</time>
      </trkpt>
      <trkpt lat="44.84246" lon="4.33934">
        <ele>808.36</ele>
        <time>2018-07-23T13:34:35Z</time>
      </trkpt>
      <trkpt lat="44.84245" lon="4.33922">
        <ele>808.353</ele>
        <time>2018-07-23T13:34:44Z</time>
      </trkpt>
      <trkpt lat="44.84245" lon="4.33919">
        <ele>808.308</ele>
        <time>2018-07-23T13:34:46Z</time>
      </trkpt>
      <trkpt lat="44.84245" lon="4.33904">
        <ele>808.583</ele>
        <time>2018-07-23T13:34:55Z</time>
      </trkpt>
      <trkpt lat="44.84249" lon="4.33888">
        <ele>808.322</ele>
        <time>2018-07-23T13:35:05Z</time>
      </trkpt>
      <trkpt lat="44.84252" lon="4.33871">
        <ele>809.062</ele>
        <time>2018-07-23T13:35:15Z</time>
      </trkpt>
      <trkpt lat="44.84256" lon="4.33858">
        <ele>809.288</ele>
        <time>2018-07-23T13:35:25Z</time>
      </trkpt>
      <trkpt lat="44.84256" lon="4.33845">
        <ele>810.203</ele>
        <time>2018-07-23T13:35:35Z</time>
      </trkpt>
      <trkpt lat="44.84252" lon="4.33843">
        <ele>809.677</ele>
        <time>2018-07-23T13:35:40Z</time>
      </trkpt>
      <trkpt lat="44.84241" lon="4.33844">
        <ele>809.532</ele>
        <time>2018-07-23T13:35:50Z</time>
      </trkpt>
      <trkpt lat="44.84239" lon="4.33842">
        <ele>809.273</ele>
        <time>2018-07-23T13:36:07Z</time>
      </trkpt>
      <trkpt lat="44.84233" lon="4.33844">
        <ele>809.219</ele>
        <time>2018-07-23T13:36:42Z</time>
      </trkpt>
      <trkpt lat="44.84227" lon="4.33843">
        <ele>809.521</ele>
        <time>2018-07-23T13:36:50Z</time>
      </trkpt>
      <trkpt lat="44.84224" lon="4.33843">
        <ele>809.238</ele>
        <time>2018-07-23T13:36:53Z</time>
      </trkpt>
      <trkpt lat="44.84212" lon="4.33843">
        <ele>809.614</ele>
        <time>2018-07-23T13:37:05Z</time>
      </trkpt>
      <trkpt lat="44.84201" lon="4.3384">
        <ele>809.773</ele>
        <time>2018-07-23T13:37:16Z</time>
      </trkpt>
      <trkpt lat="44.84189" lon="4.33832">
        <ele>809.94</ele>
        <time>2018-07-23T13:37:28Z</time>
      </trkpt>
      <trkpt lat="44.84173" lon="4.33828">
        <ele>809.748</ele>
        <time>2018-07-23T13:37:41Z</time>
      </trkpt>
      <trkpt lat="44.84158" lon="4.33822">
        <ele>809.259</ele>
        <time>2018-07-23T13:37:53Z</time>
      </trkpt>
      <trkpt lat="44.84152" lon="4.33819">
        <ele>808.793</ele>
        <time>2018-07-23T13:37:59Z</time>
      </trkpt>
      <trkpt lat="44.84142" lon="4.33815">
        <ele>808.59</ele>
        <time>2018-07-23T13:38:06Z</time>
      </trkpt>
      <trkpt lat="44.8413" lon="4.33818">
        <ele>808.102</ele>
        <time>2018-07-23T13:38:16Z</time>
      </trkpt>
      <trkpt lat="44.84131" lon="4.33808">
        <ele>807.93</ele>
        <time>2018-07-23T13:38:19Z</time>
      </trkpt>
      <trkpt lat="44.84127" lon="4.3379">
        <ele>807.22</ele>
        <time>2018-07-23T13:38:28Z</time>
      </trkpt>
      <trkpt lat="44.84133" lon="4.33773">
        <ele>807.359</ele>
        <time>2018-07-23T13:38:37Z</time>
      </trkpt>
      <trkpt lat="44.84131" lon="4.33768">
        <ele>806.818</ele>
        <time>2018-07-23T13:38:41Z</time>
      </trkpt>
      <trkpt lat="44.84123" lon="4.33759">
        <ele>806.283</ele>
        <time>2018-07-23T13:38:49Z</time>
      </trkpt>
      <trkpt lat="44.84113" lon="4.33746">
        <ele>806.152</ele>
        <time>2018-07-23T13:39:04Z</time>
      </trkpt>
      <trkpt lat="44.84118" lon="4.33731">
        <ele>806.365</ele>
        <time>2018-07-23T13:39:15Z</time>
      </trkpt>
      <trkpt lat="44.84123" lon="4.33722">
        <ele>806.37</ele>
        <time>2018-07-23T13:39:21Z</time>
      </trkpt>
      <trkpt lat="44.8413" lon="4.33715">
        <ele>806.673</ele>
        <time>2018-07-23T13:39:25Z</time>
      </trkpt>
      <trkpt lat="44.8414" lon="4.33699">
        <ele>806.207</ele>
        <time>2018-07-23T13:39:34Z</time>
      </trkpt>
      <trkpt lat="44.84151" lon="4.33698">
        <ele>806.936</ele>
        <time>2018-07-23T13:39:43Z</time>
      </trkpt>
      <trkpt lat="44.84149" lon="4.33683">
        <ele>806.28</ele>
        <time>2018-07-23T13:40:00Z</time>
      </trkpt>
      <trkpt lat="44.8415" lon="4.33662">
        <ele>806.406</ele>
        <time>2018-07-23T13:40:12Z</time>
      </trkpt>
      <trkpt lat="44.84161" lon="4.33636">
        <ele>805.911</ele>
        <time>2018-07-23T13:40:31Z</time>
      </trkpt>
      <trkpt lat="44.84154" lon="4.33622">
        <ele>805.918</ele>
        <time>2018-07-23T13:40:41Z</time>
      </trkpt>
      <trkpt lat="44.84166" lon="4.33608">
        <ele>806.194</ele>
        <time>2018-07-23T13:40:50Z</time>
      </trkpt>
      <trkpt lat="44.84174" lon="4.33598">
        <ele>806.283</ele>
        <time>2018-07-23T13:40:57Z</time>
      </trkpt>
      <trkpt lat="44.84175" lon="4.33592">
        <ele>806.059</ele>
        <time>2018-07-23T13:41:03Z</time>
      </trkpt>
      <trkpt lat="44.8418" lon="4.3358">
        <ele>806.677</ele>
        <time>2018-07-23T13:41:10Z</time>
      </trkpt>
      <trkpt lat="44.84181" lon="4.33563">
        <ele>806.401</ele>
        <time>2018-07-23T13:41:19Z</time>
      </trkpt>
      <trkpt lat="44.84183" lon="4.33553">
        <ele>806.632</ele>
        <time>2018-07-23T13:41:27Z</time>
      </trkpt>
      <trkpt lat="44.84182" lon="4.33538">
        <ele>807.338</ele>
        <time>2018-07-23T13:41:39Z</time>
      </trkpt>
      <trkpt lat="44.84194" lon="4.3352">
        <ele>807.56</ele>
        <time>2018-07-23T13:41:53Z</time>
      </trkpt>
      <trkpt lat="44.84196" lon="4.33512">
        <ele>807.063</ele>
        <time>2018-07-23T13:41:57Z</time>
      </trkpt>
      <trkpt lat="44.84197" lon="4.33502">
        <ele>807.589</ele>
        <time>2018-07-23T13:42:06Z</time>
      </trkpt>
      <trkpt lat="44.84192" lon="4.335">
        <ele>807.689</ele>
        <time>2018-07-23T13:42:14Z</time>
      </trkpt>
      <trkpt lat="44.84184" lon="4.33496">
        <ele>808.228</ele>
        <time>2018-07-23T13:42:23Z</time>
      </trkpt>
      <trkpt lat="44.84179" lon="4.33493">
        <ele>808.81</ele>
        <time>2018-07-23T13:42:30Z</time>
      </trkpt>
      <trkpt lat="44.84172" lon="4.33488">
        <ele>809.076</ele>
        <time>2018-07-23T13:42:39Z</time>
      </trkpt>
      <trkpt lat="44.84169" lon="4.33478">
        <ele>808.899</ele>
        <time>2018-07-23T13:42:48Z</time>
      </trkpt>
      <trkpt lat="44.84159" lon="4.3347">
        <ele>809.803</ele>
        <time>2018-07-23T13:43:00Z</time>
      </trkpt>
      <trkpt lat="44.84155" lon="4.33469">
        <ele>810.04</ele>
        <time>2018-07-23T13:43:04Z</time>
      </trkpt>
      <trkpt lat="44.84148" lon="4.33463">
        <ele>810.13</ele>
        <time>2018-07-23T13:43:51Z</time>
      </trkpt>
      <trkpt lat="44.84138" lon="4.33459">
        <ele>809.983</ele>
        <time>2018-07-23T13:45:25Z</time>
      </trkpt>
      <trkpt lat="44.84133" lon="4.33451">
        <ele>810.837</ele>
        <time>2018-07-23T13:45:39Z</time>
      </trkpt>
      <trkpt lat="44.84115" lon="4.33449">
        <ele>811.124</ele>
        <time>2018-07-23T13:45:53Z</time>
      </trkpt>
      <trkpt lat="44.84109" lon="4.33437">
        <ele>811.501</ele>
        <time>2018-07-23T13:46:07Z</time>
      </trkpt>
      <trkpt lat="44.84099" lon="4.3342">
        <ele>812.109</ele>
        <time>2018-07-23T13:46:16Z</time>
      </trkpt>
      <trkpt lat="44.84092" lon="4.33405">
        <ele>812.585</ele>
        <time>2018-07-23T13:46:25Z</time>
      </trkpt>
      <trkpt lat="44.84091" lon="4.33402">
        <ele>812.418</ele>
        <time>2018-07-23T13:46:27Z</time>
      </trkpt>
      <trkpt lat="44.84091" lon="4.33394">
        <ele>812.691</ele>
        <time>2018-07-23T13:46:34Z</time>
      </trkpt>
      <trkpt lat="44.84088" lon="4.33393">
        <ele>812.736</ele>
        <time>2018-07-23T13:46:36Z</time>
      </trkpt>
      <trkpt lat="44.84079" lon="4.33389">
        <ele>812.774</ele>
        <time>2018-07-23T13:46:44Z</time>
      </trkpt>
      <trkpt lat="44.84075" lon="4.33389">
        <ele>813.156</ele>
        <time>2018-07-23T13:46:49Z</time>
      </trkpt>
      <trkpt lat="44.84069" lon="4.33389">
        <ele>813.381</ele>
        <time>2018-07-23T13:46:57Z</time>
      </trkpt>
      <trkpt lat="44.84058" lon="4.33389">
        <ele>814.123</ele>
        <time>2018-07-23T13:47:20Z</time>
      </trkpt>
      <trkpt lat="44.84053" lon="4.33388">
        <ele>814.212</ele>
        <time>2018-07-23T13:47:30Z</time>
      </trkpt>
      <trkpt lat="44.84045" lon="4.33385">
        <ele>814.953</ele>
        <time>2018-07-23T13:47:38Z</time>
      </trkpt>
      <trkpt lat="44.84038" lon="4.33385">
        <ele>814.731</ele>
        <time>2018-07-23T13:47:46Z</time>
      </trkpt>
      <trkpt lat="44.84033" lon="4.33379">
        <ele>814.972</ele>
        <time>2018-07-23T13:47:51Z</time>
      </trkpt>
      <trkpt lat="44.84033" lon="4.33376">
        <ele>815.149</ele>
        <time>2018-07-23T13:47:53Z</time>
      </trkpt>
      <trkpt lat="44.84037" lon="4.3337">
        <ele>815.842</ele>
        <time>2018-07-23T13:47:58Z</time>
      </trkpt>
      <trkpt lat="44.84034" lon="4.33368">
        <ele>816.175</ele>
        <time>2018-07-23T13:48:02Z</time>
      </trkpt>
      <trkpt lat="44.84034" lon="4.33366">
        <ele>815.962</ele>
        <time>2018-07-23T13:48:04Z</time>
      </trkpt>
      <trkpt lat="44.84032" lon="4.33359">
        <ele>815.774</ele>
        <time>2018-07-23T13:48:09Z</time>
      </trkpt>
      <trkpt lat="44.84023" lon="4.33354">
        <ele>816.429</ele>
        <time>2018-07-23T13:48:14Z</time>
      </trkpt>
      <trkpt lat="44.8402" lon="4.33349">
        <ele>816.688</ele>
        <time>2018-07-23T13:48:18Z</time>
      </trkpt>
      <trkpt lat="44.84019" lon="4.33345">
        <ele>817.198</ele>
        <time>2018-07-23T13:49:02Z</time>
      </trkpt>
      <trkpt lat="44.84011" lon="4.33346">
        <ele>817.659</ele>
        <time>2018-07-23T13:49:09Z</time>
      </trkpt>
      <trkpt lat="44.84007" lon="4.33347">
        <ele>817.918</ele>
        <time>2018-07-23T13:49:14Z</time>
      </trkpt>
      <trkpt lat="44.83998" lon="4.33356">
        <ele>818.341</ele>
        <time>2018-07-23T13:49:22Z</time>
      </trkpt>
      <trkpt lat="44.83989" lon="4.33361">
        <ele>818.99</ele>
        <time>2018-07-23T13:49:31Z</time>
      </trkpt>
      <trkpt lat="44.83984" lon="4.33371">
        <ele>819.303</ele>
        <time>2018-07-23T13:49:40Z</time>
      </trkpt>
      <trkpt lat="44.83982" lon="4.33376">
        <ele>820.317</ele>
        <time>2018-07-23T13:50:35Z</time>
      </trkpt>
      <trkpt lat="44.83979" lon="4.33379">
        <ele>820.01</ele>
        <time>2018-07-23T13:50:47Z</time>
      </trkpt>
      <trkpt lat="44.83978" lon="4.33383">
        <ele>820.935</ele>
        <time>2018-07-23T13:50:54Z</time>
      </trkpt>
      <trkpt lat="44.83975" lon="4.33392">
        <ele>821.15</ele>
        <time>2018-07-23T13:51:02Z</time>
      </trkpt>
      <trkpt lat="44.83971" lon="4.33399">
        <ele>821.389</ele>
        <time>2018-07-23T13:51:08Z</time>
      </trkpt>
      <trkpt lat="44.83967" lon="4.33405">
        <ele>821.755</ele>
        <time>2018-07-23T13:51:12Z</time>
      </trkpt>
      <trkpt lat="44.83956" lon="4.33411">
        <ele>822.033</ele>
        <time>2018-07-23T13:51:21Z</time>
      </trkpt>
      <trkpt lat="44.83948" lon="4.33413">
        <ele>822.999</ele>
        <time>2018-07-23T13:51:29Z</time>
      </trkpt>
      <trkpt lat="44.83936" lon="4.33412">
        <ele>823.62</ele>
        <time>2018-07-23T13:51:40Z</time>
      </trkpt>
      <trkpt lat="44.83927" lon="4.33415">
        <ele>824.332</ele>
        <time>2018-07-23T13:51:50Z</time>
      </trkpt>
      <trkpt lat="44.83917" lon="4.33419">
        <ele>824.797</ele>
        <time>2018-07-23T13:52:01Z</time>
      </trkpt>
      <trkpt lat="44.83914" lon="4.33419">
        <ele>824.866</ele>
        <time>2018-07-23T13:52:04Z</time>
      </trkpt>
      <trkpt lat="44.83902" lon="4.33422">
        <ele>825.743</ele>
        <time>2018-07-23T13:52:16Z</time>
      </trkpt>
      <trkpt lat="44.83895" lon="4.33423">
        <ele>826.914</ele>
        <time>2018-07-23T13:52:25Z</time>
      </trkpt>
      <trkpt lat="44.83885" lon="4.33426">
        <ele>827.038</ele>
        <time>2018-07-23T13:52:33Z</time>
      </trkpt>
      <trkpt lat="44.83878" lon="4.33435">
        <ele>827.932</ele>
        <time>2018-07-23T13:52:44Z</time>
      </trkpt>
      <trkpt lat="44.8387" lon="4.33439">
        <ele>828.507</ele>
        <time>2018-07-23T13:52:55Z</time>
      </trkpt>
      <trkpt lat="44.83866" lon="4.33445">
        <ele>829.17</ele>
        <time>2018-07-23T13:53:01Z</time>
      </trkpt>
      <trkpt lat="44.83861" lon="4.33449">
        <ele>829.546</ele>
        <time>2018-07-23T13:53:08Z</time>
      </trkpt>
      <trkpt lat="44.83859" lon="4.33454">
        <ele>829.425</ele>
        <time>2018-07-23T13:53:12Z</time>
      </trkpt>
      <trkpt lat="44.83855" lon="4.33462">
        <ele>829.933</ele>
        <time>2018-07-23T13:53:19Z</time>
      </trkpt>
      <trkpt lat="44.8385" lon="4.33474">
        <ele>830.871</ele>
        <time>2018-07-23T13:53:27Z</time>
      </trkpt>
      <trkpt lat="44.83845" lon="4.3348">
        <ele>830.816</ele>
        <time>2018-07-23T13:53:34Z</time>
      </trkpt>
      <trkpt lat="44.83839" lon="4.33487">
        <ele>830.977</ele>
        <time>2018-07-23T13:53:42Z</time>
      </trkpt>
      <trkpt lat="44.83835" lon="4.33492">
        <ele>831.362</ele>
        <time>2018-07-23T13:53:47Z</time>
      </trkpt>
      <trkpt lat="44.83828" lon="4.33489">
        <ele>831.717</ele>
        <time>2018-07-23T13:53:53Z</time>
      </trkpt>
      <trkpt lat="44.83819" lon="4.33484">
        <ele>832.544</ele>
        <time>2018-07-23T13:54:02Z</time>
      </trkpt>
      <trkpt lat="44.83804" lon="4.33474">
        <ele>833.325</ele>
        <time>2018-07-23T13:54:16Z</time>
      </trkpt>
      <trkpt lat="44.83799" lon="4.33475">
        <ele>833.007</ele>
        <time>2018-07-23T13:54:21Z</time>
      </trkpt>
      <trkpt lat="44.83795" lon="4.33479">
        <ele>833.434</ele>
        <time>2018-07-23T13:54:26Z</time>
      </trkpt>
      <trkpt lat="44.83792" lon="4.33488">
        <ele>833.777</ele>
        <time>2018-07-23T13:54:34Z</time>
      </trkpt>
      <trkpt lat="44.83788" lon="4.33504">
        <ele>835.187</ele>
        <time>2018-07-23T13:54:48Z</time>
      </trkpt>
      <trkpt lat="44.83781" lon="4.33517">
        <ele>836.75</ele>
        <time>2018-07-23T13:55:00Z</time>
      </trkpt>
      <trkpt lat="44.83776" lon="4.33531">
        <ele>837.206</ele>
        <time>2018-07-23T13:55:12Z</time>
      </trkpt>
      <trkpt lat="44.83773" lon="4.33542">
        <ele>837.788</ele>
        <time>2018-07-23T13:55:19Z</time>
      </trkpt>
      <trkpt lat="44.8377" lon="4.33549">
        <ele>838.424</ele>
        <time>2018-07-23T13:55:25Z</time>
      </trkpt>
      <trkpt lat="44.83768" lon="4.33556">
        <ele>839.159</ele>
        <time>2018-07-23T13:55:32Z</time>
      </trkpt>
      <trkpt lat="44.83765" lon="4.33567">
        <ele>839.691</ele>
        <time>2018-07-23T13:55:40Z</time>
      </trkpt>
      <trkpt lat="44.83759" lon="4.33577">
        <ele>840.016</ele>
        <time>2018-07-23T13:55:48Z</time>
      </trkpt>
      <trkpt lat="44.83759" lon="4.33584">
        <ele>840.762</ele>
        <time>2018-07-23T13:55:53Z</time>
      </trkpt>
      <trkpt lat="44.83759" lon="4.3359">
        <ele>840.815</ele>
        <time>2018-07-23T13:55:57Z</time>
      </trkpt>
      <trkpt lat="44.83758" lon="4.33597">
        <ele>841.463</ele>
        <time>2018-07-23T13:56:02Z</time>
      </trkpt>
      <trkpt lat="44.83757" lon="4.336">
        <ele>841.458</ele>
        <time>2018-07-23T13:56:04Z</time>
      </trkpt>
      <trkpt lat="44.83757" lon="4.33608">
        <ele>841.437</ele>
        <time>2018-07-23T13:56:11Z</time>
      </trkpt>
      <trkpt lat="44.83755" lon="4.33613">
        <ele>842.507</ele>
        <time>2018-07-23T13:57:40Z</time>
      </trkpt>
      <trkpt lat="44.83746" lon="4.33615">
        <ele>842.526</ele>
        <time>2018-07-23T13:57:48Z</time>
      </trkpt>
      <trkpt lat="44.83736" lon="4.33619">
        <ele>843.369</ele>
        <time>2018-07-23T13:57:56Z</time>
      </trkpt>
      <trkpt lat="44.83719" lon="4.33631">
        <ele>844.686</ele>
        <time>2018-07-23T13:58:13Z</time>
      </trkpt>
      <trkpt lat="44.8371" lon="4.33629">
        <ele>844.831</ele>
        <time>2018-07-23T13:58:24Z</time>
      </trkpt>
      <trkpt lat="44.83703" lon="4.33619">
        <ele>844.794</ele>
        <time>2018-07-23T13:58:31Z</time>
      </trkpt>
      <trkpt lat="44.83705" lon="4.33606">
        <ele>845.28</ele>
        <time>2018-07-23T13:58:39Z</time>
      </trkpt>
      <trkpt lat="44.837" lon="4.33598">
        <ele>845.359</ele>
        <time>2018-07-23T13:58:45Z</time>
      </trkpt>
      <trkpt lat="44.83692" lon="4.33592">
        <ele>845.871</ele>
        <time>2018-07-23T13:58:52Z</time>
      </trkpt>
      <trkpt lat="44.83688" lon="4.33589">
        <ele>846.03</ele>
        <time>2018-07-23T13:58:54Z</time>
      </trkpt>
      <trkpt lat="44.83687" lon="4.33578">
        <ele>846.384</ele>
        <time>2018-07-23T13:59:02Z</time>
      </trkpt>
      <trkpt lat="44.83687" lon="4.33571">
        <ele>846.649</ele>
        <time>2018-07-23T13:59:09Z</time>
      </trkpt>
      <trkpt lat="44.83678" lon="4.33562">
        <ele>847.001</ele>
        <time>2018-07-23T13:59:17Z</time>
      </trkpt>
      <trkpt lat="44.83674" lon="4.33558">
        <ele>847.516</ele>
        <time>2018-07-23T13:59:23Z</time>
      </trkpt>
      <trkpt lat="44.83672" lon="4.33555">
        <ele>847.597</ele>
        <time>2018-07-23T13:59:26Z</time>
      </trkpt>
      <trkpt lat="44.8367" lon="4.33552">
        <ele>847.689</ele>
        <time>2018-07-23T13:59:29Z</time>
      </trkpt>
      <trkpt lat="44.83667" lon="4.33545">
        <ele>848.277</ele>
        <time>2018-07-23T13:59:33Z</time>
      </trkpt>
      <trkpt lat="44.83665" lon="4.33537">
        <ele>848.002</ele>
        <time>2018-07-23T13:59:39Z</time>
      </trkpt>
      <trkpt lat="44.83659" lon="4.33527">
        <ele>849.121</ele>
        <time>2018-07-23T13:59:49Z</time>
      </trkpt>
      <trkpt lat="44.83647" lon="4.3352">
        <ele>849.274</ele>
        <time>2018-07-23T13:59:59Z</time>
      </trkpt>
      <trkpt lat="44.83642" lon="4.3352">
        <ele>849.838</ele>
        <time>2018-07-23T14:00:05Z</time>
      </trkpt>
      <trkpt lat="44.8364" lon="4.3352">
        <ele>849.509</ele>
        <time>2018-07-23T14:00:07Z</time>
      </trkpt>
      <trkpt lat="44.83632" lon="4.33526">
        <ele>850.427</ele>
        <time>2018-07-23T14:00:16Z</time>
      </trkpt>
      <trkpt lat="44.83628" lon="4.33529">
        <ele>850.639</ele>
        <time>2018-07-23T14:00:19Z</time>
      </trkpt>
      <trkpt lat="44.83622" lon="4.33531">
        <ele>850.956</ele>
        <time>2018-07-23T14:00:25Z</time>
      </trkpt>
      <trkpt lat="44.83614" lon="4.33537">
        <ele>851.533</ele>
        <time>2018-07-23T14:00:34Z</time>
      </trkpt>
      <trkpt lat="44.83605" lon="4.33547">
        <ele>852.256</ele>
        <time>2018-07-23T14:00:46Z</time>
      </trkpt>
      <trkpt lat="44.83599" lon="4.33556">
        <ele>853.3</ele>
        <time>2018-07-23T14:00:58Z</time>
      </trkpt>
      <trkpt lat="44.83592" lon="4.33564">
        <ele>854.315</ele>
        <time>2018-07-23T14:01:07Z</time>
      </trkpt>
      <trkpt lat="44.8358" lon="4.33573">
        <ele>855.221</ele>
        <time>2018-07-23T14:01:21Z</time>
      </trkpt>
      <trkpt lat="44.83573" lon="4.33578">
        <ele>856.631</ele>
        <time>2018-07-23T14:01:31Z</time>
      </trkpt>
      <trkpt lat="44.83562" lon="4.33587">
        <ele>857.438</ele>
        <time>2018-07-23T14:01:41Z</time>
      </trkpt>
      <trkpt lat="44.83558" lon="4.33595">
        <ele>857.74</ele>
        <time>2018-07-23T14:01:48Z</time>
      </trkpt>
      <trkpt lat="44.83556" lon="4.33602">
        <ele>858.354</ele>
        <time>2018-07-23T14:01:55Z</time>
      </trkpt>
      <trkpt lat="44.83556" lon="4.33607">
        <ele>859.185</ele>
        <time>2018-07-23T14:02:03Z</time>
      </trkpt>
      <trkpt lat="44.83557" lon="4.33611">
        <ele>858.957</ele>
        <time>2018-07-23T14:02:07Z</time>
      </trkpt>
      <trkpt lat="44.83557" lon="4.3362">
        <ele>859.82</ele>
        <time>2018-07-23T14:02:13Z</time>
      </trkpt>
      <trkpt lat="44.83559" lon="4.33623">
        <ele>859.908</ele>
        <time>2018-07-23T14:02:16Z</time>
      </trkpt>
      <trkpt lat="44.8356" lon="4.33634">
        <ele>860.711</ele>
        <time>2018-07-23T14:02:24Z</time>
      </trkpt>
      <trkpt lat="44.83559" lon="4.33646">
        <ele>861.353</ele>
        <time>2018-07-23T14:02:32Z</time>
      </trkpt>
      <trkpt lat="44.83557" lon="4.33657">
        <ele>861.951</ele>
        <time>2018-07-23T14:02:40Z</time>
      </trkpt>
      <trkpt lat="44.83554" lon="4.3366">
        <ele>862.126</ele>
        <time>2018-07-23T14:02:43Z</time>
      </trkpt>
      <trkpt lat="44.83552" lon="4.33666">
        <ele>862.338</ele>
        <time>2018-07-23T14:02:47Z</time>
      </trkpt>
      <trkpt lat="44.83549" lon="4.33675">
        <ele>862.414</ele>
        <time>2018-07-23T14:02:53Z</time>
      </trkpt>
      <trkpt lat="44.83547" lon="4.33684">
        <ele>863.272</ele>
        <time>2018-07-23T14:03:00Z</time>
      </trkpt>
      <trkpt lat="44.83544" lon="4.33691">
        <ele>863.728</ele>
        <time>2018-07-23T14:03:06Z</time>
      </trkpt>
      <trkpt lat="44.83544" lon="4.33702">
        <ele>864.498</ele>
        <time>2018-07-23T14:03:13Z</time>
      </trkpt>
      <trkpt lat="44.83541" lon="4.33712">
        <ele>864.846</ele>
        <time>2018-07-23T14:03:21Z</time>
      </trkpt>
      <trkpt lat="44.83539" lon="4.33723">
        <ele>864.792</ele>
        <time>2018-07-23T14:03:28Z</time>
      </trkpt>
      <trkpt lat="44.83527" lon="4.33738">
        <ele>864.927</ele>
        <time>2018-07-23T14:03:38Z</time>
      </trkpt>
      <trkpt lat="44.83521" lon="4.33742">
        <ele>865.22</ele>
        <time>2018-07-23T14:03:44Z</time>
      </trkpt>
      <trkpt lat="44.83517" lon="4.33739">
        <ele>865.635</ele>
        <time>2018-07-23T14:03:50Z</time>
      </trkpt>
      <trkpt lat="44.83511" lon="4.33733">
        <ele>865.845</ele>
        <time>2018-07-23T14:03:56Z</time>
      </trkpt>
      <trkpt lat="44.83502" lon="4.33728">
        <ele>865.823</ele>
        <time>2018-07-23T14:04:01Z</time>
      </trkpt>
      <trkpt lat="44.83497" lon="4.33721">
        <ele>865.94</ele>
        <time>2018-07-23T14:04:09Z</time>
      </trkpt>
      <trkpt lat="44.83493" lon="4.33718">
        <ele>865.938</ele>
        <time>2018-07-23T14:04:20Z</time>
      </trkpt>
      <trkpt lat="44.83481" lon="4.33716">
        <ele>865.385</ele>
        <time>2018-07-23T14:04:30Z</time>
      </trkpt>
      <trkpt lat="44.83475" lon="4.33712">
        <ele>865.249</ele>
        <time>2018-07-23T14:04:38Z</time>
      </trkpt>
      <trkpt lat="44.83469" lon="4.33703">
        <ele>864.179</ele>
        <time>2018-07-23T14:04:47Z</time>
      </trkpt>
      <trkpt lat="44.83468" lon="4.337">
        <ele>864.175</ele>
        <time>2018-07-23T14:04:56Z</time>
      </trkpt>
      <trkpt lat="44.83464" lon="4.33699">
        <ele>864.091</ele>
        <time>2018-07-23T14:05:04Z</time>
      </trkpt>
      <trkpt lat="44.83454" lon="4.33698">
        <ele>863.907</ele>
        <time>2018-07-23T14:05:13Z</time>
      </trkpt>
      <trkpt lat="44.83444" lon="4.33708">
        <ele>863.511</ele>
        <time>2018-07-23T14:05:23Z</time>
      </trkpt>
      <trkpt lat="44.83438" lon="4.33715">
        <ele>863.122</ele>
        <time>2018-07-23T14:05:33Z</time>
      </trkpt>
      <trkpt lat="44.83432" lon="4.33732">
        <ele>863.379</ele>
        <time>2018-07-23T14:05:45Z</time>
      </trkpt>
      <trkpt lat="44.83427" lon="4.33743">
        <ele>863.327</ele>
        <time>2018-07-23T14:05:53Z</time>
      </trkpt>
      <trkpt lat="44.83422" lon="4.33752">
        <ele>863.242</ele>
        <time>2018-07-23T14:06:02Z</time>
      </trkpt>
      <trkpt lat="44.83413" lon="4.33762">
        <ele>863.385</ele>
        <time>2018-07-23T14:06:10Z</time>
      </trkpt>
      <trkpt lat="44.83407" lon="4.33768">
        <ele>862.991</ele>
        <time>2018-07-23T14:06:18Z</time>
      </trkpt>
      <trkpt lat="44.83402" lon="4.33776">
        <ele>863.079</ele>
        <time>2018-07-23T14:06:25Z</time>
      </trkpt>
      <trkpt lat="44.834" lon="4.33782">
        <ele>863.004</ele>
        <time>2018-07-23T14:06:32Z</time>
      </trkpt>
      <trkpt lat="44.83394" lon="4.3379">
        <ele>862.694</ele>
        <time>2018-07-23T14:06:40Z</time>
      </trkpt>
      <trkpt lat="44.83391" lon="4.33798">
        <ele>862.775</ele>
        <time>2018-07-23T14:06:46Z</time>
      </trkpt>
      <trkpt lat="44.83386" lon="4.33806">
        <ele>862.799</ele>
        <time>2018-07-23T14:06:53Z</time>
      </trkpt>
      <trkpt lat="44.83385" lon="4.33813">
        <ele>862.705</ele>
        <time>2018-07-23T14:07:00Z</time>
      </trkpt>
      <trkpt lat="44.83382" lon="4.33823">
        <ele>862.267</ele>
        <time>2018-07-23T14:07:07Z</time>
      </trkpt>
      <trkpt lat="44.8338" lon="4.33827">
        <ele>862.578</ele>
        <time>2018-07-23T14:07:09Z</time>
      </trkpt>
      <trkpt lat="44.83376" lon="4.33836">
        <ele>861.883</ele>
        <time>2018-07-23T14:07:20Z</time>
      </trkpt>
      <trkpt lat="44.83368" lon="4.33837">
        <ele>862.127</ele>
        <time>2018-07-23T14:07:28Z</time>
      </trkpt>
      <trkpt lat="44.83356" lon="4.3382">
        <ele>862.525</ele>
        <time>2018-07-23T14:07:39Z</time>
      </trkpt>
      <trkpt lat="44.83342" lon="4.33811">
        <ele>862.042</ele>
        <time>2018-07-23T14:07:45Z</time>
      </trkpt>
      <trkpt lat="44.83342" lon="4.33805">
        <ele>862.387</ele>
        <time>2018-07-23T14:07:49Z</time>
      </trkpt>
      <trkpt lat="44.83344" lon="4.33793">
        <ele>862.302</ele>
        <time>2018-07-23T14:07:56Z</time>
      </trkpt>
      <trkpt lat="44.83341" lon="4.33782">
        <ele>862.29</ele>
        <time>2018-07-23T14:08:03Z</time>
      </trkpt>
      <trkpt lat="44.83342" lon="4.33777">
        <ele>862.186</ele>
        <time>2018-07-23T14:08:06Z</time>
      </trkpt>
      <trkpt lat="44.83343" lon="4.33768">
        <ele>862.406</ele>
        <time>2018-07-23T14:08:14Z</time>
      </trkpt>
      <trkpt lat="44.83348" lon="4.3376">
        <ele>862.633</ele>
        <time>2018-07-23T14:08:21Z</time>
      </trkpt>
      <trkpt lat="44.83348" lon="4.33753">
        <ele>863.365</ele>
        <time>2018-07-23T14:08:52Z</time>
      </trkpt>
      <trkpt lat="44.83344" lon="4.33742">
        <ele>863.749</ele>
        <time>2018-07-23T14:09:18Z</time>
      </trkpt>
      <trkpt lat="44.83339" lon="4.33733">
        <ele>863.682</ele>
        <time>2018-07-23T14:09:41Z</time>
      </trkpt>
      <trkpt lat="44.83333" lon="4.33723">
        <ele>863.691</ele>
        <time>2018-07-23T14:09:50Z</time>
      </trkpt>
      <trkpt lat="44.8333" lon="4.33716">
        <ele>863.808</ele>
        <time>2018-07-23T14:09:57Z</time>
      </trkpt>
      <trkpt lat="44.83326" lon="4.33714">
        <ele>863.63</ele>
        <time>2018-07-23T14:10:03Z</time>
      </trkpt>
      <trkpt lat="44.83322" lon="4.33711">
        <ele>864.094</ele>
        <time>2018-07-23T14:10:32Z</time>
      </trkpt>
      <trkpt lat="44.83323" lon="4.33708">
        <ele>864.112</ele>
        <time>2018-07-23T14:10:41Z</time>
      </trkpt>
      <trkpt lat="44.83325" lon="4.337">
        <ele>864.479</ele>
        <time>2018-07-23T14:10:47Z</time>
      </trkpt>
      <trkpt lat="44.83325" lon="4.33696">
        <ele>864.173</ele>
        <time>2018-07-23T14:10:54Z</time>
      </trkpt>
      <trkpt lat="44.83316" lon="4.33687">
        <ele>863.988</ele>
        <time>2018-07-23T14:11:02Z</time>
      </trkpt>
      <trkpt lat="44.83314" lon="4.33679">
        <ele>864.131</ele>
        <time>2018-07-23T14:11:08Z</time>
      </trkpt>
      <trkpt lat="44.83307" lon="4.33673">
        <ele>864.027</ele>
        <time>2018-07-23T14:11:15Z</time>
      </trkpt>
      <trkpt lat="44.83305" lon="4.33666">
        <ele>864.271</ele>
        <time>2018-07-23T14:11:22Z</time>
      </trkpt>
      <trkpt lat="44.83299" lon="4.33655">
        <ele>864.467</ele>
        <time>2018-07-23T14:11:30Z</time>
      </trkpt>
      <trkpt lat="44.83295" lon="4.33654">
        <ele>863.905</ele>
        <time>2018-07-23T14:11:47Z</time>
      </trkpt>
      <trkpt lat="44.83291" lon="4.33648">
        <ele>864.321</ele>
        <time>2018-07-23T14:11:54Z</time>
      </trkpt>
      <trkpt lat="44.83288" lon="4.33636">
        <ele>864.518</ele>
        <time>2018-07-23T14:12:04Z</time>
      </trkpt>
      <trkpt lat="44.83282" lon="4.33629">
        <ele>865.583</ele>
        <time>2018-07-23T14:12:10Z</time>
      </trkpt>
      <trkpt lat="44.83276" lon="4.33618">
        <ele>865.24</ele>
        <time>2018-07-23T14:12:17Z</time>
      </trkpt>
      <trkpt lat="44.83273" lon="4.33609">
        <ele>865.923</ele>
        <time>2018-07-23T14:12:26Z</time>
      </trkpt>
      <trkpt lat="44.8327" lon="4.33602">
        <ele>866.886</ele>
        <time>2018-07-23T14:12:33Z</time>
      </trkpt>
      <trkpt lat="44.83269" lon="4.33594">
        <ele>867.692</ele>
        <time>2018-07-23T14:12:40Z</time>
      </trkpt>
      <trkpt lat="44.83266" lon="4.33589">
        <ele>867.315</ele>
        <time>2018-07-23T14:12:48Z</time>
      </trkpt>
      <trkpt lat="44.83264" lon="4.33581">
        <ele>867.405</ele>
        <time>2018-07-23T14:12:59Z</time>
      </trkpt>
      <trkpt lat="44.83262" lon="4.33578">
        <ele>867.369</ele>
        <time>2018-07-23T14:13:09Z</time>
      </trkpt>
      <trkpt lat="44.83262" lon="4.3357">
        <ele>867.722</ele>
        <time>2018-07-23T14:13:14Z</time>
      </trkpt>
      <trkpt lat="44.83261" lon="4.33561">
        <ele>867.763</ele>
        <time>2018-07-23T14:13:21Z</time>
      </trkpt>
      <trkpt lat="44.8326" lon="4.33552">
        <ele>868.294</ele>
        <time>2018-07-23T14:13:27Z</time>
      </trkpt>
      <trkpt lat="44.8326" lon="4.33546">
        <ele>868.648</ele>
        <time>2018-07-23T14:13:32Z</time>
      </trkpt>
      <trkpt lat="44.8326" lon="4.33542">
        <ele>868.212</ele>
        <time>2018-07-23T14:13:34Z</time>
      </trkpt>
      <trkpt lat="44.83258" lon="4.33538">
        <ele>868.618</ele>
        <time>2018-07-23T14:13:36Z</time>
      </trkpt>
      <trkpt lat="44.83258" lon="4.33536">
        <ele>869.036</ele>
        <time>2018-07-23T14:13:43Z</time>
      </trkpt>
      <trkpt lat="44.83258" lon="4.33529">
        <ele>868.665</ele>
        <time>2018-07-23T14:13:47Z</time>
      </trkpt>
      <trkpt lat="44.83254" lon="4.33526">
        <ele>869.14</ele>
        <time>2018-07-23T14:13:50Z</time>
      </trkpt>
      <trkpt lat="44.83253" lon="4.33523">
        <ele>868.756</ele>
        <time>2018-07-23T14:13:52Z</time>
      </trkpt>
      <trkpt lat="44.83249" lon="4.33518">
        <ele>869.41</ele>
        <time>2018-07-23T14:13:56Z</time>
      </trkpt>
      <trkpt lat="44.83249" lon="4.33514">
        <ele>868.908</ele>
        <time>2018-07-23T14:14:27Z</time>
      </trkpt>
      <trkpt lat="44.8325" lon="4.3351">
        <ele>869.342</ele>
        <time>2018-07-23T14:14:34Z</time>
      </trkpt>
      <trkpt lat="44.8325" lon="4.33507">
        <ele>869.17</ele>
        <time>2018-07-23T14:14:37Z</time>
      </trkpt>
      <trkpt lat="44.8325" lon="4.335">
        <ele>869.319</ele>
        <time>2018-07-23T14:14:44Z</time>
      </trkpt>
      <trkpt lat="44.83252" lon="4.33493">
        <ele>869.715</ele>
        <time>2018-07-23T14:14:50Z</time>
      </trkpt>
      <trkpt lat="44.83255" lon="4.33483">
        <ele>869.996</ele>
        <time>2018-07-23T14:14:58Z</time>
      </trkpt>
      <trkpt lat="44.83256" lon="4.33479">
        <ele>870.178</ele>
        <time>2018-07-23T14:15:01Z</time>
      </trkpt>
      <trkpt lat="44.83257" lon="4.33465">
        <ele>870.869</ele>
        <time>2018-07-23T14:15:10Z</time>
      </trkpt>
      <trkpt lat="44.8326" lon="4.33451">
        <ele>871.149</ele>
        <time>2018-07-23T14:15:19Z</time>
      </trkpt>
      <trkpt lat="44.83254" lon="4.33447">
        <ele>871.569</ele>
        <time>2018-07-23T14:15:28Z</time>
      </trkpt>
      <trkpt lat="44.83251" lon="4.33439">
        <ele>871.552</ele>
        <time>2018-07-23T14:15:38Z</time>
      </trkpt>
      <trkpt lat="44.83249" lon="4.33434">
        <ele>871.589</ele>
        <time>2018-07-23T14:15:42Z</time>
      </trkpt>
      <trkpt lat="44.83247" lon="4.33426">
        <ele>871.715</ele>
        <time>2018-07-23T14:15:54Z</time>
      </trkpt>
      <trkpt lat="44.8324" lon="4.33431">
        <ele>871.413</ele>
        <time>2018-07-23T14:16:11Z</time>
      </trkpt>
      <trkpt lat="44.8323" lon="4.33433">
        <ele>871.849</ele>
        <time>2018-07-23T14:16:21Z</time>
      </trkpt>
      <trkpt lat="44.83219" lon="4.33438">
        <ele>872.182</ele>
        <time>2018-07-23T14:16:32Z</time>
      </trkpt>
      <trkpt lat="44.8321" lon="4.33441">
        <ele>872.272</ele>
        <time>2018-07-23T14:16:40Z</time>
      </trkpt>
      <trkpt lat="44.83204" lon="4.33444">
        <ele>873.498</ele>
        <time>2018-07-23T14:16:49Z</time>
      </trkpt>
      <trkpt lat="44.83196" lon="4.33445">
        <ele>874.08</ele>
        <time>2018-07-23T14:16:57Z</time>
      </trkpt>
      <trkpt lat="44.83183" lon="4.3344">
        <ele>875.329</ele>
        <time>2018-07-23T14:17:11Z</time>
      </trkpt>
      <trkpt lat="44.83171" lon="4.33441">
        <ele>876.036</ele>
        <time>2018-07-23T14:17:19Z</time>
      </trkpt>
      <trkpt lat="44.83161" lon="4.33436">
        <ele>877.167</ele>
        <time>2018-07-23T14:17:28Z</time>
      </trkpt>
      <trkpt lat="44.83158" lon="4.33434">
        <ele>877.333</ele>
        <time>2018-07-23T14:17:31Z</time>
      </trkpt>
      <trkpt lat="44.83152" lon="4.3343">
        <ele>878.168</ele>
        <time>2018-07-23T14:17:38Z</time>
      </trkpt>
      <trkpt lat="44.83146" lon="4.33426">
        <ele>879.451</ele>
        <time>2018-07-23T14:17:45Z</time>
      </trkpt>
      <trkpt lat="44.83142" lon="4.33422">
        <ele>879.607</ele>
        <time>2018-07-23T14:17:49Z</time>
      </trkpt>
      <trkpt lat="44.8314" lon="4.33421">
        <ele>879.898</ele>
        <time>2018-07-23T14:17:52Z</time>
      </trkpt>
      <trkpt lat="44.83137" lon="4.33419">
        <ele>879.872</ele>
        <time>2018-07-23T14:17:56Z</time>
      </trkpt>
      <trkpt lat="44.8313" lon="4.33416">
        <ele>880.435</ele>
        <time>2018-07-23T14:18:04Z</time>
      </trkpt>
      <trkpt lat="44.83124" lon="4.3341">
        <ele>881.343</ele>
        <time>2018-07-23T14:18:14Z</time>
      </trkpt>
      <trkpt lat="44.83118" lon="4.33397">
        <ele>881.774</ele>
        <time>2018-07-23T14:18:23Z</time>
      </trkpt>
      <trkpt lat="44.83117" lon="4.33393">
        <ele>882.158</ele>
        <time>2018-07-23T14:18:26Z</time>
      </trkpt>
      <trkpt lat="44.83114" lon="4.33383">
        <ele>882.899</ele>
        <time>2018-07-23T14:18:34Z</time>
      </trkpt>
      <trkpt lat="44.83112" lon="4.33373">
        <ele>882.876</ele>
        <time>2018-07-23T14:18:41Z</time>
      </trkpt>
      <trkpt lat="44.83108" lon="4.33362">
        <ele>883.244</ele>
        <time>2018-07-23T14:18:52Z</time>
      </trkpt>
      <trkpt lat="44.83113" lon="4.33378">
        <ele>882.8</ele>
        <time>2018-07-23T14:20:39Z</time>
      </trkpt>
      <trkpt lat="44.8312" lon="4.33393">
        <ele>882.047</ele>
        <time>2018-07-23T14:20:50Z</time>
      </trkpt>
      <trkpt lat="44.83128" lon="4.33402">
        <ele>881.815</ele>
        <time>2018-07-23T14:21:00Z</time>
      </trkpt>
      <trkpt lat="44.83131" lon="4.33407">
        <ele>881.636</ele>
        <time>2018-07-23T14:21:05Z</time>
      </trkpt>
      <trkpt lat="44.83137" lon="4.33411">
        <ele>881.003</ele>
        <time>2018-07-23T14:21:12Z</time>
      </trkpt>
      <trkpt lat="44.83139" lon="4.33415">
        <ele>881</ele>
        <time>2018-07-23T14:21:15Z</time>
      </trkpt>
      <trkpt lat="44.83149" lon="4.33418">
        <ele>879.963</ele>
        <time>2018-07-23T14:21:23Z</time>
      </trkpt>
      <trkpt lat="44.83157" lon="4.33422">
        <ele>879.157</ele>
        <time>2018-07-23T14:21:31Z</time>
      </trkpt>
      <trkpt lat="44.83165" lon="4.33427">
        <ele>878.159</ele>
        <time>2018-07-23T14:21:38Z</time>
      </trkpt>
      <trkpt lat="44.83173" lon="4.3343">
        <ele>877.633</ele>
        <time>2018-07-23T14:21:47Z</time>
      </trkpt>
      <trkpt lat="44.83175" lon="4.33432">
        <ele>876.782</ele>
        <time>2018-07-23T14:22:00Z</time>
      </trkpt>
      <trkpt lat="44.8318" lon="4.33432">
        <ele>876.775</ele>
        <time>2018-07-23T14:22:33Z</time>
      </trkpt>
      <trkpt lat="44.83192" lon="4.33434">
        <ele>875.766</ele>
        <time>2018-07-23T14:22:41Z</time>
      </trkpt>
      <trkpt lat="44.83205" lon="4.33434">
        <ele>874.691</ele>
        <time>2018-07-23T14:22:52Z</time>
      </trkpt>
      <trkpt lat="44.83215" lon="4.33432">
        <ele>873.436</ele>
        <time>2018-07-23T14:23:02Z</time>
      </trkpt>
      <trkpt lat="44.83226" lon="4.33427">
        <ele>872.453</ele>
        <time>2018-07-23T14:23:14Z</time>
      </trkpt>
      <trkpt lat="44.8323" lon="4.33426">
        <ele>871.86</ele>
        <time>2018-07-23T14:23:17Z</time>
      </trkpt>
      <trkpt lat="44.83233" lon="4.33426">
        <ele>871.43</ele>
        <time>2018-07-23T14:23:20Z</time>
      </trkpt>
      <trkpt lat="44.83237" lon="4.33426">
        <ele>871.812</ele>
        <time>2018-07-23T14:23:24Z</time>
      </trkpt>
      <trkpt lat="44.8324" lon="4.33427">
        <ele>871.878</ele>
        <time>2018-07-23T14:23:26Z</time>
      </trkpt>
      <trkpt lat="44.83248" lon="4.33428">
        <ele>871.842</ele>
        <time>2018-07-23T14:23:38Z</time>
      </trkpt>
      <trkpt lat="44.83252" lon="4.33429">
        <ele>872.166</ele>
        <time>2018-07-23T14:23:47Z</time>
      </trkpt>
      <trkpt lat="44.83257" lon="4.33427">
        <ele>871.499</ele>
        <time>2018-07-23T14:23:53Z</time>
      </trkpt>
      <trkpt lat="44.83259" lon="4.33423">
        <ele>869.9</ele>
        <time>2018-07-23T14:23:57Z</time>
      </trkpt>
      <trkpt lat="44.83261" lon="4.33412">
        <ele>868.59</ele>
        <time>2018-07-23T14:24:06Z</time>
      </trkpt>
      <trkpt lat="44.83269" lon="4.33402">
        <ele>865.206</ele>
        <time>2018-07-23T14:24:20Z</time>
      </trkpt>
      <trkpt lat="44.83271" lon="4.33401">
        <ele>864.184</ele>
        <time>2018-07-23T14:24:36Z</time>
      </trkpt>
      <trkpt lat="44.83275" lon="4.33398">
        <ele>863.893</ele>
        <time>2018-07-23T14:24:40Z</time>
      </trkpt>
      <trkpt lat="44.83286" lon="4.33392">
        <ele>860.307</ele>
        <time>2018-07-23T14:24:53Z</time>
      </trkpt>
      <trkpt lat="44.83287" lon="4.33384">
        <ele>858.573</ele>
        <time>2018-07-23T14:25:01Z</time>
      </trkpt>
      <trkpt lat="44.83287" lon="4.3338">
        <ele>857.59</ele>
        <time>2018-07-23T14:25:10Z</time>
      </trkpt>
      <trkpt lat="44.83288" lon="4.33375">
        <ele>855.695</ele>
        <time>2018-07-23T14:25:18Z</time>
      </trkpt>
      <trkpt lat="44.8329" lon="4.33371">
        <ele>855.021</ele>
        <time>2018-07-23T14:25:27Z</time>
      </trkpt>
      <trkpt lat="44.83291" lon="4.33368">
        <ele>853.931</ele>
        <time>2018-07-23T14:25:34Z</time>
      </trkpt>
      <trkpt lat="44.83292" lon="4.33364">
        <ele>851.798</ele>
        <time>2018-07-23T14:25:41Z</time>
      </trkpt>
      <trkpt lat="44.83293" lon="4.33361">
        <ele>851.213</ele>
        <time>2018-07-23T14:25:49Z</time>
      </trkpt>
      <trkpt lat="44.8329" lon="4.33358">
        <ele>849.626</ele>
        <time>2018-07-23T14:26:05Z</time>
      </trkpt>
      <trkpt lat="44.83288" lon="4.33354">
        <ele>848.777</ele>
        <time>2018-07-23T14:26:11Z</time>
      </trkpt>
      <trkpt lat="44.83289" lon="4.3335">
        <ele>847.764</ele>
        <time>2018-07-23T14:26:18Z</time>
      </trkpt>
      <trkpt lat="44.83292" lon="4.33346">
        <ele>845.377</ele>
        <time>2018-07-23T14:26:35Z</time>
      </trkpt>
      <trkpt lat="44.83296" lon="4.3334">
        <ele>842.239</ele>
        <time>2018-07-23T14:26:46Z</time>
      </trkpt>
      <trkpt lat="44.83298" lon="4.33336">
        <ele>840.057</ele>
        <time>2018-07-23T14:26:54Z</time>
      </trkpt>
      <trkpt lat="44.83302" lon="4.33332">
        <ele>837.861</ele>
        <time>2018-07-23T14:27:04Z</time>
      </trkpt>
      <trkpt lat="44.83306" lon="4.3333">
        <ele>836.65</ele>
        <time>2018-07-23T14:27:10Z</time>
      </trkpt>
      <trkpt lat="44.8331" lon="4.33327">
        <ele>836.121</ele>
        <time>2018-07-23T14:27:18Z</time>
      </trkpt>
      <trkpt lat="44.83312" lon="4.33325">
        <ele>834.389</ele>
        <time>2018-07-23T14:27:24Z</time>
      </trkpt>
      <trkpt lat="44.83315" lon="4.33321">
        <ele>832.948</ele>
        <time>2018-07-23T14:27:33Z</time>
      </trkpt>
      <trkpt lat="44.83316" lon="4.33319">
        <ele>833.032</ele>
        <time>2018-07-23T14:27:57Z</time>
      </trkpt>
      <trkpt lat="44.83318" lon="4.33317">
        <ele>831.568</ele>
        <time>2018-07-23T14:28:00Z</time>
      </trkpt>
      <trkpt lat="44.83323" lon="4.33314">
        <ele>827.948</ele>
        <time>2018-07-23T14:28:07Z</time>
      </trkpt>
      <trkpt lat="44.83325" lon="4.33314">
        <ele>829.246</ele>
        <time>2018-07-23T14:28:10Z</time>
      </trkpt>
      <trkpt lat="44.8333" lon="4.33315">
        <ele>828.685</ele>
        <time>2018-07-23T14:28:15Z</time>
      </trkpt>
      <trkpt lat="44.83336" lon="4.33317">
        <ele>827.96</ele>
        <time>2018-07-23T14:28:23Z</time>
      </trkpt>
      <trkpt lat="44.83337" lon="4.33315">
        <ele>827.648</ele>
        <time>2018-07-23T14:28:28Z</time>
      </trkpt>
      <trkpt lat="44.83344" lon="4.3331">
        <ele>824.177</ele>
        <time>2018-07-23T14:28:37Z</time>
      </trkpt>
      <trkpt lat="44.83341" lon="4.33305">
        <ele>824.963</ele>
        <time>2018-07-23T14:29:08Z</time>
      </trkpt>
      <trkpt lat="44.83339" lon="4.33297">
        <ele>823.59</ele>
        <time>2018-07-23T14:29:17Z</time>
      </trkpt>
      <trkpt lat="44.83339" lon="4.33293">
        <ele>821.851</ele>
        <time>2018-07-23T14:29:22Z</time>
      </trkpt>
      <trkpt lat="44.83341" lon="4.33291">
        <ele>820.864</ele>
        <time>2018-07-23T14:29:33Z</time>
      </trkpt>
      <trkpt lat="44.83336" lon="4.33286">
        <ele>818.399</ele>
        <time>2018-07-23T14:29:44Z</time>
      </trkpt>
      <trkpt lat="44.83335" lon="4.3328">
        <ele>817.734</ele>
        <time>2018-07-23T14:29:50Z</time>
      </trkpt>
      <trkpt lat="44.83338" lon="4.3328">
        <ele>815.655</ele>
        <time>2018-07-23T14:29:53Z</time>
      </trkpt>
      <trkpt lat="44.83341" lon="4.33278">
        <ele>814.685</ele>
        <time>2018-07-23T14:30:02Z</time>
      </trkpt>
      <trkpt lat="44.8334" lon="4.33272">
        <ele>813.213</ele>
        <time>2018-07-23T14:30:16Z</time>
      </trkpt>
      <trkpt lat="44.83338" lon="4.33265">
        <ele>811.697</ele>
        <time>2018-07-23T14:30:23Z</time>
      </trkpt>
      <trkpt lat="44.8334" lon="4.33262">
        <ele>807.619</ele>
        <time>2018-07-23T14:30:54Z</time>
      </trkpt>
      <trkpt lat="44.83342" lon="4.33259">
        <ele>808.112</ele>
        <time>2018-07-23T14:31:00Z</time>
      </trkpt>
      <trkpt lat="44.83341" lon="4.33253">
        <ele>805.956</ele>
        <time>2018-07-23T14:31:08Z</time>
      </trkpt>
      <trkpt lat="44.83341" lon="4.33249">
        <ele>804.718</ele>
        <time>2018-07-23T14:31:37Z</time>
      </trkpt>
      <trkpt lat="44.83341" lon="4.33245">
        <ele>802.886</ele>
        <time>2018-07-23T14:31:43Z</time>
      </trkpt>
      <trkpt lat="44.8334" lon="4.3324">
        <ele>800.483</ele>
        <time>2018-07-23T14:31:50Z</time>
      </trkpt>
      <trkpt lat="44.83342" lon="4.33234">
        <ele>798.141</ele>
        <time>2018-07-23T14:33:24Z</time>
      </trkpt>
      <trkpt lat="44.83346" lon="4.33232">
        <ele>795.412</ele>
        <time>2018-07-23T14:33:40Z</time>
      </trkpt>
      <trkpt lat="44.83362" lon="4.3324">
        <ele>791.846</ele>
        <time>2018-07-23T14:34:04Z</time>
      </trkpt>
      <trkpt lat="44.83363" lon="4.33237">
        <ele>790.51</ele>
        <time>2018-07-23T14:34:12Z</time>
      </trkpt>
      <trkpt lat="44.83366" lon="4.33238">
        <ele>790.183</ele>
        <time>2018-07-23T14:34:22Z</time>
      </trkpt>
      <trkpt lat="44.83369" lon="4.33238">
        <ele>789.277</ele>
        <time>2018-07-23T14:34:29Z</time>
      </trkpt>
      <trkpt lat="44.8337" lon="4.33231">
        <ele>787.062</ele>
        <time>2018-07-23T14:34:38Z</time>
      </trkpt>
      <trkpt lat="44.83371" lon="4.33228">
        <ele>785.735</ele>
        <time>2018-07-23T14:34:45Z</time>
      </trkpt>
      <trkpt lat="44.83372" lon="4.33226">
        <ele>784.297</ele>
        <time>2018-07-23T14:34:52Z</time>
      </trkpt>
      <trkpt lat="44.83371" lon="4.33223">
        <ele>783.592</ele>
        <time>2018-07-23T14:35:00Z</time>
      </trkpt>
      <trkpt lat="44.83367" lon="4.33214">
        <ele>782.394</ele>
        <time>2018-07-23T14:35:09Z</time>
      </trkpt>
      <trkpt lat="44.83371" lon="4.33209">
        <ele>778.896</ele>
        <time>2018-07-23T14:36:04Z</time>
      </trkpt>
      <trkpt lat="44.83376" lon="4.3321">
        <ele>776.656</ele>
        <time>2018-07-23T14:36:24Z</time>
      </trkpt>
      <trkpt lat="44.83371" lon="4.33196">
        <ele>775.339</ele>
        <time>2018-07-23T14:36:47Z</time>
      </trkpt>
      <trkpt lat="44.83372" lon="4.33192">
        <ele>773.631</ele>
        <time>2018-07-23T14:36:53Z</time>
      </trkpt>
      <trkpt lat="44.83378" lon="4.33192">
        <ele>771.218</ele>
        <time>2018-07-23T14:37:01Z</time>
      </trkpt>
      <trkpt lat="44.8338" lon="4.3319">
        <ele>770.399</ele>
        <time>2018-07-23T14:37:05Z</time>
      </trkpt>
      <trkpt lat="44.83386" lon="4.33193">
        <ele>768.224</ele>
        <time>2018-07-23T14:37:11Z</time>
      </trkpt>
      <trkpt lat="44.83385" lon="4.33187">
        <ele>766.128</ele>
        <time>2018-07-23T14:37:19Z</time>
      </trkpt>
      <trkpt lat="44.83381" lon="4.33179">
        <ele>764.328</ele>
        <time>2018-07-23T14:37:27Z</time>
      </trkpt>
      <trkpt lat="44.83379" lon="4.33172">
        <ele>762.432</ele>
        <time>2018-07-23T14:37:33Z</time>
      </trkpt>
      <trkpt lat="44.83377" lon="4.33168">
        <ele>761.349</ele>
        <time>2018-07-23T14:37:43Z</time>
      </trkpt>
      <trkpt lat="44.83376" lon="4.33163">
        <ele>759.547</ele>
        <time>2018-07-23T14:37:49Z</time>
      </trkpt>
      <trkpt lat="44.83379" lon="4.33152">
        <ele>757.631</ele>
        <time>2018-07-23T14:38:06Z</time>
      </trkpt>
      <trkpt lat="44.8338" lon="4.33147">
        <ele>756.285</ele>
        <time>2018-07-23T14:38:10Z</time>
      </trkpt>
      <trkpt lat="44.83383" lon="4.33149">
        <ele>755.771</ele>
        <time>2018-07-23T14:38:19Z</time>
      </trkpt>
      <trkpt lat="44.83389" lon="4.3315">
        <ele>753.347</ele>
        <time>2018-07-23T14:38:27Z</time>
      </trkpt>
      <trkpt lat="44.83394" lon="4.3315">
        <ele>752.02</ele>
        <time>2018-07-23T14:38:35Z</time>
      </trkpt>
      <trkpt lat="44.8339" lon="4.33142">
        <ele>748.589</ele>
        <time>2018-07-23T14:38:46Z</time>
      </trkpt>
      <trkpt lat="44.83395" lon="4.33141">
        <ele>745.973</ele>
        <time>2018-07-23T14:39:07Z</time>
      </trkpt>
      <trkpt lat="44.83396" lon="4.33139">
        <ele>743.993</ele>
        <time>2018-07-23T14:39:23Z</time>
      </trkpt>
      <trkpt lat="44.83395" lon="4.33135">
        <ele>741.117</ele>
        <time>2018-07-23T14:39:36Z</time>
      </trkpt>
      <trkpt lat="44.83392" lon="4.33127">
        <ele>741.119</ele>
        <time>2018-07-23T14:39:42Z</time>
      </trkpt>
      <trkpt lat="44.83389" lon="4.33121">
        <ele>739.133</ele>
        <time>2018-07-23T14:39:45Z</time>
      </trkpt>
      <trkpt lat="44.83394" lon="4.33119">
        <ele>737.173</ele>
        <time>2018-07-23T14:39:51Z</time>
      </trkpt>
      <trkpt lat="44.83398" lon="4.33116">
        <ele>735.971</ele>
        <time>2018-07-23T14:39:55Z</time>
      </trkpt>
      <trkpt lat="44.83399" lon="4.33112">
        <ele>735.078</ele>
        <time>2018-07-23T14:39:58Z</time>
      </trkpt>
      <trkpt lat="44.83404" lon="4.33107">
        <ele>734.538</ele>
        <time>2018-07-23T14:40:03Z</time>
      </trkpt>
      <trkpt lat="44.83405" lon="4.33105">
        <ele>733.656</ele>
        <time>2018-07-23T14:40:05Z</time>
      </trkpt>
      <trkpt lat="44.83407" lon="4.331">
        <ele>733.664</ele>
        <time>2018-07-23T14:40:08Z</time>
      </trkpt>
      <trkpt lat="44.83414" lon="4.33092">
        <ele>732.233</ele>
        <time>2018-07-23T14:40:16Z</time>
      </trkpt>
      <trkpt lat="44.83416" lon="4.33092">
        <ele>731.897</ele>
        <time>2018-07-23T14:40:32Z</time>
      </trkpt>
      <trkpt lat="44.83422" lon="4.33088">
        <ele>731.925</ele>
        <time>2018-07-23T14:40:54Z</time>
      </trkpt>
      <trkpt lat="44.83424" lon="4.33088">
        <ele>732.51</ele>
        <time>2018-07-23T14:41:06Z</time>
      </trkpt>
      <trkpt lat="44.83433" lon="4.33089">
        <ele>731.433</ele>
        <time>2018-07-23T14:41:15Z</time>
      </trkpt>
      <trkpt lat="44.83444" lon="4.33089">
        <ele>730.495</ele>
        <time>2018-07-23T14:41:23Z</time>
      </trkpt>
      <trkpt lat="44.8345" lon="4.33089">
        <ele>730.124</ele>
        <time>2018-07-23T14:41:27Z</time>
      </trkpt>
      <trkpt lat="44.8346" lon="4.33088">
        <ele>730.739</ele>
        <time>2018-07-23T14:41:33Z</time>
      </trkpt>
      <trkpt lat="44.83468" lon="4.33088">
        <ele>729.087</ele>
        <time>2018-07-23T14:41:40Z</time>
      </trkpt>
      <trkpt lat="44.83476" lon="4.33092">
        <ele>728.874</ele>
        <time>2018-07-23T14:41:48Z</time>
      </trkpt>
      <trkpt lat="44.83489" lon="4.3309">
        <ele>728.512</ele>
        <time>2018-07-23T14:41:59Z</time>
      </trkpt>
      <trkpt lat="44.83491" lon="4.33089">
        <ele>728.42</ele>
        <time>2018-07-23T14:42:01Z</time>
      </trkpt>
      <trkpt lat="44.83505" lon="4.33092">
        <ele>728.006</ele>
        <time>2018-07-23T14:42:11Z</time>
      </trkpt>
      <trkpt lat="44.83508" lon="4.33093">
        <ele>728.641</ele>
        <time>2018-07-23T14:42:17Z</time>
      </trkpt>
      <trkpt lat="44.83518" lon="4.33094">
        <ele>728.501</ele>
        <time>2018-07-23T14:42:41Z</time>
      </trkpt>
      <trkpt lat="44.8353" lon="4.33096">
        <ele>727.453</ele>
        <time>2018-07-23T14:42:51Z</time>
      </trkpt>
      <trkpt lat="44.83533" lon="4.33098">
        <ele>727.915</ele>
        <time>2018-07-23T14:43:00Z</time>
      </trkpt>
      <trkpt lat="44.83542" lon="4.33102">
        <ele>727.191</ele>
        <time>2018-07-23T14:43:09Z</time>
      </trkpt>
      <trkpt lat="44.83549" lon="4.33105">
        <ele>726.893</ele>
        <time>2018-07-23T14:43:24Z</time>
      </trkpt>
      <trkpt lat="44.83557" lon="4.33105">
        <ele>725.951</ele>
        <time>2018-07-23T14:43:31Z</time>
      </trkpt>
      <trkpt lat="44.83559" lon="4.33105">
        <ele>725.763</ele>
        <time>2018-07-23T14:43:33Z</time>
      </trkpt>
      <trkpt lat="44.8357" lon="4.33109">
        <ele>724.775</ele>
        <time>2018-07-23T14:43:43Z</time>
      </trkpt>
      <trkpt lat="44.83574" lon="4.33104">
        <ele>723.789</ele>
        <time>2018-07-23T14:43:51Z</time>
      </trkpt>
      <trkpt lat="44.83576" lon="4.33104">
        <ele>723.61</ele>
        <time>2018-07-23T14:43:58Z</time>
      </trkpt>
      <trkpt lat="44.83577" lon="4.331">
        <ele>724.016</ele>
        <time>2018-07-23T14:44:07Z</time>
      </trkpt>
      <trkpt lat="44.83578" lon="4.33091">
        <ele>723.745</ele>
        <time>2018-07-23T14:44:14Z</time>
      </trkpt>
      <trkpt lat="44.83578" lon="4.33086">
        <ele>723.792</ele>
        <time>2018-07-23T14:44:20Z</time>
      </trkpt>
      <trkpt lat="44.83576" lon="4.33084">
        <ele>723.508</ele>
        <time>2018-07-23T14:44:22Z</time>
      </trkpt>
      <trkpt lat="44.83568" lon="4.33078">
        <ele>723.535</ele>
        <time>2018-07-23T14:44:30Z</time>
      </trkpt>
      <trkpt lat="44.83561" lon="4.33074">
        <ele>724.196</ele>
        <time>2018-07-23T14:44:36Z</time>
      </trkpt>
      <trkpt lat="44.83554" lon="4.3307">
        <ele>724.545</ele>
        <time>2018-07-23T14:44:43Z</time>
      </trkpt>
      <trkpt lat="44.83548" lon="4.33065">
        <ele>726.243</ele>
        <time>2018-07-23T14:44:54Z</time>
      </trkpt>
      <trkpt lat="44.83549" lon="4.33062">
        <ele>727.218</ele>
        <time>2018-07-23T14:45:05Z</time>
      </trkpt>
      <trkpt lat="44.8356" lon="4.33057">
        <ele>728.728</ele>
        <time>2018-07-23T14:45:59Z</time>
      </trkpt>
      <trkpt lat="44.83566" lon="4.33051">
        <ele>730.525</ele>
        <time>2018-07-23T14:46:05Z</time>
      </trkpt>
      <trkpt lat="44.83575" lon="4.33053">
        <ele>729.71</ele>
        <time>2018-07-23T14:46:11Z</time>
      </trkpt>
      <trkpt lat="44.83587" lon="4.33055">
        <ele>729.133</ele>
        <time>2018-07-23T14:46:20Z</time>
      </trkpt>
      <trkpt lat="44.83589" lon="4.33055">
        <ele>729.157</ele>
        <time>2018-07-23T14:46:22Z</time>
      </trkpt>
      <trkpt lat="44.83592" lon="4.33052">
        <ele>728.88</ele>
        <time>2018-07-23T14:46:25Z</time>
      </trkpt>
      <trkpt lat="44.83595" lon="4.33047">
        <ele>729.103</ele>
        <time>2018-07-23T14:46:32Z</time>
      </trkpt>
      <trkpt lat="44.83603" lon="4.33051">
        <ele>728.39</ele>
        <time>2018-07-23T14:46:39Z</time>
      </trkpt>
      <trkpt lat="44.83608" lon="4.3305">
        <ele>728.908</ele>
        <time>2018-07-23T14:46:49Z</time>
      </trkpt>
      <trkpt lat="44.83617" lon="4.33056">
        <ele>728.467</ele>
        <time>2018-07-23T14:47:08Z</time>
      </trkpt>
      <trkpt lat="44.8362" lon="4.33057">
        <ele>728.655</ele>
        <time>2018-07-23T14:47:10Z</time>
      </trkpt>
      <trkpt lat="44.83623" lon="4.33057">
        <ele>728.381</ele>
        <time>2018-07-23T14:47:13Z</time>
      </trkpt>
      <trkpt lat="44.83632" lon="4.33057">
        <ele>728.553</ele>
        <time>2018-07-23T14:47:21Z</time>
      </trkpt>
      <trkpt lat="44.83644" lon="4.33057">
        <ele>727.77</ele>
        <time>2018-07-23T14:47:29Z</time>
      </trkpt>
      <trkpt lat="44.83657" lon="4.33058">
        <ele>727.858</ele>
        <time>2018-07-23T14:47:39Z</time>
      </trkpt>
      <trkpt lat="44.83666" lon="4.33057">
        <ele>727.652</ele>
        <time>2018-07-23T14:47:46Z</time>
      </trkpt>
      <trkpt lat="44.83671" lon="4.33057">
        <ele>727.229</ele>
        <time>2018-07-23T14:47:50Z</time>
      </trkpt>
      <trkpt lat="44.83681" lon="4.33062">
        <ele>726.906</ele>
        <time>2018-07-23T14:48:00Z</time>
      </trkpt>
      <trkpt lat="44.8369" lon="4.33062">
        <ele>726.288</ele>
        <time>2018-07-23T14:48:07Z</time>
      </trkpt>
      <trkpt lat="44.83702" lon="4.33063">
        <ele>725.87</ele>
        <time>2018-07-23T14:48:15Z</time>
      </trkpt>
      <trkpt lat="44.83708" lon="4.3306">
        <ele>725.309</ele>
        <time>2018-07-23T14:48:20Z</time>
      </trkpt>
      <trkpt lat="44.8372" lon="4.33068">
        <ele>725.566</ele>
        <time>2018-07-23T14:48:29Z</time>
      </trkpt>
      <trkpt lat="44.83726" lon="4.3307">
        <ele>725.409</ele>
        <time>2018-07-23T14:48:36Z</time>
      </trkpt>
      <trkpt lat="44.83733" lon="4.33074">
        <ele>725.189</ele>
        <time>2018-07-23T14:48:46Z</time>
      </trkpt>
      <trkpt lat="44.83739" lon="4.33081">
        <ele>725.326</ele>
        <time>2018-07-23T14:48:53Z</time>
      </trkpt>
      <trkpt lat="44.83745" lon="4.33087">
        <ele>724.723</ele>
        <time>2018-07-23T14:48:59Z</time>
      </trkpt>
      <trkpt lat="44.83752" lon="4.33093">
        <ele>724.097</ele>
        <time>2018-07-23T14:49:06Z</time>
      </trkpt>
      <trkpt lat="44.83757" lon="4.33095">
        <ele>722.342</ele>
        <time>2018-07-23T14:49:10Z</time>
      </trkpt>
      <trkpt lat="44.83761" lon="4.33097">
        <ele>725.363</ele>
        <time>2018-07-23T14:49:11Z</time>
      </trkpt>
      <trkpt lat="44.83769" lon="4.331">
        <ele>723.788</ele>
        <time>2018-07-23T14:49:21Z</time>
      </trkpt>
      <trkpt lat="44.83771" lon="4.33099">
        <ele>723.214</ele>
        <time>2018-07-23T14:49:23Z</time>
      </trkpt>
      <trkpt lat="44.83776" lon="4.33099">
        <ele>723.443</ele>
        <time>2018-07-23T14:49:27Z</time>
      </trkpt>
      <trkpt lat="44.83789" lon="4.33098">
        <ele>722.875</ele>
        <time>2018-07-23T14:49:36Z</time>
      </trkpt>
      <trkpt lat="44.83794" lon="4.33096">
        <ele>722.144</ele>
        <time>2018-07-23T14:49:41Z</time>
      </trkpt>
      <trkpt lat="44.83799" lon="4.33094">
        <ele>722.472</ele>
        <time>2018-07-23T14:49:45Z</time>
      </trkpt>
      <trkpt lat="44.83805" lon="4.33093">
        <ele>722.271</ele>
        <time>2018-07-23T14:49:53Z</time>
      </trkpt>
      <trkpt lat="44.8381" lon="4.33093">
        <ele>722.146</ele>
        <time>2018-07-23T14:49:59Z</time>
      </trkpt>
      <trkpt lat="44.83816" lon="4.33094">
        <ele>721.872</ele>
        <time>2018-07-23T14:50:03Z</time>
      </trkpt>
      <trkpt lat="44.83828" lon="4.33098">
        <ele>721.927</ele>
        <time>2018-07-23T14:50:12Z</time>
      </trkpt>
      <trkpt lat="44.8384" lon="4.33105">
        <ele>722.192</ele>
        <time>2018-07-23T14:50:19Z</time>
      </trkpt>
      <trkpt lat="44.83843" lon="4.33107">
        <ele>722.3</ele>
        <time>2018-07-23T14:50:22Z</time>
      </trkpt>
      <trkpt lat="44.83852" lon="4.33114">
        <ele>722.013</ele>
        <time>2018-07-23T14:50:30Z</time>
      </trkpt>
      <trkpt lat="44.83859" lon="4.33119">
        <ele>721.659</ele>
        <time>2018-07-23T14:50:38Z</time>
      </trkpt>
      <trkpt lat="44.83868" lon="4.33124">
        <ele>721.084</ele>
        <time>2018-07-23T14:50:46Z</time>
      </trkpt>
      <trkpt lat="44.83871" lon="4.33126">
        <ele>721.031</ele>
        <time>2018-07-23T14:50:49Z</time>
      </trkpt>
      <trkpt lat="44.8388" lon="4.33125">
        <ele>720.702</ele>
        <time>2018-07-23T14:50:58Z</time>
      </trkpt>
      <trkpt lat="44.83887" lon="4.33119">
        <ele>720.367</ele>
        <time>2018-07-23T14:51:06Z</time>
      </trkpt>
      <trkpt lat="44.8389" lon="4.33116">
        <ele>719.647</ele>
        <time>2018-07-23T14:51:10Z</time>
      </trkpt>
      <trkpt lat="44.83899" lon="4.33106">
        <ele>719.362</ele>
        <time>2018-07-23T14:51:17Z</time>
      </trkpt>
      <trkpt lat="44.83903" lon="4.33094">
        <ele>718.541</ele>
        <time>2018-07-23T14:51:25Z</time>
      </trkpt>
      <trkpt lat="44.83906" lon="4.3309">
        <ele>718.623</ele>
        <time>2018-07-23T14:51:31Z</time>
      </trkpt>
      <trkpt lat="44.83913" lon="4.33087">
        <ele>718.175</ele>
        <time>2018-07-23T14:51:35Z</time>
      </trkpt>
      <trkpt lat="44.83915" lon="4.33078">
        <ele>718.363</ele>
        <time>2018-07-23T14:51:40Z</time>
      </trkpt>
      <trkpt lat="44.83916" lon="4.3307">
        <ele>718.389</ele>
        <time>2018-07-23T14:51:43Z</time>
      </trkpt>
      <trkpt lat="44.83921" lon="4.33062">
        <ele>717.247</ele>
        <time>2018-07-23T14:51:49Z</time>
      </trkpt>
      <trkpt lat="44.83921" lon="4.33055">
        <ele>717.476</ele>
        <time>2018-07-23T14:51:53Z</time>
      </trkpt>
      <trkpt lat="44.83927" lon="4.33047">
        <ele>716.768</ele>
        <time>2018-07-23T14:51:59Z</time>
      </trkpt>
      <trkpt lat="44.8393" lon="4.33038">
        <ele>715.976</ele>
        <time>2018-07-23T14:52:05Z</time>
      </trkpt>
      <trkpt lat="44.83933" lon="4.33031">
        <ele>716.05</ele>
        <time>2018-07-23T14:52:10Z</time>
      </trkpt>
      <trkpt lat="44.83942" lon="4.33032">
        <ele>715.655</ele>
        <time>2018-07-23T14:52:17Z</time>
      </trkpt>
      <trkpt lat="44.83946" lon="4.33033">
        <ele>715.493</ele>
        <time>2018-07-23T14:52:20Z</time>
      </trkpt>
      <trkpt lat="44.83952" lon="4.33033">
        <ele>715.7</ele>
        <time>2018-07-23T14:52:27Z</time>
      </trkpt>
      <trkpt lat="44.83954" lon="4.33032">
        <ele>716.29</ele>
        <time>2018-07-23T14:52:30Z</time>
      </trkpt>
      <trkpt lat="44.83959" lon="4.33035">
        <ele>716.213</ele>
        <time>2018-07-23T14:52:35Z</time>
      </trkpt>
      <trkpt lat="44.83962" lon="4.33036">
        <ele>716.065</ele>
        <time>2018-07-23T14:52:37Z</time>
      </trkpt>
      <trkpt lat="44.8397" lon="4.33037">
        <ele>716.373</ele>
        <time>2018-07-23T14:52:46Z</time>
      </trkpt>
      <trkpt lat="44.83976" lon="4.33034">
        <ele>716.548</ele>
        <time>2018-07-23T14:52:56Z</time>
      </trkpt>
      <trkpt lat="44.83988" lon="4.33025">
        <ele>715.999</ele>
        <time>2018-07-23T14:53:07Z</time>
      </trkpt>
      <trkpt lat="44.83998" lon="4.3303">
        <ele>715.541</ele>
        <time>2018-07-23T14:53:15Z</time>
      </trkpt>
      <trkpt lat="44.84005" lon="4.33036">
        <ele>714.586</ele>
        <time>2018-07-23T14:53:21Z</time>
      </trkpt>
      <trkpt lat="44.8401" lon="4.3304">
        <ele>714.601</ele>
        <time>2018-07-23T14:53:26Z</time>
      </trkpt>
      <trkpt lat="44.84016" lon="4.33045">
        <ele>714.255</ele>
        <time>2018-07-23T14:53:32Z</time>
      </trkpt>
      <trkpt lat="44.84021" lon="4.33047">
        <ele>714.544</ele>
        <time>2018-07-23T14:53:37Z</time>
      </trkpt>
      <trkpt lat="44.84027" lon="4.33048">
        <ele>713.544</ele>
        <time>2018-07-23T14:53:42Z</time>
      </trkpt>
      <trkpt lat="44.84032" lon="4.33055">
        <ele>713.831</ele>
        <time>2018-07-23T14:53:49Z</time>
      </trkpt>
      <trkpt lat="44.84042" lon="4.33059">
        <ele>713.011</ele>
        <time>2018-07-23T14:53:56Z</time>
      </trkpt>
      <trkpt lat="44.84053" lon="4.33061">
        <ele>712.938</ele>
        <time>2018-07-23T14:54:02Z</time>
      </trkpt>
      <trkpt lat="44.84061" lon="4.33064">
        <ele>712.431</ele>
        <time>2018-07-23T14:54:09Z</time>
      </trkpt>
      <trkpt lat="44.84064" lon="4.33067">
        <ele>711.868</ele>
        <time>2018-07-23T14:54:13Z</time>
      </trkpt>
      <trkpt lat="44.8407" lon="4.3307">
        <ele>712.738</ele>
        <time>2018-07-23T14:54:17Z</time>
      </trkpt>
      <trkpt lat="44.84076" lon="4.33076">
        <ele>712.381</ele>
        <time>2018-07-23T14:54:24Z</time>
      </trkpt>
      <trkpt lat="44.84081" lon="4.33081">
        <ele>712.022</ele>
        <time>2018-07-23T14:54:29Z</time>
      </trkpt>
      <trkpt lat="44.84091" lon="4.33089">
        <ele>711.604</ele>
        <time>2018-07-23T14:54:38Z</time>
      </trkpt>
      <trkpt lat="44.84097" lon="4.33095">
        <ele>711.334</ele>
        <time>2018-07-23T14:54:44Z</time>
      </trkpt>
      <trkpt lat="44.84101" lon="4.33098">
        <ele>711.36</ele>
        <time>2018-07-23T14:54:47Z</time>
      </trkpt>
      <trkpt lat="44.84106" lon="4.331">
        <ele>711.17</ele>
        <time>2018-07-23T14:54:51Z</time>
      </trkpt>
      <trkpt lat="44.8412" lon="4.33112">
        <ele>710.125</ele>
        <time>2018-07-23T14:55:04Z</time>
      </trkpt>
      <trkpt lat="44.84132" lon="4.33118">
        <ele>709.037</ele>
        <time>2018-07-23T14:55:16Z</time>
      </trkpt>
      <trkpt lat="44.84139" lon="4.33119">
        <ele>709.084</ele>
        <time>2018-07-23T14:55:23Z</time>
      </trkpt>
      <trkpt lat="44.84143" lon="4.33124">
        <ele>708.842</ele>
        <time>2018-07-23T14:55:27Z</time>
      </trkpt>
      <trkpt lat="44.84152" lon="4.33127">
        <ele>709.037</ele>
        <time>2018-07-23T14:55:34Z</time>
      </trkpt>
      <trkpt lat="44.84155" lon="4.33128">
        <ele>708.7</ele>
        <time>2018-07-23T14:55:39Z</time>
      </trkpt>
      <trkpt lat="44.84159" lon="4.33129">
        <ele>708.465</ele>
        <time>2018-07-23T14:55:42Z</time>
      </trkpt>
      <trkpt lat="44.84161" lon="4.3313">
        <ele>708.438</ele>
        <time>2018-07-23T14:55:44Z</time>
      </trkpt>
      <trkpt lat="44.84164" lon="4.33131">
        <ele>708.422</ele>
        <time>2018-07-23T14:55:46Z</time>
      </trkpt>
      <trkpt lat="44.84175" lon="4.33145">
        <ele>707.069</ele>
        <time>2018-07-23T14:55:57Z</time>
      </trkpt>
      <trkpt lat="44.84179" lon="4.3315">
        <ele>708.959</ele>
        <time>2018-07-23T14:56:03Z</time>
      </trkpt>
      <trkpt lat="44.8418" lon="4.33156">
        <ele>708.539</ele>
        <time>2018-07-23T14:56:10Z</time>
      </trkpt>
      <trkpt lat="44.84183" lon="4.33162">
        <ele>707.092</ele>
        <time>2018-07-23T14:56:18Z</time>
      </trkpt>
      <trkpt lat="44.84186" lon="4.33167">
        <ele>707.584</ele>
        <time>2018-07-23T14:56:22Z</time>
      </trkpt>
      <trkpt lat="44.84188" lon="4.33169">
        <ele>707.137</ele>
        <time>2018-07-23T14:56:24Z</time>
      </trkpt>
      <trkpt lat="44.84195" lon="4.33176">
        <ele>706.833</ele>
        <time>2018-07-23T14:56:31Z</time>
      </trkpt>
      <trkpt lat="44.84204" lon="4.33183">
        <ele>707.063</ele>
        <time>2018-07-23T14:56:39Z</time>
      </trkpt>
      <trkpt lat="44.84214" lon="4.33184">
        <ele>706.543</ele>
        <time>2018-07-23T14:56:47Z</time>
      </trkpt>
      <trkpt lat="44.84222" lon="4.33186">
        <ele>706.74</ele>
        <time>2018-07-23T14:56:54Z</time>
      </trkpt>
      <trkpt lat="44.8423" lon="4.33188">
        <ele>706.054</ele>
        <time>2018-07-23T14:57:01Z</time>
      </trkpt>
      <trkpt lat="44.84236" lon="4.33193">
        <ele>706.137</ele>
        <time>2018-07-23T14:57:07Z</time>
      </trkpt>
      <trkpt lat="44.84247" lon="4.33198">
        <ele>705.582</ele>
        <time>2018-07-23T14:57:14Z</time>
      </trkpt>
      <trkpt lat="44.84253" lon="4.33202">
        <ele>704.419</ele>
        <time>2018-07-23T14:57:18Z</time>
      </trkpt>
      <trkpt lat="44.84259" lon="4.33208">
        <ele>704.434</ele>
        <time>2018-07-23T14:57:24Z</time>
      </trkpt>
      <trkpt lat="44.84269" lon="4.33211">
        <ele>703.835</ele>
        <time>2018-07-23T14:57:31Z</time>
      </trkpt>
      <trkpt lat="44.84281" lon="4.33216">
        <ele>703.665</ele>
        <time>2018-07-23T14:57:39Z</time>
      </trkpt>
      <trkpt lat="44.84293" lon="4.33222">
        <ele>703.351</ele>
        <time>2018-07-23T14:57:49Z</time>
      </trkpt>
      <trkpt lat="44.843" lon="4.33227">
        <ele>702.757</ele>
        <time>2018-07-23T14:57:58Z</time>
      </trkpt>
      <trkpt lat="44.84309" lon="4.3323">
        <ele>703.34</ele>
        <time>2018-07-23T14:58:04Z</time>
      </trkpt>
      <trkpt lat="44.84314" lon="4.33234">
        <ele>702.367</ele>
        <time>2018-07-23T14:58:11Z</time>
      </trkpt>
      <trkpt lat="44.84326" lon="4.33238">
        <ele>702.355</ele>
        <time>2018-07-23T14:58:19Z</time>
      </trkpt>
      <trkpt lat="44.84327" lon="4.33236">
        <ele>702.274</ele>
        <time>2018-07-23T14:58:21Z</time>
      </trkpt>
      <trkpt lat="44.84335" lon="4.33237">
        <ele>701.448</ele>
        <time>2018-07-23T14:58:27Z</time>
      </trkpt>
      <trkpt lat="44.84343" lon="4.33239">
        <ele>701.353</ele>
        <time>2018-07-23T14:58:33Z</time>
      </trkpt>
      <trkpt lat="44.84356" lon="4.33239">
        <ele>701.453</ele>
        <time>2018-07-23T14:58:44Z</time>
      </trkpt>
      <trkpt lat="44.84362" lon="4.33236">
        <ele>701.044</ele>
        <time>2018-07-23T14:58:49Z</time>
      </trkpt>
      <trkpt lat="44.84377" lon="4.33236">
        <ele>701.022</ele>
        <time>2018-07-23T14:59:01Z</time>
      </trkpt>
      <trkpt lat="44.84388" lon="4.33234">
        <ele>700.251</ele>
        <time>2018-07-23T14:59:11Z</time>
      </trkpt>
      <trkpt lat="44.84401" lon="4.33229">
        <ele>699.839</ele>
        <time>2018-07-23T14:59:22Z</time>
      </trkpt>
      <trkpt lat="44.84414" lon="4.33224">
        <ele>698.927</ele>
        <time>2018-07-23T14:59:34Z</time>
      </trkpt>
      <trkpt lat="44.84423" lon="4.33223">
        <ele>699.295</ele>
        <time>2018-07-23T14:59:41Z</time>
      </trkpt>
      <trkpt lat="44.84436" lon="4.33216">
        <ele>698.416</ele>
        <time>2018-07-23T14:59:53Z</time>
      </trkpt>
      <trkpt lat="44.8444" lon="4.33215">
        <ele>698.408</ele>
        <time>2018-07-23T14:59:56Z</time>
      </trkpt>
      <trkpt lat="44.84453" lon="4.33208">
        <ele>698.174</ele>
        <time>2018-07-23T15:00:07Z</time>
      </trkpt>
      <trkpt lat="44.84465" lon="4.33205">
        <ele>696.874</ele>
        <time>2018-07-23T15:00:18Z</time>
      </trkpt>
      <trkpt lat="44.84474" lon="4.332">
        <ele>697.042</ele>
        <time>2018-07-23T15:00:25Z</time>
      </trkpt>
      <trkpt lat="44.84486" lon="4.33196">
        <ele>696.506</ele>
        <time>2018-07-23T15:00:35Z</time>
      </trkpt>
      <trkpt lat="44.84496" lon="4.33195">
        <ele>696.171</ele>
        <time>2018-07-23T15:00:44Z</time>
      </trkpt>
      <trkpt lat="44.84506" lon="4.33198">
        <ele>696.036</ele>
        <time>2018-07-23T15:00:53Z</time>
      </trkpt>
      <trkpt lat="44.84514" lon="4.33201">
        <ele>695.133</ele>
        <time>2018-07-23T15:01:01Z</time>
      </trkpt>
      <trkpt lat="44.84524" lon="4.33209">
        <ele>695.237</ele>
        <time>2018-07-23T15:01:10Z</time>
      </trkpt>
      <trkpt lat="44.84531" lon="4.33212">
        <ele>695.095</ele>
        <time>2018-07-23T15:01:15Z</time>
      </trkpt>
      <trkpt lat="44.8454" lon="4.33216">
        <ele>695.256</ele>
        <time>2018-07-23T15:01:21Z</time>
      </trkpt>
      <trkpt lat="44.84542" lon="4.33216">
        <ele>695.009</ele>
        <time>2018-07-23T15:01:22Z</time>
      </trkpt>
      <trkpt lat="44.84548" lon="4.33219">
        <ele>694.68</ele>
        <time>2018-07-23T15:01:29Z</time>
      </trkpt>
      <trkpt lat="44.84554" lon="4.33223">
        <ele>694.733</ele>
        <time>2018-07-23T15:01:35Z</time>
      </trkpt>
      <trkpt lat="44.84564" lon="4.33228">
        <ele>694.385</ele>
        <time>2018-07-23T15:01:44Z</time>
      </trkpt>
      <trkpt lat="44.8457" lon="4.33235">
        <ele>694.229</ele>
        <time>2018-07-23T15:01:51Z</time>
      </trkpt>
      <trkpt lat="44.84571" lon="4.3324">
        <ele>693.999</ele>
        <time>2018-07-23T15:01:54Z</time>
      </trkpt>
      <trkpt lat="44.84574" lon="4.3325">
        <ele>693.739</ele>
        <time>2018-07-23T15:02:00Z</time>
      </trkpt>
      <trkpt lat="44.84575" lon="4.33256">
        <ele>692.795</ele>
        <time>2018-07-23T15:02:04Z</time>
      </trkpt>
      <trkpt lat="44.84576" lon="4.33264">
        <ele>692.947</ele>
        <time>2018-07-23T15:02:09Z</time>
      </trkpt>
      <trkpt lat="44.84576" lon="4.33269">
        <ele>693.65</ele>
        <time>2018-07-23T15:02:11Z</time>
      </trkpt>
      <trkpt lat="44.84575" lon="4.33287">
        <ele>693.145</ele>
        <time>2018-07-23T15:02:21Z</time>
      </trkpt>
      <trkpt lat="44.84574" lon="4.33293">
        <ele>692.862</ele>
        <time>2018-07-23T15:02:25Z</time>
      </trkpt>
      <trkpt lat="44.84572" lon="4.33301">
        <ele>692.105</ele>
        <time>2018-07-23T15:02:29Z</time>
      </trkpt>
      <trkpt lat="44.84568" lon="4.33317">
        <ele>691.601</ele>
        <time>2018-07-23T15:02:39Z</time>
      </trkpt>
      <trkpt lat="44.84565" lon="4.33335">
        <ele>691.359</ele>
        <time>2018-07-23T15:02:49Z</time>
      </trkpt>
      <trkpt lat="44.84565" lon="4.3334">
        <ele>690.891</ele>
        <time>2018-07-23T15:02:52Z</time>
      </trkpt>
      <trkpt lat="44.84564" lon="4.33345">
        <ele>690.893</ele>
        <time>2018-07-23T15:02:55Z</time>
      </trkpt>
      <trkpt lat="44.84563" lon="4.33361">
        <ele>690.997</ele>
        <time>2018-07-23T15:03:06Z</time>
      </trkpt>
      <trkpt lat="44.8456" lon="4.33375">
        <ele>690.325</ele>
        <time>2018-07-23T15:03:15Z</time>
      </trkpt>
      <trkpt lat="44.84559" lon="4.3339">
        <ele>689.773</ele>
        <time>2018-07-23T15:03:23Z</time>
      </trkpt>
      <trkpt lat="44.84556" lon="4.33406">
        <ele>689.065</ele>
        <time>2018-07-23T15:03:32Z</time>
      </trkpt>
      <trkpt lat="44.84554" lon="4.33413">
        <ele>689.342</ele>
        <time>2018-07-23T15:03:37Z</time>
      </trkpt>
      <trkpt lat="44.84554" lon="4.33416">
        <ele>689.004</ele>
        <time>2018-07-23T15:03:39Z</time>
      </trkpt>
      <trkpt lat="44.8455" lon="4.33432">
        <ele>688.394</ele>
        <time>2018-07-23T15:03:50Z</time>
      </trkpt>
      <trkpt lat="44.84545" lon="4.33441">
        <ele>687.958</ele>
        <time>2018-07-23T15:03:58Z</time>
      </trkpt>
      <trkpt lat="44.84542" lon="4.33445">
        <ele>687.916</ele>
        <time>2018-07-23T15:04:04Z</time>
      </trkpt>
      <trkpt lat="44.84536" lon="4.3346">
        <ele>687.365</ele>
        <time>2018-07-23T15:04:14Z</time>
      </trkpt>
      <trkpt lat="44.8453" lon="4.33474">
        <ele>687.351</ele>
        <time>2018-07-23T15:04:22Z</time>
      </trkpt>
      <trkpt lat="44.84526" lon="4.33483">
        <ele>686.906</ele>
        <time>2018-07-23T15:04:28Z</time>
      </trkpt>
      <trkpt lat="44.84517" lon="4.33499">
        <ele>686.635</ele>
        <time>2018-07-23T15:04:41Z</time>
      </trkpt>
      <trkpt lat="44.84513" lon="4.33513">
        <ele>685.616</ele>
        <time>2018-07-23T15:04:50Z</time>
      </trkpt>
      <trkpt lat="44.84509" lon="4.33531">
        <ele>684.904</ele>
        <time>2018-07-23T15:05:00Z</time>
      </trkpt>
      <trkpt lat="44.84507" lon="4.33544">
        <ele>685.631</ele>
        <time>2018-07-23T15:05:08Z</time>
      </trkpt>
      <trkpt lat="44.84505" lon="4.33556">
        <ele>684.333</ele>
        <time>2018-07-23T15:05:15Z</time>
      </trkpt>
      <trkpt lat="44.84505" lon="4.33568">
        <ele>684.252</ele>
        <time>2018-07-23T15:05:22Z</time>
      </trkpt>
      <trkpt lat="44.84503" lon="4.33582">
        <ele>684.195</ele>
        <time>2018-07-23T15:05:31Z</time>
      </trkpt>
      <trkpt lat="44.84502" lon="4.33597">
        <ele>683.306</ele>
        <time>2018-07-23T15:05:40Z</time>
      </trkpt>
      <trkpt lat="44.84501" lon="4.3361">
        <ele>682.213</ele>
        <time>2018-07-23T15:05:48Z</time>
      </trkpt>
      <trkpt lat="44.84499" lon="4.33624">
        <ele>681.828</ele>
        <time>2018-07-23T15:05:56Z</time>
      </trkpt>
      <trkpt lat="44.84498" lon="4.33629">
        <ele>682.109</ele>
        <time>2018-07-23T15:06:00Z</time>
      </trkpt>
      <trkpt lat="44.84497" lon="4.33645">
        <ele>680.936</ele>
        <time>2018-07-23T15:06:09Z</time>
      </trkpt>
      <trkpt lat="44.84497" lon="4.33665">
        <ele>680.305</ele>
        <time>2018-07-23T15:06:20Z</time>
      </trkpt>
      <trkpt lat="44.84496" lon="4.33678">
        <ele>679.796</ele>
        <time>2018-07-23T15:06:27Z</time>
      </trkpt>
      <trkpt lat="44.84497" lon="4.33681">
        <ele>680.336</ele>
        <time>2018-07-23T15:06:29Z</time>
      </trkpt>
      <trkpt lat="44.84499" lon="4.33701">
        <ele>679.898</ele>
        <time>2018-07-23T15:06:42Z</time>
      </trkpt>
      <trkpt lat="44.84505" lon="4.33716">
        <ele>679.574</ele>
        <time>2018-07-23T15:06:52Z</time>
      </trkpt>
      <trkpt lat="44.84512" lon="4.33732">
        <ele>679.228</ele>
        <time>2018-07-23T15:07:03Z</time>
      </trkpt>
      <trkpt lat="44.84518" lon="4.33746">
        <ele>679.107</ele>
        <time>2018-07-23T15:07:12Z</time>
      </trkpt>
      <trkpt lat="44.84524" lon="4.3376">
        <ele>679.594</ele>
        <time>2018-07-23T15:07:24Z</time>
      </trkpt>
      <trkpt lat="44.84534" lon="4.3377">
        <ele>679.314</ele>
        <time>2018-07-23T15:07:34Z</time>
      </trkpt>
      <trkpt lat="44.84542" lon="4.33778">
        <ele>678.919</ele>
        <time>2018-07-23T15:07:43Z</time>
      </trkpt>
      <trkpt lat="44.84546" lon="4.33784">
        <ele>678.379</ele>
        <time>2018-07-23T15:07:48Z</time>
      </trkpt>
      <trkpt lat="44.84549" lon="4.33786">
        <ele>678.052</ele>
        <time>2018-07-23T15:07:51Z</time>
      </trkpt>
      <trkpt lat="44.84555" lon="4.33793">
        <ele>678.027</ele>
        <time>2018-07-23T15:07:58Z</time>
      </trkpt>
      <trkpt lat="44.8456" lon="4.33802">
        <ele>677.727</ele>
        <time>2018-07-23T15:08:05Z</time>
      </trkpt>
      <trkpt lat="44.84561" lon="4.33804">
        <ele>677.92</ele>
        <time>2018-07-23T15:08:07Z</time>
      </trkpt>
      <trkpt lat="44.84567" lon="4.33815">
        <ele>677.591</ele>
        <time>2018-07-23T15:08:15Z</time>
      </trkpt>
      <trkpt lat="44.84572" lon="4.33825">
        <ele>677.607</ele>
        <time>2018-07-23T15:08:22Z</time>
      </trkpt>
      <trkpt lat="44.84578" lon="4.33842">
        <ele>677.352</ele>
        <time>2018-07-23T15:08:32Z</time>
      </trkpt>
      <trkpt lat="44.84581" lon="4.33851">
        <ele>676.935</ele>
        <time>2018-07-23T15:08:37Z</time>
      </trkpt>
      <trkpt lat="44.84586" lon="4.33868">
        <ele>675.824</ele>
        <time>2018-07-23T15:08:47Z</time>
      </trkpt>
      <trkpt lat="44.84588" lon="4.33875">
        <ele>676.162</ele>
        <time>2018-07-23T15:08:52Z</time>
      </trkpt>
      <trkpt lat="44.84592" lon="4.33884">
        <ele>675.869</ele>
        <time>2018-07-23T15:08:58Z</time>
      </trkpt>
      <trkpt lat="44.84595" lon="4.33886">
        <ele>675.824</ele>
        <time>2018-07-23T15:09:00Z</time>
      </trkpt>
      <trkpt lat="44.84602" lon="4.33899">
        <ele>675.554</ele>
        <time>2018-07-23T15:09:11Z</time>
      </trkpt>
      <trkpt lat="44.84611" lon="4.33909">
        <ele>675.233</ele>
        <time>2018-07-23T15:09:21Z</time>
      </trkpt>
      <trkpt lat="44.84621" lon="4.33915">
        <ele>675.01</ele>
        <time>2018-07-23T15:09:31Z</time>
      </trkpt>
      <trkpt lat="44.84632" lon="4.3392">
        <ele>674.949</ele>
        <time>2018-07-23T15:09:41Z</time>
      </trkpt>
      <trkpt lat="44.84644" lon="4.33925">
        <ele>674.71</ele>
        <time>2018-07-23T15:09:52Z</time>
      </trkpt>
      <trkpt lat="44.84658" lon="4.33929">
        <ele>674.855</ele>
        <time>2018-07-23T15:10:04Z</time>
      </trkpt>
      <trkpt lat="44.84672" lon="4.33933">
        <ele>674.432</ele>
        <time>2018-07-23T15:10:16Z</time>
      </trkpt>
      <trkpt lat="44.84685" lon="4.33939">
        <ele>673.44</ele>
        <time>2018-07-23T15:10:27Z</time>
      </trkpt>
      <trkpt lat="44.84688" lon="4.33941">
        <ele>673.643</ele>
        <time>2018-07-23T15:10:29Z</time>
      </trkpt>
      <trkpt lat="44.84689" lon="4.33942">
        <ele>673.755</ele>
        <time>2018-07-23T15:10:31Z</time>
      </trkpt>
      <trkpt lat="44.847" lon="4.3395">
        <ele>673.368</ele>
        <time>2018-07-23T15:10:40Z</time>
      </trkpt>
      <trkpt lat="44.84704" lon="4.33955">
        <ele>672.735</ele>
        <time>2018-07-23T15:10:45Z</time>
      </trkpt>
      <trkpt lat="44.84714" lon="4.33964">
        <ele>672.967</ele>
        <time>2018-07-23T15:10:54Z</time>
      </trkpt>
      <trkpt lat="44.84719" lon="4.33972">
        <ele>672.374</ele>
        <time>2018-07-23T15:11:01Z</time>
      </trkpt>
      <trkpt lat="44.84724" lon="4.3398">
        <ele>672.603</ele>
        <time>2018-07-23T15:11:08Z</time>
      </trkpt>
      <trkpt lat="44.84731" lon="4.33985">
        <ele>671.901</ele>
        <time>2018-07-23T15:11:14Z</time>
      </trkpt>
      <trkpt lat="44.84737" lon="4.33995">
        <ele>671.552</ele>
        <time>2018-07-23T15:11:24Z</time>
      </trkpt>
      <trkpt lat="44.84741" lon="4.34003">
        <ele>671.987</ele>
        <time>2018-07-23T15:11:30Z</time>
      </trkpt>
      <trkpt lat="44.84743" lon="4.34007">
        <ele>671.43</ele>
        <time>2018-07-23T15:11:33Z</time>
      </trkpt>
      <trkpt lat="44.84757" lon="4.34011">
        <ele>670.701</ele>
        <time>2018-07-23T15:11:43Z</time>
      </trkpt>
      <trkpt lat="44.8476" lon="4.34012">
        <ele>670.051</ele>
        <time>2018-07-23T15:11:45Z</time>
      </trkpt>
      <trkpt lat="44.84763" lon="4.34018">
        <ele>669.744</ele>
        <time>2018-07-23T15:11:49Z</time>
      </trkpt>
      <trkpt lat="44.84769" lon="4.34024">
        <ele>668.296</ele>
        <time>2018-07-23T15:11:54Z</time>
      </trkpt>
      <trkpt lat="44.84778" lon="4.34028">
        <ele>666.629</ele>
        <time>2018-07-23T15:12:02Z</time>
      </trkpt>
      <trkpt lat="44.84781" lon="4.34033">
        <ele>666.237</ele>
        <time>2018-07-23T15:12:06Z</time>
      </trkpt>
      <trkpt lat="44.84783" lon="4.34037">
        <ele>665.839</ele>
        <time>2018-07-23T15:12:09Z</time>
      </trkpt>
      <trkpt lat="44.8479" lon="4.3404">
        <ele>665.72</ele>
        <time>2018-07-23T15:12:13Z</time>
      </trkpt>
      <trkpt lat="44.84794" lon="4.34044">
        <ele>665.754</ele>
        <time>2018-07-23T15:12:16Z</time>
      </trkpt>
      <trkpt lat="44.84797" lon="4.34051">
        <ele>665.321</ele>
        <time>2018-07-23T15:12:21Z</time>
      </trkpt>
      <trkpt lat="44.84802" lon="4.34052">
        <ele>665.017</ele>
        <time>2018-07-23T15:12:25Z</time>
      </trkpt>
      <trkpt lat="44.8481" lon="4.34058">
        <ele>664.774</ele>
        <time>2018-07-23T15:12:33Z</time>
      </trkpt>
      <trkpt lat="44.84814" lon="4.34062">
        <ele>664.576</ele>
        <time>2018-07-23T15:12:37Z</time>
      </trkpt>
      <trkpt lat="44.84819" lon="4.34067">
        <ele>664.504</ele>
        <time>2018-07-23T15:12:42Z</time>
      </trkpt>
      <trkpt lat="44.84823" lon="4.34078">
        <ele>663.471</ele>
        <time>2018-07-23T15:12:51Z</time>
      </trkpt>
      <trkpt lat="44.84835" lon="4.34084">
        <ele>662.958</ele>
        <time>2018-07-23T15:12:59Z</time>
      </trkpt>
      <trkpt lat="44.84843" lon="4.34091">
        <ele>663.284</ele>
        <time>2018-07-23T15:13:05Z</time>
      </trkpt>
      <trkpt lat="44.84853" lon="4.341">
        <ele>662.012</ele>
        <time>2018-07-23T15:13:17Z</time>
      </trkpt>
      <trkpt lat="44.84859" lon="4.34105">
        <ele>661.111</ele>
        <time>2018-07-23T15:13:24Z</time>
      </trkpt>
      <trkpt lat="44.84861" lon="4.34108">
        <ele>661.347</ele>
        <time>2018-07-23T15:13:26Z</time>
      </trkpt>
      <trkpt lat="44.84868" lon="4.34113">
        <ele>660.494</ele>
        <time>2018-07-23T15:13:34Z</time>
      </trkpt>
      <trkpt lat="44.84876" lon="4.34119">
        <ele>659.451</ele>
        <time>2018-07-23T15:13:42Z</time>
      </trkpt>
      <trkpt lat="44.84879" lon="4.34121">
        <ele>658.904</ele>
        <time>2018-07-23T15:13:44Z</time>
      </trkpt>
      <trkpt lat="44.84887" lon="4.34119">
        <ele>658.233</ele>
        <time>2018-07-23T15:13:51Z</time>
      </trkpt>
      <trkpt lat="44.84893" lon="4.34121">
        <ele>657.382</ele>
        <time>2018-07-23T15:13:57Z</time>
      </trkpt>
      <trkpt lat="44.84897" lon="4.34126">
        <ele>656.595</ele>
        <time>2018-07-23T15:14:03Z</time>
      </trkpt>
      <trkpt lat="44.84904" lon="4.34133">
        <ele>655.783</ele>
        <time>2018-07-23T15:14:09Z</time>
      </trkpt>
      <trkpt lat="44.84913" lon="4.34141">
        <ele>655.967</ele>
        <time>2018-07-23T15:14:17Z</time>
      </trkpt>
      <trkpt lat="44.84917" lon="4.34145">
        <ele>655.536</ele>
        <time>2018-07-23T15:14:21Z</time>
      </trkpt>
      <trkpt lat="44.84923" lon="4.34153">
        <ele>655.349</ele>
        <time>2018-07-23T15:14:27Z</time>
      </trkpt>
      <trkpt lat="44.84925" lon="4.34155">
        <ele>655.138</ele>
        <time>2018-07-23T15:14:29Z</time>
      </trkpt>
      <trkpt lat="44.8493" lon="4.34164">
        <ele>655.085</ele>
        <time>2018-07-23T15:14:35Z</time>
      </trkpt>
      <trkpt lat="44.84942" lon="4.34183">
        <ele>655.148</ele>
        <time>2018-07-23T15:14:48Z</time>
      </trkpt>
      <trkpt lat="44.84943" lon="4.34188">
        <ele>654.645</ele>
        <time>2018-07-23T15:14:52Z</time>
      </trkpt>
      <trkpt lat="44.84943" lon="4.34193">
        <ele>654.555</ele>
        <time>2018-07-23T15:14:55Z</time>
      </trkpt>
      <trkpt lat="44.84946" lon="4.34198">
        <ele>654.617</ele>
        <time>2018-07-23T15:14:59Z</time>
      </trkpt>
      <trkpt lat="44.84953" lon="4.34213">
        <ele>655.266</ele>
        <time>2018-07-23T15:15:10Z</time>
      </trkpt>
      <trkpt lat="44.84955" lon="4.34227">
        <ele>655.156</ele>
        <time>2018-07-23T15:15:20Z</time>
      </trkpt>
      <trkpt lat="44.84962" lon="4.34245">
        <ele>655.077</ele>
        <time>2018-07-23T15:15:32Z</time>
      </trkpt>
      <trkpt lat="44.84958" lon="4.34258">
        <ele>654.781</ele>
        <time>2018-07-23T15:15:41Z</time>
      </trkpt>
      <trkpt lat="44.84957" lon="4.34262">
        <ele>654.813</ele>
        <time>2018-07-23T15:15:48Z</time>
      </trkpt>
      <trkpt lat="44.84952" lon="4.34279">
        <ele>654.748</ele>
        <time>2018-07-23T15:15:59Z</time>
      </trkpt>
      <trkpt lat="44.84949" lon="4.34285">
        <ele>653.516</ele>
        <time>2018-07-23T15:16:04Z</time>
      </trkpt>
      <trkpt lat="44.84947" lon="4.34291">
        <ele>653.628</ele>
        <time>2018-07-23T15:16:07Z</time>
      </trkpt>
      <trkpt lat="44.8494" lon="4.34301">
        <ele>653.969</ele>
        <time>2018-07-23T15:16:16Z</time>
      </trkpt>
      <trkpt lat="44.84935" lon="4.34306">
        <ele>652.826</ele>
        <time>2018-07-23T15:16:25Z</time>
      </trkpt>
      <trkpt lat="44.8493" lon="4.34309">
        <ele>653.506</ele>
        <time>2018-07-23T15:16:32Z</time>
      </trkpt>
      <trkpt lat="44.84922" lon="4.34309">
        <ele>653.01</ele>
        <time>2018-07-23T15:16:39Z</time>
      </trkpt>
      <trkpt lat="44.84914" lon="4.34313">
        <ele>653.696</ele>
        <time>2018-07-23T15:16:47Z</time>
      </trkpt>
      <trkpt lat="44.84908" lon="4.3432">
        <ele>653.508</ele>
        <time>2018-07-23T15:16:56Z</time>
      </trkpt>
      <trkpt lat="44.84901" lon="4.34332">
        <ele>654.092</ele>
        <time>2018-07-23T15:17:06Z</time>
      </trkpt>
      <trkpt lat="44.84894" lon="4.34348">
        <ele>654.225</ele>
        <time>2018-07-23T15:17:18Z</time>
      </trkpt>
      <trkpt lat="44.84892" lon="4.34353">
        <ele>654.218</ele>
        <time>2018-07-23T15:17:23Z</time>
      </trkpt>
      <trkpt lat="44.84885" lon="4.34369">
        <ele>654.538</ele>
        <time>2018-07-23T15:17:36Z</time>
      </trkpt>
      <trkpt lat="44.84881" lon="4.34383">
        <ele>655.694</ele>
        <time>2018-07-23T15:17:48Z</time>
      </trkpt>
      <trkpt lat="44.8488" lon="4.34388">
        <ele>656.249</ele>
        <time>2018-07-23T15:17:54Z</time>
      </trkpt>
      <trkpt lat="44.84878" lon="4.34394">
        <ele>657.132</ele>
        <time>2018-07-23T15:18:02Z</time>
      </trkpt>
      <trkpt lat="44.84878" lon="4.34398">
        <ele>656.966</ele>
        <time>2018-07-23T15:18:05Z</time>
      </trkpt>
      <trkpt lat="44.84877" lon="4.34407">
        <ele>657.657</ele>
        <time>2018-07-23T15:18:11Z</time>
      </trkpt>
      <trkpt lat="44.84877" lon="4.3441">
        <ele>657.623</ele>
        <time>2018-07-23T15:18:13Z</time>
      </trkpt>
      <trkpt lat="44.84873" lon="4.34416">
        <ele>657.955</ele>
        <time>2018-07-23T15:18:21Z</time>
      </trkpt>
      <trkpt lat="44.84868" lon="4.3443">
        <ele>658.899</ele>
        <time>2018-07-23T15:18:31Z</time>
      </trkpt>
      <trkpt lat="44.84866" lon="4.34435">
        <ele>658.746</ele>
        <time>2018-07-23T15:18:38Z</time>
      </trkpt>
      <trkpt lat="44.84862" lon="4.34442">
        <ele>659.363</ele>
        <time>2018-07-23T15:19:05Z</time>
      </trkpt>
      <trkpt lat="44.84855" lon="4.3445">
        <ele>660.2</ele>
        <time>2018-07-23T15:19:13Z</time>
      </trkpt>
      <trkpt lat="44.84848" lon="4.34455">
        <ele>661.422</ele>
        <time>2018-07-23T15:19:22Z</time>
      </trkpt>
      <trkpt lat="44.84847" lon="4.34463">
        <ele>662.221</ele>
        <time>2018-07-23T15:19:29Z</time>
      </trkpt>
      <trkpt lat="44.84838" lon="4.34464">
        <ele>662.015</ele>
        <time>2018-07-23T15:19:56Z</time>
      </trkpt>
      <trkpt lat="44.84841" lon="4.3447">
        <ele>662.152</ele>
        <time>2018-07-23T15:20:30Z</time>
      </trkpt>
      <trkpt lat="44.84844" lon="4.34476">
        <ele>662.044</ele>
        <time>2018-07-23T15:20:42Z</time>
      </trkpt>
      <trkpt lat="44.84855" lon="4.34483">
        <ele>661.63</ele>
        <time>2018-07-23T15:21:11Z</time>
      </trkpt>
      <trkpt lat="44.84865" lon="4.34485">
        <ele>660.891</ele>
        <time>2018-07-23T15:21:19Z</time>
      </trkpt>
      <trkpt lat="44.84867" lon="4.34487">
        <ele>661.021</ele>
        <time>2018-07-23T15:21:21Z</time>
      </trkpt>
      <trkpt lat="44.84873" lon="4.34497">
        <ele>660.786</ele>
        <time>2018-07-23T15:21:28Z</time>
      </trkpt>
      <trkpt lat="44.84877" lon="4.34506">
        <ele>660.272</ele>
        <time>2018-07-23T15:21:35Z</time>
      </trkpt>
      <trkpt lat="44.84883" lon="4.34516">
        <ele>660.794</ele>
        <time>2018-07-23T15:21:42Z</time>
      </trkpt>
      <trkpt lat="44.84886" lon="4.34529">
        <ele>659.862</ele>
        <time>2018-07-23T15:21:51Z</time>
      </trkpt>
      <trkpt lat="44.84893" lon="4.34546">
        <ele>660.331</ele>
        <time>2018-07-23T15:22:03Z</time>
      </trkpt>
      <trkpt lat="44.84898" lon="4.34555">
        <ele>659.427</ele>
        <time>2018-07-23T15:22:10Z</time>
      </trkpt>
      <trkpt lat="44.84904" lon="4.34559">
        <ele>658.901</ele>
        <time>2018-07-23T15:22:17Z</time>
      </trkpt>
      <trkpt lat="44.84908" lon="4.34567">
        <ele>658.775</ele>
        <time>2018-07-23T15:22:26Z</time>
      </trkpt>
      <trkpt lat="44.84916" lon="4.34576">
        <ele>658.72</ele>
        <time>2018-07-23T15:22:34Z</time>
      </trkpt>
      <trkpt lat="44.84924" lon="4.3458">
        <ele>658.246</ele>
        <time>2018-07-23T15:22:42Z</time>
      </trkpt>
      <trkpt lat="44.84936" lon="4.3459">
        <ele>658.135</ele>
        <time>2018-07-23T15:22:53Z</time>
      </trkpt>
      <trkpt lat="44.84947" lon="4.346">
        <ele>657.099</ele>
        <time>2018-07-23T15:23:03Z</time>
      </trkpt>
      <trkpt lat="44.8495" lon="4.34602">
        <ele>656.566</ele>
        <time>2018-07-23T15:23:06Z</time>
      </trkpt>
      <trkpt lat="44.84952" lon="4.34605">
        <ele>656.841</ele>
        <time>2018-07-23T15:23:08Z</time>
      </trkpt>
      <trkpt lat="44.84962" lon="4.34614">
        <ele>656.284</ele>
        <time>2018-07-23T15:23:18Z</time>
      </trkpt>
      <trkpt lat="44.84973" lon="4.34622">
        <ele>656.267</ele>
        <time>2018-07-23T15:23:27Z</time>
      </trkpt>
      <trkpt lat="44.84982" lon="4.34628">
        <ele>655.844</ele>
        <time>2018-07-23T15:23:35Z</time>
      </trkpt>
      <trkpt lat="44.8499" lon="4.34635">
        <ele>655.457</ele>
        <time>2018-07-23T15:23:43Z</time>
      </trkpt>
      <trkpt lat="44.84995" lon="4.34642">
        <ele>655.129</ele>
        <time>2018-07-23T15:23:49Z</time>
      </trkpt>
      <trkpt lat="44.84998" lon="4.34651">
        <ele>654.745</ele>
        <time>2018-07-23T15:23:55Z</time>
      </trkpt>
      <trkpt lat="44.85008" lon="4.34668">
        <ele>653.953</ele>
        <time>2018-07-23T15:24:07Z</time>
      </trkpt>
      <trkpt lat="44.85016" lon="4.34687">
        <ele>653.24</ele>
        <time>2018-07-23T15:24:19Z</time>
      </trkpt>
      <trkpt lat="44.85026" lon="4.34706">
        <ele>653.003</ele>
        <time>2018-07-23T15:24:32Z</time>
      </trkpt>
      <trkpt lat="44.85037" lon="4.34728">
        <ele>652.188</ele>
        <time>2018-07-23T15:24:47Z</time>
      </trkpt>
      <trkpt lat="44.85043" lon="4.34743">
        <ele>652.096</ele>
        <time>2018-07-23T15:24:58Z</time>
      </trkpt>
      <trkpt lat="44.85049" lon="4.34751">
        <ele>651.49</ele>
        <time>2018-07-23T15:25:06Z</time>
      </trkpt>
      <trkpt lat="44.85054" lon="4.34745">
        <ele>650.799</ele>
        <time>2018-07-23T15:25:17Z</time>
      </trkpt>
      <trkpt lat="44.85064" lon="4.34735">
        <ele>649.253</ele>
        <time>2018-07-23T15:25:30Z</time>
      </trkpt>
      <trkpt lat="44.8507" lon="4.34727">
        <ele>648.678</ele>
        <time>2018-07-23T15:25:38Z</time>
      </trkpt>
      <trkpt lat="44.85072" lon="4.3472">
        <ele>647.757</ele>
        <time>2018-07-23T15:25:43Z</time>
      </trkpt>
      <trkpt lat="44.85071" lon="4.34714">
        <ele>648.01</ele>
        <time>2018-07-23T15:25:47Z</time>
      </trkpt>
      <trkpt lat="44.85068" lon="4.34709">
        <ele>646.144</ele>
        <time>2018-07-23T15:29:01Z</time>
      </trkpt>
      <trkpt lat="44.85073" lon="4.34706">
        <ele>645.926</ele>
        <time>2018-07-23T15:29:14Z</time>
      </trkpt>
      <trkpt lat="44.85075" lon="4.34709">
        <ele>647.807</ele>
        <time>2018-07-23T15:39:45Z</time>
      </trkpt>
      <trkpt lat="44.85077" lon="4.34714">
        <ele>648.034</ele>
        <time>2018-07-23T15:39:48Z</time>
      </trkpt>
      <trkpt lat="44.85076" lon="4.34728">
        <ele>648.565</ele>
        <time>2018-07-23T15:39:58Z</time>
      </trkpt>
      <trkpt lat="44.85069" lon="4.34732">
        <ele>649.919</ele>
        <time>2018-07-23T15:40:05Z</time>
      </trkpt>
      <trkpt lat="44.85058" lon="4.34739">
        <ele>650.71</ele>
        <time>2018-07-23T15:40:15Z</time>
      </trkpt>
      <trkpt lat="44.85054" lon="4.34747">
        <ele>651.697</ele>
        <time>2018-07-23T15:40:23Z</time>
      </trkpt>
      <trkpt lat="44.85053" lon="4.34755">
        <ele>652.373</ele>
        <time>2018-07-23T15:40:29Z</time>
      </trkpt>
      <trkpt lat="44.85054" lon="4.34759">
        <ele>652.992</ele>
        <time>2018-07-23T15:40:32Z</time>
      </trkpt>
      <trkpt lat="44.85056" lon="4.34766">
        <ele>652.483</ele>
        <time>2018-07-23T15:40:36Z</time>
      </trkpt>
      <trkpt lat="44.85061" lon="4.34779">
        <ele>652.247</ele>
        <time>2018-07-23T15:40:46Z</time>
      </trkpt>
      <trkpt lat="44.85063" lon="4.34789">
        <ele>651.461</ele>
        <time>2018-07-23T15:40:54Z</time>
      </trkpt>
      <trkpt lat="44.85068" lon="4.34798">
        <ele>651.242</ele>
        <time>2018-07-23T15:41:00Z</time>
      </trkpt>
      <trkpt lat="44.85075" lon="4.3481">
        <ele>651.226</ele>
        <time>2018-07-23T15:41:09Z</time>
      </trkpt>
      <trkpt lat="44.85085" lon="4.34822">
        <ele>651.19</ele>
        <time>2018-07-23T15:41:19Z</time>
      </trkpt>
      <trkpt lat="44.85095" lon="4.34834">
        <ele>650.249</ele>
        <time>2018-07-23T15:41:31Z</time>
      </trkpt>
      <trkpt lat="44.85106" lon="4.34847">
        <ele>649.442</ele>
        <time>2018-07-23T15:41:43Z</time>
      </trkpt>
      <trkpt lat="44.85116" lon="4.34861">
        <ele>649.82</ele>
        <time>2018-07-23T15:41:55Z</time>
      </trkpt>
      <trkpt lat="44.85122" lon="4.34867">
        <ele>649.233</ele>
        <time>2018-07-23T15:42:01Z</time>
      </trkpt>
      <trkpt lat="44.85131" lon="4.34878">
        <ele>648.324</ele>
        <time>2018-07-23T15:42:11Z</time>
      </trkpt>
      <trkpt lat="44.85134" lon="4.3488">
        <ele>648.585</ele>
        <time>2018-07-23T15:42:14Z</time>
      </trkpt>
      <trkpt lat="44.85142" lon="4.34892">
        <ele>648.121</ele>
        <time>2018-07-23T15:42:24Z</time>
      </trkpt>
      <trkpt lat="44.8515" lon="4.34901">
        <ele>647.798</ele>
        <time>2018-07-23T15:42:32Z</time>
      </trkpt>
      <trkpt lat="44.85161" lon="4.34908">
        <ele>647.247</ele>
        <time>2018-07-23T15:42:42Z</time>
      </trkpt>
      <trkpt lat="44.85166" lon="4.34912">
        <ele>647.459</ele>
        <time>2018-07-23T15:42:47Z</time>
      </trkpt>
      <trkpt lat="44.85174" lon="4.34917">
        <ele>646.885</ele>
        <time>2018-07-23T15:42:54Z</time>
      </trkpt>
      <trkpt lat="44.8518" lon="4.34916">
        <ele>646.641</ele>
        <time>2018-07-23T15:42:59Z</time>
      </trkpt>
      <trkpt lat="44.85186" lon="4.34916">
        <ele>646.279</ele>
        <time>2018-07-23T15:43:05Z</time>
      </trkpt>
      <trkpt lat="44.85191" lon="4.3492">
        <ele>646.374</ele>
        <time>2018-07-23T15:43:11Z</time>
      </trkpt>
      <trkpt lat="44.85195" lon="4.34921">
        <ele>646.477</ele>
        <time>2018-07-23T15:43:14Z</time>
      </trkpt>
      <trkpt lat="44.85201" lon="4.34921">
        <ele>646.463</ele>
        <time>2018-07-23T15:43:19Z</time>
      </trkpt>
      <trkpt lat="44.85207" lon="4.34931">
        <ele>645.628</ele>
        <time>2018-07-23T15:43:26Z</time>
      </trkpt>
      <trkpt lat="44.85212" lon="4.3494">
        <ele>645.706</ele>
        <time>2018-07-23T15:43:33Z</time>
      </trkpt>
      <trkpt lat="44.8522" lon="4.34945">
        <ele>645.063</ele>
        <time>2018-07-23T15:43:41Z</time>
      </trkpt>
      <trkpt lat="44.85225" lon="4.34946">
        <ele>644.769</ele>
        <time>2018-07-23T15:43:48Z</time>
      </trkpt>
      <trkpt lat="44.85237" lon="4.34943">
        <ele>644.696</ele>
        <time>2018-07-23T15:43:58Z</time>
      </trkpt>
      <trkpt lat="44.85248" lon="4.34937">
        <ele>644.728</ele>
        <time>2018-07-23T15:44:06Z</time>
      </trkpt>
      <trkpt lat="44.85258" lon="4.34944">
        <ele>644.812</ele>
        <time>2018-07-23T15:44:14Z</time>
      </trkpt>
      <trkpt lat="44.85268" lon="4.34952">
        <ele>643.693</ele>
        <time>2018-07-23T15:44:22Z</time>
      </trkpt>
      <trkpt lat="44.8527" lon="4.34946">
        <ele>643.612</ele>
        <time>2018-07-23T15:44:30Z</time>
      </trkpt>
      <trkpt lat="44.8527" lon="4.34941">
        <ele>643.018</ele>
        <time>2018-07-23T15:44:42Z</time>
      </trkpt>
      <trkpt lat="44.85267" lon="4.34936">
        <ele>644.445</ele>
        <time>2018-07-23T15:45:26Z</time>
      </trkpt>
      <trkpt lat="44.85265" lon="4.3493">
        <ele>643.441</ele>
        <time>2018-07-23T15:45:35Z</time>
      </trkpt>
      <trkpt lat="44.85265" lon="4.34916">
        <ele>644.043</ele>
        <time>2018-07-23T15:45:44Z</time>
      </trkpt>
      <trkpt lat="44.85267" lon="4.34912">
        <ele>643.432</ele>
        <time>2018-07-23T15:45:47Z</time>
      </trkpt>
      <trkpt lat="44.85275" lon="4.34906">
        <ele>643.939</ele>
        <time>2018-07-23T15:45:56Z</time>
      </trkpt>
      <trkpt lat="44.85285" lon="4.34903">
        <ele>644.591</ele>
        <time>2018-07-23T15:46:05Z</time>
      </trkpt>
      <trkpt lat="44.85295" lon="4.34898">
        <ele>645.184</ele>
        <time>2018-07-23T15:46:15Z</time>
      </trkpt>
      <trkpt lat="44.85298" lon="4.34898">
        <ele>645.984</ele>
        <time>2018-07-23T15:46:20Z</time>
      </trkpt>
      <trkpt lat="44.85311" lon="4.3489">
        <ele>646.415</ele>
        <time>2018-07-23T15:46:31Z</time>
      </trkpt>
      <trkpt lat="44.85319" lon="4.34884">
        <ele>647.311</ele>
        <time>2018-07-23T15:46:37Z</time>
      </trkpt>
      <trkpt lat="44.85324" lon="4.34881">
        <ele>647.549</ele>
        <time>2018-07-23T15:46:41Z</time>
      </trkpt>
      <trkpt lat="44.85326" lon="4.3488">
        <ele>648.302</ele>
        <time>2018-07-23T15:46:44Z</time>
      </trkpt>
      <trkpt lat="44.85336" lon="4.3487">
        <ele>649.374</ele>
        <time>2018-07-23T15:46:56Z</time>
      </trkpt>
      <trkpt lat="44.8534" lon="4.3486">
        <ele>650.046</ele>
        <time>2018-07-23T15:47:03Z</time>
      </trkpt>
      <trkpt lat="44.85343" lon="4.34846">
        <ele>650.989</ele>
        <time>2018-07-23T15:47:11Z</time>
      </trkpt>
      <trkpt lat="44.85349" lon="4.34844">
        <ele>651.496</ele>
        <time>2018-07-23T15:47:15Z</time>
      </trkpt>
      <trkpt lat="44.85355" lon="4.34836">
        <ele>651.623</ele>
        <time>2018-07-23T15:47:20Z</time>
      </trkpt>
      <trkpt lat="44.85364" lon="4.34819">
        <ele>652.342</ele>
        <time>2018-07-23T15:47:29Z</time>
      </trkpt>
      <trkpt lat="44.85372" lon="4.34804">
        <ele>652.931</ele>
        <time>2018-07-23T15:47:37Z</time>
      </trkpt>
      <trkpt lat="44.85382" lon="4.34798">
        <ele>653.708</ele>
        <time>2018-07-23T15:47:45Z</time>
      </trkpt>
      <trkpt lat="44.85395" lon="4.34797">
        <ele>652.371</ele>
        <time>2018-07-23T15:47:52Z</time>
      </trkpt>
      <trkpt lat="44.85401" lon="4.34793">
        <ele>651.779</ele>
        <time>2018-07-23T15:47:58Z</time>
      </trkpt>
      <trkpt lat="44.85403" lon="4.3479">
        <ele>650.789</ele>
        <time>2018-07-23T15:48:03Z</time>
      </trkpt>
      <trkpt lat="44.85405" lon="4.34786">
        <ele>649.247</ele>
        <time>2018-07-23T15:48:08Z</time>
      </trkpt>
      <trkpt lat="44.85406" lon="4.3478">
        <ele>647.88</ele>
        <time>2018-07-23T15:48:20Z</time>
      </trkpt>
      <trkpt lat="44.85406" lon="4.34789">
        <ele>645.649</ele>
        <time>2018-07-23T15:48:28Z</time>
      </trkpt>
      <trkpt lat="44.85412" lon="4.34792">
        <ele>644.538</ele>
        <time>2018-07-23T15:48:34Z</time>
      </trkpt>
      <trkpt lat="44.85423" lon="4.34809">
        <ele>642.969</ele>
        <time>2018-07-23T15:48:47Z</time>
      </trkpt>
      <trkpt lat="44.85421" lon="4.34818">
        <ele>642.712</ele>
        <time>2018-07-23T15:48:58Z</time>
      </trkpt>
      <trkpt lat="44.85417" lon="4.34831">
        <ele>643.195</ele>
        <time>2018-07-23T15:49:04Z</time>
      </trkpt>
      <trkpt lat="44.85407" lon="4.34836">
        <ele>643.532</ele>
        <time>2018-07-23T15:49:10Z</time>
      </trkpt>
      <trkpt lat="44.85402" lon="4.34842">
        <ele>643.987</ele>
        <time>2018-07-23T15:49:16Z</time>
      </trkpt>
      <trkpt lat="44.85396" lon="4.34853">
        <ele>644.42</ele>
        <time>2018-07-23T15:49:24Z</time>
      </trkpt>
      <trkpt lat="44.85394" lon="4.34865">
        <ele>644.946</ele>
        <time>2018-07-23T15:49:31Z</time>
      </trkpt>
      <trkpt lat="44.8539" lon="4.34874">
        <ele>644.956</ele>
        <time>2018-07-23T15:49:39Z</time>
      </trkpt>
      <trkpt lat="44.85383" lon="4.34884">
        <ele>644.362</ele>
        <time>2018-07-23T15:49:47Z</time>
      </trkpt>
      <trkpt lat="44.85381" lon="4.34893">
        <ele>643.631</ele>
        <time>2018-07-23T15:49:55Z</time>
      </trkpt>
      <trkpt lat="44.85384" lon="4.34902">
        <ele>643.012</ele>
        <time>2018-07-23T15:50:03Z</time>
      </trkpt>
      <trkpt lat="44.85395" lon="4.34914">
        <ele>642.584</ele>
        <time>2018-07-23T15:50:14Z</time>
      </trkpt>
      <trkpt lat="44.85404" lon="4.3493">
        <ele>642.796</ele>
        <time>2018-07-23T15:50:26Z</time>
      </trkpt>
      <trkpt lat="44.85403" lon="4.34938">
        <ele>642.69</ele>
        <time>2018-07-23T15:50:33Z</time>
      </trkpt>
      <trkpt lat="44.85403" lon="4.34934">
        <ele>642.045</ele>
        <time>2018-07-23T15:53:39Z</time>
      </trkpt>
      <trkpt lat="44.85401" lon="4.34931">
        <ele>642.401</ele>
        <time>2018-07-23T15:53:42Z</time>
      </trkpt>
      <trkpt lat="44.85394" lon="4.34919">
        <ele>642.419</ele>
        <time>2018-07-23T15:53:53Z</time>
      </trkpt>
      <trkpt lat="44.85386" lon="4.34906">
        <ele>642.796</ele>
        <time>2018-07-23T15:54:04Z</time>
      </trkpt>
      <trkpt lat="44.8538" lon="4.349">
        <ele>642.548</ele>
        <time>2018-07-23T15:54:10Z</time>
      </trkpt>
      <trkpt lat="44.85376" lon="4.34899">
        <ele>642.857</ele>
        <time>2018-07-23T15:54:16Z</time>
      </trkpt>
      <trkpt lat="44.85378" lon="4.34885">
        <ele>643.83</ele>
        <time>2018-07-23T15:54:24Z</time>
      </trkpt>
      <trkpt lat="44.85381" lon="4.34871">
        <ele>644.004</ele>
        <time>2018-07-23T15:54:31Z</time>
      </trkpt>
      <trkpt lat="44.85388" lon="4.34859">
        <ele>644.369</ele>
        <time>2018-07-23T15:54:41Z</time>
      </trkpt>
      <trkpt lat="44.85389" lon="4.34858">
        <ele>643.997</ele>
        <time>2018-07-23T15:54:49Z</time>
      </trkpt>
      <trkpt lat="44.85391" lon="4.34857">
        <ele>644.381</ele>
        <time>2018-07-23T15:55:06Z</time>
      </trkpt>
      <trkpt lat="44.8539" lon="4.34853">
        <ele>644.3</ele>
        <time>2018-07-23T15:55:09Z</time>
      </trkpt>
      <trkpt lat="44.8539" lon="4.34838">
        <ele>643.238</ele>
        <time>2018-07-23T15:55:15Z</time>
      </trkpt>
      <trkpt lat="44.85393" lon="4.34834">
        <ele>643.344</ele>
        <time>2018-07-23T15:55:19Z</time>
      </trkpt>
      <trkpt lat="44.85395" lon="4.34831">
        <ele>643.463</ele>
        <time>2018-07-23T15:55:22Z</time>
      </trkpt>
      <trkpt lat="44.85396" lon="4.34828">
        <ele>643.105</ele>
        <time>2018-07-23T15:55:24Z</time>
      </trkpt>
      <trkpt lat="44.85398" lon="4.34823">
        <ele>643.155</ele>
        <time>2018-07-23T15:55:27Z</time>
      </trkpt>
      <trkpt lat="44.85401" lon="4.34816">
        <ele>642.094</ele>
        <time>2018-07-23T15:55:34Z</time>
      </trkpt>
      <trkpt lat="44.8541" lon="4.34809">
        <ele>642.039</ele>
        <time>2018-07-23T15:55:42Z</time>
      </trkpt>
      <trkpt lat="44.85409" lon="4.34803">
        <ele>641.902</ele>
        <time>2018-07-23T15:55:46Z</time>
      </trkpt>
      <trkpt lat="44.85409" lon="4.34797">
        <ele>643.125</ele>
        <time>2018-07-23T15:55:56Z</time>
      </trkpt>
      <trkpt lat="44.85406" lon="4.34794">
        <ele>644.85</ele>
        <time>2018-07-23T15:56:03Z</time>
      </trkpt>
      <trkpt lat="44.85403" lon="4.34789">
        <ele>646.549</ele>
        <time>2018-07-23T15:56:10Z</time>
      </trkpt>
      <trkpt lat="44.85403" lon="4.34792">
        <ele>646.768</ele>
        <time>2018-07-23T15:56:12Z</time>
      </trkpt>
      <trkpt lat="44.85397" lon="4.34793">
        <ele>647.864</ele>
        <time>2018-07-23T15:56:17Z</time>
      </trkpt>
      <trkpt lat="44.85392" lon="4.34802">
        <ele>649.038</ele>
        <time>2018-07-23T15:56:24Z</time>
      </trkpt>
      <trkpt lat="44.85383" lon="4.34811">
        <ele>650.786</ele>
        <time>2018-07-23T15:56:34Z</time>
      </trkpt>
      <trkpt lat="44.85376" lon="4.34815">
        <ele>651.669</ele>
        <time>2018-07-23T15:56:43Z</time>
      </trkpt>
      <trkpt lat="44.85369" lon="4.34821">
        <ele>652.579</ele>
        <time>2018-07-23T15:56:50Z</time>
      </trkpt>
      <trkpt lat="44.85361" lon="4.34827">
        <ele>651.574</ele>
        <time>2018-07-23T15:56:56Z</time>
      </trkpt>
      <trkpt lat="44.85356" lon="4.34842">
        <ele>650.307</ele>
        <time>2018-07-23T15:57:07Z</time>
      </trkpt>
      <trkpt lat="44.85352" lon="4.34853">
        <ele>650.082</ele>
        <time>2018-07-23T15:57:14Z</time>
      </trkpt>
      <trkpt lat="44.85346" lon="4.34863">
        <ele>649.997</ele>
        <time>2018-07-23T15:57:21Z</time>
      </trkpt>
      <trkpt lat="44.85339" lon="4.34874">
        <ele>649.282</ele>
        <time>2018-07-23T15:57:29Z</time>
      </trkpt>
      <trkpt lat="44.85327" lon="4.34886">
        <ele>647.363</ele>
        <time>2018-07-23T15:57:38Z</time>
      </trkpt>
      <trkpt lat="44.8532" lon="4.34892">
        <ele>645.603</ele>
        <time>2018-07-23T15:57:44Z</time>
      </trkpt>
      <trkpt lat="44.85318" lon="4.34893">
        <ele>645.679</ele>
        <time>2018-07-23T15:57:46Z</time>
      </trkpt>
      <trkpt lat="44.85309" lon="4.34901">
        <ele>644.928</ele>
        <time>2018-07-23T15:57:54Z</time>
      </trkpt>
      <trkpt lat="44.85298" lon="4.34904">
        <ele>643.585</ele>
        <time>2018-07-23T15:58:02Z</time>
      </trkpt>
      <trkpt lat="44.85293" lon="4.34906">
        <ele>643.611</ele>
        <time>2018-07-23T15:58:06Z</time>
      </trkpt>
      <trkpt lat="44.8529" lon="4.34905">
        <ele>643.813</ele>
        <time>2018-07-23T15:58:08Z</time>
      </trkpt>
      <trkpt lat="44.85284" lon="4.34908">
        <ele>643.084</ele>
        <time>2018-07-23T15:58:13Z</time>
      </trkpt>
      <trkpt lat="44.85281" lon="4.34913">
        <ele>642.804</ele>
        <time>2018-07-23T15:58:16Z</time>
      </trkpt>
      <trkpt lat="44.8527" lon="4.34919">
        <ele>641.872</ele>
        <time>2018-07-23T15:58:27Z</time>
      </trkpt>
      <trkpt lat="44.85268" lon="4.34929">
        <ele>641.68</ele>
        <time>2018-07-23T15:58:36Z</time>
      </trkpt>
      <trkpt lat="44.85264" lon="4.34941">
        <ele>641.756</ele>
        <time>2018-07-23T15:58:45Z</time>
      </trkpt>
      <trkpt lat="44.85266" lon="4.34944">
        <ele>642.366</ele>
        <time>2018-07-23T15:58:49Z</time>
      </trkpt>
      <trkpt lat="44.85264" lon="4.34947">
        <ele>642.991</ele>
        <time>2018-07-23T15:58:57Z</time>
      </trkpt>
      <trkpt lat="44.85268" lon="4.34955">
        <ele>642.68</ele>
        <time>2018-07-23T15:59:50Z</time>
      </trkpt>
      <trkpt lat="44.85268" lon="4.34959">
        <ele>642.375</ele>
        <time>2018-07-23T15:59:53Z</time>
      </trkpt>
      <trkpt lat="44.85268" lon="4.34962">
        <ele>642.564</ele>
        <time>2018-07-23T15:59:55Z</time>
      </trkpt>
      <trkpt lat="44.85271" lon="4.34973">
        <ele>642.107</ele>
        <time>2018-07-23T16:00:02Z</time>
      </trkpt>
      <trkpt lat="44.85284" lon="4.3498">
        <ele>642.361</ele>
        <time>2018-07-23T16:00:13Z</time>
      </trkpt>
      <trkpt lat="44.85295" lon="4.34992">
        <ele>641.328</ele>
        <time>2018-07-23T16:00:24Z</time>
      </trkpt>
      <trkpt lat="44.85297" lon="4.34996">
        <ele>641.442</ele>
        <time>2018-07-23T16:00:26Z</time>
      </trkpt>
      <trkpt lat="44.85298" lon="4.35004">
        <ele>640.807</ele>
        <time>2018-07-23T16:00:31Z</time>
      </trkpt>
      <trkpt lat="44.85301" lon="4.35009">
        <ele>641.174</ele>
        <time>2018-07-23T16:00:35Z</time>
      </trkpt>
      <trkpt lat="44.85304" lon="4.35027">
        <ele>640.698</ele>
        <time>2018-07-23T16:00:45Z</time>
      </trkpt>
      <trkpt lat="44.85305" lon="4.35031">
        <ele>640.768</ele>
        <time>2018-07-23T16:00:48Z</time>
      </trkpt>
      <trkpt lat="44.85304" lon="4.35038">
        <ele>640.135</ele>
        <time>2018-07-23T16:00:52Z</time>
      </trkpt>
      <trkpt lat="44.85297" lon="4.35057">
        <ele>640.043</ele>
        <time>2018-07-23T16:01:04Z</time>
      </trkpt>
      <trkpt lat="44.85295" lon="4.35065">
        <ele>640.893</ele>
        <time>2018-07-23T16:01:09Z</time>
      </trkpt>
      <trkpt lat="44.85291" lon="4.35081">
        <ele>641.729</ele>
        <time>2018-07-23T16:01:19Z</time>
      </trkpt>
      <trkpt lat="44.85289" lon="4.35087">
        <ele>641.89</ele>
        <time>2018-07-23T16:01:24Z</time>
      </trkpt>
      <trkpt lat="44.85285" lon="4.35089">
        <ele>642.219</ele>
        <time>2018-07-23T16:01:32Z</time>
      </trkpt>
      <trkpt lat="44.85285" lon="4.35096">
        <ele>642.452</ele>
        <time>2018-07-23T16:01:39Z</time>
      </trkpt>
      <trkpt lat="44.85282" lon="4.3511">
        <ele>642.263</ele>
        <time>2018-07-23T16:01:48Z</time>
      </trkpt>
      <trkpt lat="44.8528" lon="4.3513">
        <ele>642.706</ele>
        <time>2018-07-23T16:02:00Z</time>
      </trkpt>
      <trkpt lat="44.8528" lon="4.35136">
        <ele>642.213</ele>
        <time>2018-07-23T16:02:03Z</time>
      </trkpt>
      <trkpt lat="44.8528" lon="4.35142">
        <ele>643.237</ele>
        <time>2018-07-23T16:02:07Z</time>
      </trkpt>
      <trkpt lat="44.85278" lon="4.35155">
        <ele>642.575</ele>
        <time>2018-07-23T16:02:15Z</time>
      </trkpt>
      <trkpt lat="44.85276" lon="4.3517">
        <ele>643.237</ele>
        <time>2018-07-23T16:02:25Z</time>
      </trkpt>
      <trkpt lat="44.85275" lon="4.35179">
        <ele>643.98</ele>
        <time>2018-07-23T16:02:30Z</time>
      </trkpt>
      <trkpt lat="44.85274" lon="4.35182">
        <ele>643.855</ele>
        <time>2018-07-23T16:02:32Z</time>
      </trkpt>
      <trkpt lat="44.85271" lon="4.35193">
        <ele>644.991</ele>
        <time>2018-07-23T16:02:40Z</time>
      </trkpt>
      <trkpt lat="44.85272" lon="4.35198">
        <ele>645.035</ele>
        <time>2018-07-23T16:02:43Z</time>
      </trkpt>
      <trkpt lat="44.85275" lon="4.35212">
        <ele>645.044</ele>
        <time>2018-07-23T16:02:52Z</time>
      </trkpt>
      <trkpt lat="44.85279" lon="4.35221">
        <ele>644.223</ele>
        <time>2018-07-23T16:02:59Z</time>
      </trkpt>
      <trkpt lat="44.85284" lon="4.35231">
        <ele>644.25</ele>
        <time>2018-07-23T16:03:06Z</time>
      </trkpt>
      <trkpt lat="44.85283" lon="4.3525">
        <ele>643.352</ele>
        <time>2018-07-23T16:03:17Z</time>
      </trkpt>
      <trkpt lat="44.8528" lon="4.35257">
        <ele>643.041</ele>
        <time>2018-07-23T16:03:22Z</time>
      </trkpt>
      <trkpt lat="44.85273" lon="4.3526">
        <ele>642.82</ele>
        <time>2018-07-23T16:03:28Z</time>
      </trkpt>
      <trkpt lat="44.85268" lon="4.35259">
        <ele>643.226</ele>
        <time>2018-07-23T16:03:35Z</time>
      </trkpt>
      <trkpt lat="44.85265" lon="4.35258">
        <ele>643.164</ele>
        <time>2018-07-23T16:03:38Z</time>
      </trkpt>
      <trkpt lat="44.85255" lon="4.35258">
        <ele>643.268</ele>
        <time>2018-07-23T16:03:46Z</time>
      </trkpt>
      <trkpt lat="44.85246" lon="4.35261">
        <ele>643.415</ele>
        <time>2018-07-23T16:03:54Z</time>
      </trkpt>
      <trkpt lat="44.85238" lon="4.35264">
        <ele>644.163</ele>
        <time>2018-07-23T16:04:02Z</time>
      </trkpt>
      <trkpt lat="44.85232" lon="4.35263">
        <ele>643.802</ele>
        <time>2018-07-23T16:04:08Z</time>
      </trkpt>
      <trkpt lat="44.85222" lon="4.35267">
        <ele>643.638</ele>
        <time>2018-07-23T16:04:15Z</time>
      </trkpt>
      <trkpt lat="44.85219" lon="4.35269">
        <ele>643.276</ele>
        <time>2018-07-23T16:04:18Z</time>
      </trkpt>
      <trkpt lat="44.85208" lon="4.35277">
        <ele>642.8</ele>
        <time>2018-07-23T16:04:29Z</time>
      </trkpt>
      <trkpt lat="44.85205" lon="4.35281">
        <ele>642.522</ele>
        <time>2018-07-23T16:04:31Z</time>
      </trkpt>
      <trkpt lat="44.85197" lon="4.35291">
        <ele>640.891</ele>
        <time>2018-07-23T16:04:41Z</time>
      </trkpt>
      <trkpt lat="44.85193" lon="4.35298">
        <ele>640.447</ele>
        <time>2018-07-23T16:04:46Z</time>
      </trkpt>
    </trkseg>
  </trk>
</gpx>